Provisional Data: Baldwin Run near Wellsboro Junction, PA


Please select a monitoring station.
Please select start date.
Please select start date.

Toggle Unit: C/F Toggle Unit: C/F
Sample Time Temperature (C) Temperature (F) Specific Conductivity (mS/cm) pH   Turbidity (NTU+) DO (mg/L)
2/8/2023 12:00:00 AM 0.91 33.638 0.065 7.57 3.17 13.76
2/8/2023 12:15:00 AM 0.92 33.656 0.065 7.58 3.17 13.76
2/8/2023 12:30:00 AM 0.93 33.674 0.066 7.57 3.05 13.75
2/8/2023 12:45:00 AM 0.95 33.71 0.067 7.57 3.1 13.75
2/8/2023 1:00:00 AM 0.96 33.728 0.066 7.56 2.91 13.75
2/8/2023 1:15:00 AM 0.97 33.746 0.066 7.57 2.83 13.74
2/8/2023 1:30:00 AM 0.99 33.782 0.072 7.57 2.92 13.73
2/8/2023 1:45:00 AM 1 33.8 0.067 7.59 2.86 13.73
2/8/2023 2:00:00 AM 1.01 33.818 0.066 7.56 3.09 13.73
2/8/2023 2:15:00 AM 1.02 33.836 0.068 7.55 3 13.73
2/8/2023 2:30:00 AM 1.03 33.854 0.067 7.57 2.9 13.73
2/8/2023 2:45:00 AM 1.04 33.872 0.066 7.6 2.95 13.72
2/8/2023 3:00:00 AM 1.04 33.872 0.066 7.59 2.85 13.72
2/8/2023 3:15:00 AM 1.05 33.89 0.066 7.58 2.76 13.71
2/8/2023 3:30:00 AM 1.06 33.908 0.066 7.59 2.73 13.72
2/8/2023 3:45:00 AM 1.07 33.926 0.066 7.56 2.7 13.71
2/8/2023 4:00:00 AM -99999.99 -179968 -99999.99 -99999.99 -99999.99 -99999.99
2/8/2023 4:15:00 AM -99999.99 -179968 -99999.99 -99999.99 -99999.99 -99999.99
2/8/2023 4:30:00 AM -99999.99 -179968 -99999.99 -99999.99 -99999.99 -99999.99
2/8/2023 4:45:00 AM -99999.99 -179968 -99999.99 -99999.99 -99999.99 -99999.99
2/8/2023 5:00:00 AM -99999.99 -179968 -99999.99 -99999.99 -99999.99 -99999.99
2/8/2023 5:15:00 AM -99999.99 -179968 -99999.99 -99999.99 -99999.99 -99999.99
2/8/2023 5:30:00 AM -99999.99 -179968 -99999.99 -99999.99 -99999.99 -99999.99
2/8/2023 5:45:00 AM -99999.99 -179968 -99999.99 -99999.99 -99999.99 -99999.99
2/8/2023 6:00:00 AM -99999.99 -179968 -99999.99 -99999.99 -99999.99 -99999.99
2/8/2023 6:15:00 AM -99999.99 -179968 -99999.99 -99999.99 -99999.99 -99999.99
2/8/2023 6:30:00 AM -99999.99 -179968 -99999.99 -99999.99 -99999.99 -99999.99
2/8/2023 6:45:00 AM -99999.99 -179968 -99999.99 -99999.99 -99999.99 -99999.99
2/8/2023 7:00:00 AM -99999.99 -179968 -99999.99 -99999.99 -99999.99 -99999.99
2/8/2023 7:15:00 AM -99999.99 -179968 -99999.99 -99999.99 -99999.99 -99999.99
2/8/2023 7:30:00 AM -99999.99 -179968 -99999.99 -99999.99 -99999.99 -99999.99
2/8/2023 7:45:00 AM -99999.99 -179968 -99999.99 -99999.99 -99999.99 -99999.99
2/8/2023 8:00:00 AM -99999.99 -179968 -99999.99 -99999.99 -99999.99 -99999.99
2/8/2023 8:15:00 AM -99999.99 -179968 -99999.99 -99999.99 -99999.99 -99999.99
2/8/2023 8:30:00 AM -99999.99 -179968 -99999.99 -99999.99 -99999.99 -99999.99
2/8/2023 8:45:00 AM -99999.99 -179968 -99999.99 -99999.99 -99999.99 -99999.99
2/8/2023 9:00:00 AM 1.21 34.178 0.072 7.94 2.59 13.85
2/8/2023 9:15:00 AM 1.23 34.214 0.066 7.7 2.6 13.88
2/8/2023 9:30:00 AM 1.25 34.25 0.066 7.68 2.63 13.88
2/8/2023 9:45:00 AM 1.26 34.268 0.065 7.69 2.65 13.88
2/8/2023 10:00:00 AM 1.3 34.34 0.065 7.67 2.74 13.89
2/8/2023 10:15:00 AM 1.33 34.394 0.065 7.67 2.66 13.88
2/8/2023 10:30:00 AM 1.35 34.43 0.065 7.68 2.74 13.87
2/8/2023 10:45:00 AM 1.37 34.466 0.065 7.68 2.68 13.86
2/8/2023 11:00:00 AM 1.38 34.484 0.065 7.68 2.77 13.85
2/8/2023 11:15:00 AM 1.41 34.538 0.065 7.68 2.75 13.83
2/8/2023 11:30:00 AM 1.41 34.538 0.065 7.69 3.08 13.83
2/8/2023 11:45:00 AM 1.42 34.556 0.065 7.69 3.06 13.83
2/8/2023 12:00:00 PM 1.41 34.538 0.065 7.68 3.09 13.81
2/8/2023 12:15:00 PM 1.4 34.52 0.065 7.69 3.17 13.81
2/8/2023 12:30:00 PM 1.41 34.538 0.065 7.67 3.66 13.8
2/8/2023 12:45:00 PM 1.41 34.538 0.065 7.67 3.65 13.79
2/8/2023 1:00:00 PM 1.4 34.52 0.065 7.68 3.29 13.78
2/8/2023 1:15:00 PM 1.45 34.61 0.065 7.67 3.2 13.77
2/8/2023 1:30:00 PM 1.43 34.574 0.065 7.66 3.57 13.77
2/8/2023 1:45:00 PM 1.4 34.52 0.061 7.64 4.81 13.75
2/8/2023 2:00:00 PM 1.42 34.556 0.065 7.67 3.61 13.75
2/8/2023 2:15:00 PM 1.42 34.556 0.065 7.66 3.77 13.73
2/8/2023 2:30:00 PM 1.37 34.466 0.065 7.66 3.89 13.75
2/8/2023 2:45:00 PM 1.38 34.484 0.065 7.66 3.53 13.74
2/8/2023 3:00:00 PM 1.41 34.538 0.061 7.63 4.78 13.73
2/8/2023 3:15:00 PM 1.41 34.538 0.065 7.65 3.75 13.72
2/8/2023 3:30:00 PM 1.38 34.484 0.065 7.64 3.71 13.73
2/8/2023 3:45:00 PM 1.39 34.502 0.065 7.65 3.56 13.73
2/8/2023 4:00:00 PM 1.39 34.502 0.065 7.66 3.57 13.72
2/8/2023 4:15:00 PM 1.42 34.556 0.065 7.62 3.54 13.7
2/8/2023 4:30:00 PM 1.41 34.538 0.065 7.65 3.63 13.7
2/8/2023 4:45:00 PM 1.4 34.52 0.065 7.63 3.54 13.7
2/8/2023 5:00:00 PM 1.41 34.538 0.065 7.63 3.55 13.69
2/8/2023 5:15:00 PM 1.37 34.466 0.065 7.62 3.65 13.69
2/8/2023 5:30:00 PM 1.37 34.466 0.065 7.62 3.62 13.68
2/8/2023 5:45:00 PM 1.37 34.466 0.065 7.61 3.74 13.66
2/8/2023 6:00:00 PM 1.36 34.448 0.065 7.62 3.69 13.66
2/8/2023 6:15:00 PM 1.35 34.43 0.065 7.6 4.2 13.67
2/8/2023 6:30:00 PM 1.34 34.412 0.065 7.6 3.5 13.68
2/8/2023 6:45:00 PM 1.33 34.394 0.065 7.6 3.47 13.68
2/8/2023 7:00:00 PM 1.31 34.358 0.065 7.61 3.44 13.69
2/8/2023 7:15:00 PM 1.3 34.34 0.065 7.61 3.59 13.69
2/8/2023 7:30:00 PM 1.29 34.322 0.065 7.6 3.33 13.7
2/8/2023 7:45:00 PM 1.28 34.304 0.065 7.59 3.4 13.7
2/8/2023 8:00:00 PM 1.27 34.286 0.065 7.59 3.39 13.71
2/8/2023 8:15:00 PM 1.27 34.286 0.064 7.58 4.67 13.71
2/8/2023 8:30:00 PM 1.26 34.268 0.065 7.6 3.4 13.72
2/8/2023 8:45:00 PM 1.25 34.25 0.065 7.61 3.41 13.72
2/8/2023 9:00:00 PM 1.25 34.25 0.065 7.58 3.24 13.72
2/8/2023 9:15:00 PM -99999.99 -179968 -99999.99 -99999.99 -99999.99 -99999.99
2/8/2023 9:30:00 PM -99999.99 -179968 -99999.99 -99999.99 -99999.99 -99999.99
2/8/2023 9:45:00 PM -99999.99 -179968 -99999.99 -99999.99 -99999.99 -99999.99
2/8/2023 10:00:00 PM -99999.99 -179968 -99999.99 -99999.99 -99999.99 -99999.99
2/8/2023 10:15:00 PM -99999.99 -179968 -99999.99 -99999.99 -99999.99 -99999.99
2/8/2023 10:30:00 PM -99999.99 -179968 -99999.99 -99999.99 -99999.99 -99999.99
2/8/2023 10:45:00 PM -99999.99 -179968 -99999.99 -99999.99 -99999.99 -99999.99
2/8/2023 11:00:00 PM -99999.99 -179968 -99999.99 -99999.99 -99999.99 -99999.99
2/8/2023 11:15:00 PM -99999.99 -179968 -99999.99 -99999.99 -99999.99 -99999.99
2/8/2023 11:30:00 PM -99999.99 -179968 -99999.99 -99999.99 -99999.99 -99999.99
2/8/2023 11:45:00 PM -99999.99 -179968 -99999.99 -99999.99 -99999.99 -99999.99
2/9/2023 12:00:00 AM -99999.99 -179968 -99999.99 -99999.99 -99999.99 -99999.99
2/9/2023 12:15:00 AM -99999.99 -179968 -99999.99 -99999.99 -99999.99 -99999.99
2/9/2023 12:30:00 AM -99999.99 -179968 -99999.99 -99999.99 -99999.99 -99999.99
2/9/2023 12:45:00 AM -99999.99 -179968 -99999.99 -99999.99 -99999.99 -99999.99
2/9/2023 1:00:00 AM -99999.99 -179968 -99999.99 -99999.99 -99999.99 -99999.99
2/9/2023 1:15:00 AM -99999.99 -179968 -99999.99 -99999.99 -99999.99 -99999.99
2/9/2023 1:30:00 AM -99999.99 -179968 -99999.99 -99999.99 -99999.99 -99999.99
2/9/2023 1:45:00 AM -99999.99 -179968 -99999.99 -99999.99 -99999.99 -99999.99
2/9/2023 2:00:00 AM -99999.99 -179968 -99999.99 -99999.99 -99999.99 -99999.99
2/9/2023 2:15:00 AM -99999.99 -179968 -99999.99 -99999.99 -99999.99 -99999.99
2/9/2023 2:30:00 AM -99999.99 -179968 -99999.99 -99999.99 -99999.99 -99999.99
2/9/2023 2:45:00 AM -99999.99 -179968 -99999.99 -99999.99 -99999.99 -99999.99
2/9/2023 3:00:00 AM -99999.99 -179968 -99999.99 -99999.99 -99999.99 -99999.99
2/9/2023 3:15:00 AM -99999.99 -179968 -99999.99 -99999.99 -99999.99 -99999.99
2/9/2023 3:30:00 AM -99999.99 -179968 -99999.99 -99999.99 -99999.99 -99999.99
2/9/2023 3:45:00 AM -99999.99 -179968 -99999.99 -99999.99 -99999.99 -99999.99
2/9/2023 4:00:00 AM -99999.99 -179968 -99999.99 -99999.99 -99999.99 -99999.99
2/9/2023 4:15:00 AM -99999.99 -179968 -99999.99 -99999.99 -99999.99 -99999.99
2/9/2023 4:30:00 AM -99999.99 -179968 -99999.99 -99999.99 -99999.99 -99999.99
2/9/2023 4:45:00 AM -99999.99 -179968 -99999.99 -99999.99 -99999.99 -99999.99
2/9/2023 5:00:00 AM -99999.99 -179968 -99999.99 -99999.99 -99999.99 -99999.99
2/9/2023 5:15:00 AM -99999.99 -179968 -99999.99 -99999.99 -99999.99 -99999.99
2/9/2023 5:30:00 AM -99999.99 -179968 -99999.99 -99999.99 -99999.99 -99999.99
2/9/2023 5:45:00 AM -99999.99 -179968 -99999.99 -99999.99 -99999.99 -99999.99
2/9/2023 6:00:00 AM -99999.99 -179968 -99999.99 -99999.99 -99999.99 -99999.99
2/9/2023 6:15:00 AM -99999.99 -179968 -99999.99 -99999.99 -99999.99 -99999.99
2/9/2023 6:30:00 AM -99999.99 -179968 -99999.99 -99999.99 -99999.99 -99999.99
2/9/2023 6:45:00 AM -99999.99 -179968 -99999.99 -99999.99 -99999.99 -99999.99
2/9/2023 7:00:00 AM -99999.99 -179968 -99999.99 -99999.99 -99999.99 -99999.99
2/9/2023 7:15:00 AM -99999.99 -179968 -99999.99 -99999.99 -99999.99 -99999.99
2/9/2023 7:30:00 AM -99999.99 -179968 -99999.99 -99999.99 -99999.99 -99999.99
2/9/2023 7:45:00 AM -99999.99 -179968 -99999.99 -99999.99 -99999.99 -99999.99
2/9/2023 8:00:00 AM -99999.99 -179968 -99999.99 -99999.99 -99999.99 -99999.99
2/9/2023 8:15:00 AM -99999.99 -179968 -99999.99 -99999.99 -99999.99 -99999.99
2/9/2023 8:30:00 AM -99999.99 -179968 -99999.99 -99999.99 -99999.99 -99999.99
2/9/2023 8:45:00 AM -99999.99 -179968 -99999.99 -99999.99 -99999.99 -99999.99
2/9/2023 9:00:00 AM -99999.99 -179968 -99999.99 -99999.99 -99999.99 -99999.99
2/9/2023 9:15:00 AM -99999.99 -179968 -99999.99 -99999.99 -99999.99 -99999.99
2/9/2023 9:30:00 AM 1.18 34.124 0.066 7.76 3.33 13.83
2/9/2023 9:45:00 AM 1.24 34.232 0.066 7.73 3.08 13.81
2/9/2023 10:00:00 AM 1.28 34.304 0.066 7.68 3.1 13.79
2/9/2023 10:15:00 AM 1.29 34.322 0.066 7.69 2.99 13.76
2/9/2023 10:30:00 AM 1.31 34.358 0.065 7.7 3.11 13.76
2/9/2023 10:45:00 AM 1.35 34.43 0.065 7.67 3.15 13.78
2/9/2023 11:00:00 AM 1.38 34.484 0.065 7.7 3.12 13.77
2/9/2023 11:15:00 AM 1.42 34.556 0.065 7.7 3.45 13.76
2/9/2023 11:30:00 AM 1.44 34.592 0.065 7.73 3.56 13.75
2/9/2023 11:45:00 AM 1.48 34.664 0.065 7.71 4 13.74
2/9/2023 12:00:00 PM 1.51 34.718 0.065 7.71 4.36 13.72
2/9/2023 12:15:00 PM 1.5 34.7 0.065 7.72 5.23 13.71
2/9/2023 12:30:00 PM 1.55 34.79 0.065 7.72 5.3 13.68
2/9/2023 12:45:00 PM 1.54 34.772 0.065 7.73 5.1 13.68
2/9/2023 1:00:00 PM 1.55 34.79 0.065 7.73 4.93 13.65
2/9/2023 1:15:00 PM 1.52 34.736 0.065 7.72 4.51 13.64
2/9/2023 1:30:00 PM 1.53 34.754 0.065 7.72 4.7 13.65
2/9/2023 1:45:00 PM 1.57 34.826 0.065 7.73 4.4 13.62
2/9/2023 2:00:00 PM 1.57 34.826 0.065 7.71 4.67 13.6
2/9/2023 2:15:00 PM 1.59 34.862 0.065 7.72 4.59 13.59
2/9/2023 2:30:00 PM 1.48 34.664 0.065 7.66 4.65 13.61
2/9/2023 2:45:00 PM 1.53 34.754 0.065 7.7 4.02 13.59
2/9/2023 3:00:00 PM 1.62 34.916 0.065 7.71 4.21 13.58
2/9/2023 3:15:00 PM 1.52 34.736 0.064 7.66 4.46 13.56
2/9/2023 3:30:00 PM 1.44 34.592 0.064 7.69 4.36 13.56
2/9/2023 3:45:00 PM 1.56 34.808 0.064 7.68 4.43 13.53
2/9/2023 4:00:00 PM 1.6 34.88 0.064 7.66 4.52 13.49
2/9/2023 4:15:00 PM 1.64 34.952 0.065 7.65 4.74 13.45
2/9/2023 4:30:00 PM 1.59 34.862 0.064 7.67 4.77 13.46
2/9/2023 4:45:00 PM 1.62 34.916 0.064 7.66 4.56 13.44
2/9/2023 5:00:00 PM 1.65 34.97 0.064 7.68 4.89 13.43
2/9/2023 5:15:00 PM 1.6 34.88 0.064 7.62 4.78 13.43
2/9/2023 5:30:00 PM 1.62 34.916 0.064 7.64 4.78 13.39
2/9/2023 5:45:00 PM 1.59 34.862 0.064 7.63 4.58 13.36
2/9/2023 6:00:00 PM 1.64 34.952 0.064 7.62 4.63 13.34
2/9/2023 6:15:00 PM 1.62 34.916 0.064 7.61 4.94 13.33
2/9/2023 6:30:00 PM 1.56 34.808 0.064 7.61 5.21 13.37
2/9/2023 6:45:00 PM 1.62 34.916 0.064 7.6 4.76 13.34
2/9/2023 7:00:00 PM 1.66 34.988 0.064 7.59 4.89 13.33
2/9/2023 7:15:00 PM 1.68 35.024 0.065 7.6 4.79 13.31
2/9/2023 7:30:00 PM 1.69 35.042 0.065 7.6 4.96 13.31
2/9/2023 7:45:00 PM 1.69 35.042 0.065 7.6 4.53 13.31
2/9/2023 8:00:00 PM 1.71 35.078 0.065 7.6 4.57 13.3
2/9/2023 8:15:00 PM 1.73 35.114 0.065 7.59 4.48 13.29
2/9/2023 8:30:00 PM 1.73 35.114 0.065 7.58 4.63 13.28
2/9/2023 8:45:00 PM 1.74 35.132 0.065 7.6 4.34 13.27
2/9/2023 9:00:00 PM 1.75 35.15 0.065 7.6 4.57 13.27
2/9/2023 9:15:00 PM 1.75 35.15 0.065 7.6 4.36 13.26
2/9/2023 9:30:00 PM 1.74 35.132 0.065 7.6 4.35 13.26
2/9/2023 9:45:00 PM 1.75 35.15 0.066 7.58 4.47 13.26
2/9/2023 10:00:00 PM 1.77 35.186 0.066 7.6 4.36 13.25
2/9/2023 10:15:00 PM 1.76 35.168 0.066 7.61 3.89 13.25
2/9/2023 10:30:00 PM 1.76 35.168 0.066 7.62 4.26 13.24
2/9/2023 10:45:00 PM 1.77 35.186 0.066 7.59 4.34 13.24
2/9/2023 11:00:00 PM 1.77 35.186 0.066 7.61 4.17 13.25
2/9/2023 11:15:00 PM 1.76 35.168 0.066 7.58 4.28 13.24
2/9/2023 11:30:00 PM 1.76 35.168 0.066 7.6 4.31 13.24
2/9/2023 11:45:00 PM 1.75 35.15 0.066 7.6 4.29 13.25
2/10/2023 12:00:00 AM 1.75 35.15 0.066 7.61 4.13 13.26
2/10/2023 12:15:00 AM 1.74 35.132 0.066 7.6 3.94 13.27
2/10/2023 12:30:00 AM 1.74 35.132 0.066 7.62 4.1 13.27
2/10/2023 12:45:00 AM 1.73 35.114 0.066 7.62 3.85 13.27
2/10/2023 1:00:00 AM -99999.99 -179968 -99999.99 -99999.99 -99999.99 -99999.99
2/10/2023 1:15:00 AM -99999.99 -179968 -99999.99 -99999.99 -99999.99 -99999.99
2/10/2023 1:30:00 AM -99999.99 -179968 -99999.99 -99999.99 -99999.99 -99999.99
2/10/2023 1:45:00 AM -99999.99 -179968 -99999.99 -99999.99 -99999.99 -99999.99
2/10/2023 2:00:00 AM -99999.99 -179968 -99999.99 -99999.99 -99999.99 -99999.99
2/10/2023 2:15:00 AM -99999.99 -179968 -99999.99 -99999.99 -99999.99 -99999.99
2/10/2023 2:30:00 AM -99999.99 -179968 -99999.99 -99999.99 -99999.99 -99999.99
2/10/2023 2:45:00 AM -99999.99 -179968 -99999.99 -99999.99 -99999.99 -99999.99
2/10/2023 3:00:00 AM -99999.99 -179968 -99999.99 -99999.99 -99999.99 -99999.99
2/10/2023 3:15:00 AM -99999.99 -179968 -99999.99 -99999.99 -99999.99 -99999.99
2/10/2023 3:30:00 AM -99999.99 -179968 -99999.99 -99999.99 -99999.99 -99999.99
2/10/2023 3:45:00 AM -99999.99 -179968 -99999.99 -99999.99 -99999.99 -99999.99
2/10/2023 4:00:00 AM -99999.99 -179968 -99999.99 -99999.99 -99999.99 -99999.99
2/10/2023 4:15:00 AM -99999.99 -179968 -99999.99 -99999.99 -99999.99 -99999.99
2/10/2023 4:30:00 AM -99999.99 -179968 -99999.99 -99999.99 -99999.99 -99999.99
2/10/2023 4:45:00 AM -99999.99 -179968 -99999.99 -99999.99 -99999.99 -99999.99
2/10/2023 5:00:00 AM -99999.99 -179968 -99999.99 -99999.99 -99999.99 -99999.99
2/10/2023 5:15:00 AM -99999.99 -179968 -99999.99 -99999.99 -99999.99 -99999.99
2/10/2023 5:30:00 AM -99999.99 -179968 -99999.99 -99999.99 -99999.99 -99999.99
2/10/2023 5:45:00 AM -99999.99 -179968 -99999.99 -99999.99 -99999.99 -99999.99
2/10/2023 6:00:00 AM -99999.99 -179968 -99999.99 -99999.99 -99999.99 -99999.99
2/10/2023 6:15:00 AM -99999.99 -179968 -99999.99 -99999.99 -99999.99 -99999.99
2/10/2023 6:30:00 AM -99999.99 -179968 -99999.99 -99999.99 -99999.99 -99999.99
2/10/2023 6:45:00 AM -99999.99 -179968 -99999.99 -99999.99 -99999.99 -99999.99
2/10/2023 7:00:00 AM -99999.99 -179968 -99999.99 -99999.99 -99999.99 -99999.99
2/10/2023 7:15:00 AM -99999.99 -179968 -99999.99 -99999.99 -99999.99 -99999.99
2/10/2023 7:30:00 AM -99999.99 -179968 -99999.99 -99999.99 -99999.99 -99999.99
2/10/2023 7:45:00 AM -99999.99 -179968 -99999.99 -99999.99 -99999.99 -99999.99
2/10/2023 8:00:00 AM -99999.99 -179968 -99999.99 -99999.99 -99999.99 -99999.99
2/10/2023 8:15:00 AM -99999.99 -179968 -99999.99 -99999.99 -99999.99 -99999.99
2/10/2023 8:30:00 AM -99999.99 -179968 -99999.99 -99999.99 -99999.99 -99999.99
2/10/2023 8:45:00 AM -99999.99 -179968 -99999.99 -99999.99 -99999.99 -99999.99
2/10/2023 9:00:00 AM -99999.99 -179968 -99999.99 -99999.99 -99999.99 -99999.99
2/10/2023 9:15:00 AM 2.03 35.654 0.074 7.73 3.97 13.41
2/10/2023 9:30:00 AM 2.03 35.654 0.059 7.65 4.37 13.43
2/10/2023 9:45:00 AM 2.03 35.654 0.064 7.7 3.96 13.44
2/10/2023 10:00:00 AM 2.07 35.726 0.064 7.68 4.06 13.44
2/10/2023 10:15:00 AM 2.07 35.726 0.064 7.7 4.22 13.45
2/10/2023 10:30:00 AM 2.08 35.744 0.064 7.7 4.14 13.43
2/10/2023 10:45:00 AM 2.1 35.78 0.064 7.72 4.2 13.46
2/10/2023 11:00:00 AM 2.1 35.78 0.064 7.69 4.1 13.43
2/10/2023 11:15:00 AM 2.1 35.78 0.062 7.67 5.34 13.45
2/10/2023 11:30:00 AM 2.1 35.78 0.064 7.69 3.81 13.44
2/10/2023 11:45:00 AM 2.11 35.798 0.064 7.71 4.23 13.45
2/10/2023 12:00:00 PM 2.11 35.798 0.064 7.71 4.14 13.45
2/10/2023 12:15:00 PM 2.1 35.78 0.064 7.68 4.57 13.46
2/10/2023 12:30:00 PM 2.1 35.78 0.064 7.69 4.3 13.44
2/10/2023 12:45:00 PM 2.1 35.78 0.064 7.69 4.16 13.45
2/10/2023 1:00:00 PM 2.11 35.798 0.064 7.69 4.36 13.43
2/10/2023 1:15:00 PM 2.12 35.816 0.064 7.68 4.16 13.44
2/10/2023 1:30:00 PM 2.12 35.816 0.064 7.69 4.53 13.44
2/10/2023 1:45:00 PM 2.15 35.87 0.064 7.67 4.24 13.42
2/10/2023 2:00:00 PM 2.15 35.87 0.064 7.71 3.95 13.43
2/10/2023 2:15:00 PM 2.14 35.852 0.064 7.7 4.25 13.41
2/10/2023 2:30:00 PM 2.13 35.834 0.057 7.47 4.96 13.37
2/10/2023 2:45:00 PM 2.07 35.726 0.064 7.65 4.3 13.37
2/10/2023 3:00:00 PM 2.12 35.816 0.064 7.64 4 13.37
2/10/2023 3:15:00 PM 2.11 35.798 0.061 7.63 5.44 13.35
2/10/2023 3:30:00 PM 2.1 35.78 0.064 7.68 4.09 13.35
2/10/2023 3:45:00 PM 2.11 35.798 0.064 7.63 4.52 13.33
2/10/2023 4:00:00 PM 2.1 35.78 0.064 7.67 4 13.31
2/10/2023 4:15:00 PM 2.1 35.78 0.064 7.63 4.41 13.31
2/10/2023 4:30:00 PM 2.08 35.744 0.061 7.59 5.59 13.32
2/10/2023 4:45:00 PM 2.08 35.744 0.065 7.61 4.36 13.3
2/10/2023 5:00:00 PM 2.09 35.762 0.065 7.65 4.5 13.31
2/10/2023 5:15:00 PM 2.08 35.744 0.065 7.62 4.11 13.3
2/10/2023 5:30:00 PM 2.08 35.744 0.065 7.59 4.05 13.28
2/10/2023 5:45:00 PM 2.06 35.708 0.065 7.64 4.27 13.29
2/10/2023 6:00:00 PM 2.06 35.708 0.065 7.63 4.35 13.29
2/10/2023 6:15:00 PM 2.06 35.708 0.065 7.61 4.31 13.29
2/10/2023 6:30:00 PM 2.05 35.69 0.065 7.63 4.48 13.27
2/10/2023 6:45:00 PM 2.04 35.672 0.064 7.57 5.38 13.29
2/10/2023 7:00:00 PM -99999.99 -179968 -99999.99 -99999.99 -99999.99 -99999.99
2/10/2023 7:15:00 PM -99999.99 -179968 -99999.99 -99999.99 -99999.99 -99999.99
2/10/2023 7:30:00 PM -99999.99 -179968 -99999.99 -99999.99 -99999.99 -99999.99
2/10/2023 7:45:00 PM -99999.99 -179968 -99999.99 -99999.99 -99999.99 -99999.99
2/10/2023 8:00:00 PM -99999.99 -179968 -99999.99 -99999.99 -99999.99 -99999.99
2/10/2023 8:15:00 PM -99999.99 -179968 -99999.99 -99999.99 -99999.99 -99999.99
2/10/2023 8:30:00 PM -99999.99 -179968 -99999.99 -99999.99 -99999.99 -99999.99
2/10/2023 8:45:00 PM -99999.99 -179968 -99999.99 -99999.99 -99999.99 -99999.99
2/10/2023 9:00:00 PM -99999.99 -179968 -99999.99 -99999.99 -99999.99 -99999.99
2/10/2023 9:15:00 PM -99999.99 -179968 -99999.99 -99999.99 -99999.99 -99999.99
2/10/2023 9:30:00 PM -99999.99 -179968 -99999.99 -99999.99 -99999.99 -99999.99
2/10/2023 9:45:00 PM -99999.99 -179968 -99999.99 -99999.99 -99999.99 -99999.99
2/10/2023 10:00:00 PM -99999.99 -179968 -99999.99 -99999.99 -99999.99 -99999.99
2/10/2023 10:15:00 PM -99999.99 -179968 -99999.99 -99999.99 -99999.99 -99999.99
2/10/2023 10:30:00 PM -99999.99 -179968 -99999.99 -99999.99 -99999.99 -99999.99
2/10/2023 10:45:00 PM -99999.99 -179968 -99999.99 -99999.99 -99999.99 -99999.99
2/10/2023 11:00:00 PM -99999.99 -179968 -99999.99 -99999.99 -99999.99 -99999.99
2/10/2023 11:15:00 PM -99999.99 -179968 -99999.99 -99999.99 -99999.99 -99999.99
2/10/2023 11:30:00 PM -99999.99 -179968 -99999.99 -99999.99 -99999.99 -99999.99
2/10/2023 11:45:00 PM -99999.99 -179968 -99999.99 -99999.99 -99999.99 -99999.99
2/11/2023 12:00:00 AM -99999.99 -179968 -99999.99 -99999.99 -99999.99 -99999.99
2/11/2023 12:15:00 AM -99999.99 -179968 -99999.99 -99999.99 -99999.99 -99999.99
2/11/2023 12:30:00 AM -99999.99 -179968 -99999.99 -99999.99 -99999.99 -99999.99
2/11/2023 12:45:00 AM -99999.99 -179968 -99999.99 -99999.99 -99999.99 -99999.99
2/11/2023 1:00:00 AM -99999.99 -179968 -99999.99 -99999.99 -99999.99 -99999.99
2/11/2023 1:15:00 AM -99999.99 -179968 -99999.99 -99999.99 -99999.99 -99999.99
2/11/2023 1:30:00 AM -99999.99 -179968 -99999.99 -99999.99 -99999.99 -99999.99
2/11/2023 1:45:00 AM -99999.99 -179968 -99999.99 -99999.99 -99999.99 -99999.99
2/11/2023 2:00:00 AM -99999.99 -179968 -99999.99 -99999.99 -99999.99 -99999.99
2/11/2023 2:15:00 AM -99999.99 -179968 -99999.99 -99999.99 -99999.99 -99999.99
2/11/2023 2:30:00 AM -99999.99 -179968 -99999.99 -99999.99 -99999.99 -99999.99
2/11/2023 2:45:00 AM -99999.99 -179968 -99999.99 -99999.99 -99999.99 -99999.99
2/11/2023 3:00:00 AM -99999.99 -179968 -99999.99 -99999.99 -99999.99 -99999.99
2/11/2023 3:15:00 AM -99999.99 -179968 -99999.99 -99999.99 -99999.99 -99999.99
2/11/2023 3:30:00 AM -99999.99 -179968 -99999.99 -99999.99 -99999.99 -99999.99
2/11/2023 3:45:00 AM -99999.99 -179968 -99999.99 -99999.99 -99999.99 -99999.99
2/11/2023 4:00:00 AM -99999.99 -179968 -99999.99 -99999.99 -99999.99 -99999.99
2/11/2023 4:15:00 AM -99999.99 -179968 -99999.99 -99999.99 -99999.99 -99999.99
2/11/2023 4:30:00 AM -99999.99 -179968 -99999.99 -99999.99 -99999.99 -99999.99
2/11/2023 4:45:00 AM -99999.99 -179968 -99999.99 -99999.99 -99999.99 -99999.99
2/11/2023 5:00:00 AM -99999.99 -179968 -99999.99 -99999.99 -99999.99 -99999.99
2/11/2023 5:15:00 AM -99999.99 -179968 -99999.99 -99999.99 -99999.99 -99999.99
2/11/2023 5:30:00 AM -99999.99 -179968 -99999.99 -99999.99 -99999.99 -99999.99
2/11/2023 5:45:00 AM -99999.99 -179968 -99999.99 -99999.99 -99999.99 -99999.99
2/11/2023 6:00:00 AM -99999.99 -179968 -99999.99 -99999.99 -99999.99 -99999.99
2/11/2023 6:15:00 AM -99999.99 -179968 -99999.99 -99999.99 -99999.99 -99999.99
2/11/2023 6:30:00 AM -99999.99 -179968 -99999.99 -99999.99 -99999.99 -99999.99
2/11/2023 6:45:00 AM -99999.99 -179968 -99999.99 -99999.99 -99999.99 -99999.99
2/11/2023 7:00:00 AM -99999.99 -179968 -99999.99 -99999.99 -99999.99 -99999.99
2/11/2023 7:15:00 AM -99999.99 -179968 -99999.99 -99999.99 -99999.99 -99999.99
2/11/2023 7:30:00 AM -99999.99 -179968 -99999.99 -99999.99 -99999.99 -99999.99
2/11/2023 7:45:00 AM -99999.99 -179968 -99999.99 -99999.99 -99999.99 -99999.99
2/11/2023 8:00:00 AM -99999.99 -179968 -99999.99 -99999.99 -99999.99 -99999.99
2/11/2023 8:15:00 AM -99999.99 -179968 -99999.99 -99999.99 -99999.99 -99999.99
2/11/2023 8:30:00 AM -99999.99 -179968 -99999.99 -99999.99 -99999.99 -99999.99
2/11/2023 8:45:00 AM -99999.99 -179968 -99999.99 -99999.99 -99999.99 -99999.99
2/11/2023 9:00:00 AM -99999.99 -179968 -99999.99 -99999.99 -99999.99 -99999.99
2/11/2023 9:15:00 AM 1.23 34.214 0.077 7.65 2.82 13.95
2/11/2023 9:30:00 AM 1.25 34.25 0.066 7.71 2.97 13.97
2/11/2023 9:45:00 AM 1.3 34.34 0.066 7.67 2.85 13.97
2/11/2023 10:00:00 AM 1.33 34.394 0.066 7.71 2.93 13.96
2/11/2023 10:15:00 AM 1.35 34.43 0.066 7.71 2.9 13.95
2/11/2023 10:30:00 AM 1.39 34.502 0.066 7.71 2.94 13.95
2/11/2023 10:45:00 AM 1.41 34.538 0.065 7.69 2.8 13.94
2/11/2023 11:00:00 AM 1.42 34.556 0.065 7.67 2.78 13.93
2/11/2023 11:15:00 AM 1.43 34.574 0.065 7.72 2.75 13.94
2/11/2023 11:30:00 AM 1.47 34.646 0.065 7.69 2.81 13.92
2/11/2023 11:45:00 AM 1.52 34.736 0.065 7.69 2.85 13.91
2/11/2023 12:00:00 PM 1.55 34.79 0.065 7.72 2.79 13.89
2/11/2023 12:15:00 PM 1.54 34.772 0.065 7.73 2.84 13.86
2/11/2023 12:30:00 PM 1.56 34.808 0.065 7.71 2.87 13.83
2/11/2023 12:45:00 PM 1.58 34.844 0.065 7.7 2.7 13.8
2/11/2023 1:00:00 PM 1.59 34.862 0.065 7.66 2.89 13.78
2/11/2023 1:15:00 PM 1.6 34.88 0.065 7.67 2.79 13.76
2/11/2023 1:30:00 PM 1.62 34.916 0.065 7.69 3.02 13.75
2/11/2023 1:45:00 PM 1.63 34.934 0.065 7.69 2.84 13.73
2/11/2023 2:00:00 PM 1.63 34.934 0.065 7.69 3.04 13.71
2/11/2023 2:15:00 PM 1.64 34.952 0.065 7.65 3.11 13.7
2/11/2023 2:30:00 PM 1.64 34.952 0.066 7.65 3.01 13.69
2/11/2023 2:45:00 PM 1.63 34.934 0.065 7.69 2.84 13.69
2/11/2023 3:00:00 PM 1.63 34.934 0.065 7.66 3.08 13.68
2/11/2023 3:15:00 PM 1.62 34.916 0.066 7.68 3.16 13.67
2/11/2023 3:30:00 PM 1.62 34.916 0.066 7.66 3.06 13.67
2/11/2023 3:45:00 PM 1.62 34.916 0.066 7.65 3.14 13.66
2/11/2023 4:00:00 PM 1.62 34.916 0.066 7.67 3.19 13.66
2/11/2023 4:15:00 PM 1.62 34.916 0.066 7.64 3.02 13.65
2/11/2023 4:30:00 PM 1.62 34.916 0.066 7.67 2.96 13.64
2/11/2023 4:45:00 PM 1.62 34.916 0.064 7.68 4.27 13.63
2/11/2023 5:00:00 PM 1.6 34.88 0.066 7.6 2.95 13.62
2/11/2023 5:15:00 PM 1.59 34.862 0.066 7.63 3.18 13.61
2/11/2023 5:30:00 PM 1.56 34.808 0.066 7.62 3.07 13.6
2/11/2023 5:45:00 PM 1.54 34.772 0.066 7.64 3.01 13.59
2/11/2023 6:00:00 PM 1.51 34.718 0.066 7.61 3.16 13.58
2/11/2023 6:15:00 PM 1.48 34.664 0.066 7.63 3.17 13.6
2/11/2023 6:30:00 PM 1.45 34.61 0.066 7.55 3.2 13.61
2/11/2023 6:45:00 PM 1.42 34.556 0.066 7.57 3.28 13.63
2/11/2023 7:00:00 PM 1.39 34.502 0.066 7.61 3.06 13.64
2/11/2023 7:15:00 PM 1.36 34.448 0.066 7.62 3.13 13.65
2/11/2023 7:30:00 PM 1.33 34.394 0.066 7.59 3.17 13.67
2/11/2023 7:45:00 PM 1.3 34.34 0.066 7.57 2.99 13.67
2/11/2023 8:00:00 PM 1.28 34.304 0.066 7.59 2.94 13.68
2/11/2023 8:15:00 PM 1.26 34.268 0.066 7.59 3.07 13.69
2/11/2023 8:30:00 PM 1.24 34.232 0.066 7.59 3.15 13.69
2/11/2023 8:45:00 PM 1.21 34.178 0.066 7.59 3.15 13.7
2/11/2023 9:00:00 PM -99999.99 -179968 -99999.99 -99999.99 -99999.99 -99999.99
2/11/2023 9:15:00 PM -99999.99 -179968 -99999.99 -99999.99 -99999.99 -99999.99
2/11/2023 9:30:00 PM -99999.99 -179968 -99999.99 -99999.99 -99999.99 -99999.99
2/11/2023 9:45:00 PM -99999.99 -179968 -99999.99 -99999.99 -99999.99 -99999.99
2/11/2023 10:00:00 PM -99999.99 -179968 -99999.99 -99999.99 -99999.99 -99999.99
2/11/2023 10:15:00 PM -99999.99 -179968 -99999.99 -99999.99 -99999.99 -99999.99
2/11/2023 10:30:00 PM -99999.99 -179968 -99999.99 -99999.99 -99999.99 -99999.99
2/11/2023 10:45:00 PM -99999.99 -179968 -99999.99 -99999.99 -99999.99 -99999.99
2/11/2023 11:00:00 PM -99999.99 -179968 -99999.99 -99999.99 -99999.99 -99999.99
2/11/2023 11:15:00 PM -99999.99 -179968 -99999.99 -99999.99 -99999.99 -99999.99
2/11/2023 11:30:00 PM -99999.99 -179968 -99999.99 -99999.99 -99999.99 -99999.99
2/11/2023 11:45:00 PM -99999.99 -179968 -99999.99 -99999.99 -99999.99 -99999.99
2/12/2023 12:00:00 AM -99999.99 -179968 -99999.99 -99999.99 -99999.99 -99999.99
2/12/2023 12:15:00 AM -99999.99 -179968 -99999.99 -99999.99 -99999.99 -99999.99
2/12/2023 12:30:00 AM -99999.99 -179968 -99999.99 -99999.99 -99999.99 -99999.99
2/12/2023 12:45:00 AM -99999.99 -179968 -99999.99 -99999.99 -99999.99 -99999.99
2/12/2023 1:00:00 AM -99999.99 -179968 -99999.99 -99999.99 -99999.99 -99999.99
2/12/2023 1:15:00 AM -99999.99 -179968 -99999.99 -99999.99 -99999.99 -99999.99
2/12/2023 1:30:00 AM -99999.99 -179968 -99999.99 -99999.99 -99999.99 -99999.99
2/12/2023 1:45:00 AM -99999.99 -179968 -99999.99 -99999.99 -99999.99 -99999.99
2/12/2023 2:00:00 AM -99999.99 -179968 -99999.99 -99999.99 -99999.99 -99999.99
2/12/2023 2:15:00 AM -99999.99 -179968 -99999.99 -99999.99 -99999.99 -99999.99
2/12/2023 2:30:00 AM -99999.99 -179968 -99999.99 -99999.99 -99999.99 -99999.99
2/12/2023 2:45:00 AM -99999.99 -179968 -99999.99 -99999.99 -99999.99 -99999.99
2/12/2023 3:00:00 AM -99999.99 -179968 -99999.99 -99999.99 -99999.99 -99999.99
2/12/2023 3:15:00 AM -99999.99 -179968 -99999.99 -99999.99 -99999.99 -99999.99
2/12/2023 3:30:00 AM -99999.99 -179968 -99999.99 -99999.99 -99999.99 -99999.99
2/12/2023 3:45:00 AM -99999.99 -179968 -99999.99 -99999.99 -99999.99 -99999.99
2/12/2023 4:00:00 AM -99999.99 -179968 -99999.99 -99999.99 -99999.99 -99999.99
2/12/2023 4:15:00 AM -99999.99 -179968 -99999.99 -99999.99 -99999.99 -99999.99
2/12/2023 4:30:00 AM -99999.99 -179968 -99999.99 -99999.99 -99999.99 -99999.99
2/12/2023 4:45:00 AM -99999.99 -179968 -99999.99 -99999.99 -99999.99 -99999.99
2/12/2023 5:00:00 AM -99999.99 -179968 -99999.99 -99999.99 -99999.99 -99999.99
2/12/2023 5:15:00 AM -99999.99 -179968 -99999.99 -99999.99 -99999.99 -99999.99
2/12/2023 5:30:00 AM -99999.99 -179968 -99999.99 -99999.99 -99999.99 -99999.99
2/12/2023 5:45:00 AM -99999.99 -179968 -99999.99 -99999.99 -99999.99 -99999.99
2/12/2023 6:00:00 AM -99999.99 -179968 -99999.99 -99999.99 -99999.99 -99999.99
2/12/2023 6:15:00 AM -99999.99 -179968 -99999.99 -99999.99 -99999.99 -99999.99
2/12/2023 6:30:00 AM -99999.99 -179968 -99999.99 -99999.99 -99999.99 -99999.99
2/12/2023 6:45:00 AM -99999.99 -179968 -99999.99 -99999.99 -99999.99 -99999.99
2/12/2023 7:00:00 AM -99999.99 -179968 -99999.99 -99999.99 -99999.99 -99999.99
2/12/2023 7:15:00 AM -99999.99 -179968 -99999.99 -99999.99 -99999.99 -99999.99
2/12/2023 7:30:00 AM -99999.99 -179968 -99999.99 -99999.99 -99999.99 -99999.99
2/12/2023 7:45:00 AM -99999.99 -179968 -99999.99 -99999.99 -99999.99 -99999.99
2/12/2023 8:00:00 AM -99999.99 -179968 -99999.99 -99999.99 -99999.99 -99999.99
2/12/2023 8:15:00 AM 0.3 32.54 0.066 7.67 2.42 14.24
2/12/2023 8:30:00 AM 0.32 32.576 0.066 7.67 2.49 14.24
2/12/2023 8:45:00 AM 0.35 32.63 0.066 7.64 2.28 14.25
2/12/2023 9:00:00 AM 0.38 32.684 0.066 7.66 2.27 14.24
2/12/2023 9:15:00 AM 0.42 32.756 0.066 7.68 2.35 14.23
2/12/2023 9:30:00 AM 0.45 32.81 0.066 7.64 2.38 14.22
2/12/2023 9:45:00 AM 0.5 32.9 0.066 7.67 2.27 14.21
2/12/2023 10:00:00 AM 0.57 33.026 0.066 7.67 2.33 14.18
2/12/2023 10:15:00 AM 0.64 33.152 0.066 7.68 2.43 14.15
2/12/2023 10:30:00 AM 0.71 33.278 0.066 7.71 2.31 14.13
2/12/2023 10:45:00 AM 0.81 33.458 0.066 7.7 2.27 14.09
2/12/2023 11:00:00 AM 0.89 33.602 0.066 7.69 2.33 14.04
2/12/2023 11:15:00 AM 0.98 33.764 0.066 7.71 2.55 14
2/12/2023 11:30:00 AM 1.03 33.854 0.066 7.7 2.28 13.95
2/12/2023 11:45:00 AM 1.1 33.98 0.066 7.66 2.34 13.9
2/12/2023 12:00:00 PM 1.15 34.07 0.066 7.67 2.5 13.86
2/12/2023 12:15:00 PM 1.21 34.178 0.066 7.68 2.39 13.83
2/12/2023 12:30:00 PM 1.27 34.286 0.066 7.68 2.32 13.8
2/12/2023 12:45:00 PM 1.32 34.376 0.065 7.7 2.29 13.76
2/12/2023 1:00:00 PM 1.39 34.502 0.065 7.67 2.38 13.71
2/12/2023 1:15:00 PM 1.45 34.61 0.065 7.7 2.53 13.71
2/12/2023 1:30:00 PM 1.53 34.754 0.065 7.71 2.46 13.65
2/12/2023 1:45:00 PM 1.56 34.808 0.065 7.64 2.43 13.61
2/12/2023 2:00:00 PM 1.6 34.88 0.065 7.69 2.67 13.6
2/12/2023 2:15:00 PM 1.64 34.952 0.065 7.67 2.46 13.6
2/12/2023 2:30:00 PM 1.66 34.988 0.065 7.71 2.66 13.59
2/12/2023 2:45:00 PM 1.69 35.042 0.065 7.67 2.7 13.58
2/12/2023 3:00:00 PM 1.7 35.06 0.065 7.66 2.82 13.56
2/12/2023 3:15:00 PM 1.7 35.06 0.065 7.69 3.37 13.53
2/12/2023 3:30:00 PM 1.71 35.078 0.065 7.69 3.01 13.51
2/12/2023 3:45:00 PM 1.71 35.078 0.065 7.69 3.06 13.5
2/12/2023 4:00:00 PM 1.72 35.096 0.065 7.66 2.92 13.49
2/12/2023 4:15:00 PM 1.73 35.114 0.064 7.68 2.84 13.48
2/12/2023 4:30:00 PM 1.73 35.114 0.065 7.62 2.97 13.47
2/12/2023 4:45:00 PM 1.73 35.114 0.065 7.67 3.04 13.46
2/12/2023 5:00:00 PM 1.72 35.096 0.065 7.6 2.82 13.44
2/12/2023 5:15:00 PM 1.7 35.06 0.062 7.61 4.08 13.42
2/12/2023 5:30:00 PM 1.68 35.024 0.066 7.62 2.9 13.4
2/12/2023 5:45:00 PM 1.66 34.988 0.066 7.64 2.91 13.38
2/12/2023 6:00:00 PM 1.64 34.952 0.066 7.62 3.33 13.38
2/12/2023 6:15:00 PM 1.61 34.898 0.066 7.62 3.11 13.38
2/12/2023 6:30:00 PM 1.6 34.88 0.066 7.62 3.1 13.39
2/12/2023 6:45:00 PM 1.58 34.844 0.066 7.63 3.08 13.4
2/12/2023 7:00:00 PM 1.57 34.826 0.066 7.57 3.06 13.4
2/12/2023 7:15:00 PM 1.55 34.79 0.066 7.61 3 13.41
2/12/2023 7:30:00 PM 1.53 34.754 0.066 7.58 3.01 13.41
2/12/2023 7:45:00 PM 1.52 34.736 0.066 7.63 2.91 13.42
2/12/2023 8:00:00 PM 1.5 34.7 0.066 7.56 3.1 13.43
2/12/2023 8:15:00 PM 1.49 34.682 0.066 7.6 2.97 13.43
2/12/2023 8:30:00 PM 1.47 34.646 0.066 7.58 2.93 13.44
2/12/2023 8:45:00 PM 1.45 34.61 0.066 7.61 2.93 13.45
2/12/2023 9:00:00 PM -99999.99 -179968 -99999.99 -99999.99 -99999.99 -99999.99
2/12/2023 9:15:00 PM -99999.99 -179968 -99999.99 -99999.99 -99999.99 -99999.99
2/12/2023 9:30:00 PM -99999.99 -179968 -99999.99 -99999.99 -99999.99 -99999.99
2/12/2023 9:45:00 PM -99999.99 -179968 -99999.99 -99999.99 -99999.99 -99999.99
2/12/2023 10:00:00 PM -99999.99 -179968 -99999.99 -99999.99 -99999.99 -99999.99
2/12/2023 10:15:00 PM -99999.99 -179968 -99999.99 -99999.99 -99999.99 -99999.99
2/12/2023 10:30:00 PM -99999.99 -179968 -99999.99 -99999.99 -99999.99 -99999.99
2/12/2023 10:45:00 PM -99999.99 -179968 -99999.99 -99999.99 -99999.99 -99999.99
2/12/2023 11:00:00 PM -99999.99 -179968 -99999.99 -99999.99 -99999.99 -99999.99
2/12/2023 11:15:00 PM -99999.99 -179968 -99999.99 -99999.99 -99999.99 -99999.99
2/12/2023 11:30:00 PM -99999.99 -179968 -99999.99 -99999.99 -99999.99 -99999.99
2/12/2023 11:45:00 PM -99999.99 -179968 -99999.99 -99999.99 -99999.99 -99999.99
2/13/2023 12:00:00 AM -99999.99 -179968 -99999.99 -99999.99 -99999.99 -99999.99
2/13/2023 12:15:00 AM -99999.99 -179968 -99999.99 -99999.99 -99999.99 -99999.99
2/13/2023 12:30:00 AM -99999.99 -179968 -99999.99 -99999.99 -99999.99 -99999.99
2/13/2023 12:45:00 AM -99999.99 -179968 -99999.99 -99999.99 -99999.99 -99999.99
2/13/2023 1:00:00 AM -99999.99 -179968 -99999.99 -99999.99 -99999.99 -99999.99
2/13/2023 1:15:00 AM -99999.99 -179968 -99999.99 -99999.99 -99999.99 -99999.99
2/13/2023 1:30:00 AM -99999.99 -179968 -99999.99 -99999.99 -99999.99 -99999.99
2/13/2023 1:45:00 AM -99999.99 -179968 -99999.99 -99999.99 -99999.99 -99999.99
2/13/2023 2:00:00 AM -99999.99 -179968 -99999.99 -99999.99 -99999.99 -99999.99
2/13/2023 2:15:00 AM -99999.99 -179968 -99999.99 -99999.99 -99999.99 -99999.99
2/13/2023 2:30:00 AM -99999.99 -179968 -99999.99 -99999.99 -99999.99 -99999.99
2/13/2023 2:45:00 AM -99999.99 -179968 -99999.99 -99999.99 -99999.99 -99999.99
2/13/2023 3:00:00 AM -99999.99 -179968 -99999.99 -99999.99 -99999.99 -99999.99
2/13/2023 3:15:00 AM -99999.99 -179968 -99999.99 -99999.99 -99999.99 -99999.99
2/13/2023 3:30:00 AM -99999.99 -179968 -99999.99 -99999.99 -99999.99 -99999.99
2/13/2023 3:45:00 AM -99999.99 -179968 -99999.99 -99999.99 -99999.99 -99999.99
2/13/2023 4:00:00 AM -99999.99 -179968 -99999.99 -99999.99 -99999.99 -99999.99
2/13/2023 4:15:00 AM -99999.99 -179968 -99999.99 -99999.99 -99999.99 -99999.99
2/13/2023 4:30:00 AM -99999.99 -179968 -99999.99 -99999.99 -99999.99 -99999.99
2/13/2023 4:45:00 AM -99999.99 -179968 -99999.99 -99999.99 -99999.99 -99999.99
2/13/2023 5:00:00 AM -99999.99 -179968 -99999.99 -99999.99 -99999.99 -99999.99
2/13/2023 5:15:00 AM -99999.99 -179968 -99999.99 -99999.99 -99999.99 -99999.99
2/13/2023 5:30:00 AM -99999.99 -179968 -99999.99 -99999.99 -99999.99 -99999.99
2/13/2023 5:45:00 AM -99999.99 -179968 -99999.99 -99999.99 -99999.99 -99999.99
2/13/2023 6:00:00 AM -99999.99 -179968 -99999.99 -99999.99 -99999.99 -99999.99
2/13/2023 6:15:00 AM -99999.99 -179968 -99999.99 -99999.99 -99999.99 -99999.99
2/13/2023 6:30:00 AM -99999.99 -179968 -99999.99 -99999.99 -99999.99 -99999.99
2/13/2023 6:45:00 AM -99999.99 -179968 -99999.99 -99999.99 -99999.99 -99999.99
2/13/2023 7:00:00 AM -99999.99 -179968 -99999.99 -99999.99 -99999.99 -99999.99
2/13/2023 7:15:00 AM -99999.99 -179968 -99999.99 -99999.99 -99999.99 -99999.99
2/13/2023 7:30:00 AM -99999.99 -179968 -99999.99 -99999.99 -99999.99 -99999.99
2/13/2023 7:45:00 AM 0.44 32.792 0.066 7.63 2.46 13.9
2/13/2023 8:00:00 AM 0.44 32.792 0.066 7.6 2.34 13.93
2/13/2023 8:15:00 AM 0.45 32.81 0.066 7.63 2.5 13.95
2/13/2023 8:30:00 AM 0.47 32.846 0.066 7.64 2.27 13.97
2/13/2023 8:45:00 AM 0.51 32.918 0.066 7.65 2.35 13.98
2/13/2023 9:00:00 AM 0.56 33.008 0.066 7.66 2.33 13.97
2/13/2023 9:15:00 AM 0.61 33.098 0.066 7.63 2.41 13.95
2/13/2023 9:30:00 AM 0.67 33.206 0.066 7.67 2.35 13.95
2/13/2023 9:45:00 AM 0.73 33.314 0.066 7.63 2.39 13.91
2/13/2023 10:00:00 AM 0.81 33.458 0.066 7.68 2.43 13.89
2/13/2023 10:15:00 AM 0.9 33.62 0.065 7.67 2.36 13.85
2/13/2023 10:30:00 AM 0.97 33.746 0.065 7.7 2.47 13.81
2/13/2023 10:45:00 AM 1.07 33.926 0.065 7.68 2.43 13.78
2/13/2023 11:00:00 AM 1.17 34.106 0.065 7.7 2.44 13.74
2/13/2023 11:15:00 AM 1.18 34.124 0.065 7.69 2.65 13.72
2/13/2023 11:30:00 AM 1.21 34.178 0.065 7.69 2.33 13.7
2/13/2023 11:45:00 AM 1.26 34.268 0.065 7.7 2.29 13.68
2/13/2023 12:00:00 PM 1.33 34.394 0.065 7.71 2.32 13.63
2/13/2023 12:15:00 PM 1.46 34.628 0.065 7.7 2.45 13.6
2/13/2023 12:30:00 PM 1.63 34.934 0.065 7.71 2.66 13.54
2/13/2023 12:45:00 PM 1.77 35.186 0.065 7.73 2.44 13.48
2/13/2023 1:00:00 PM 1.84 35.312 0.065 7.7 2.58 13.42
2/13/2023 1:15:00 PM 1.92 35.456 0.061 7.64 3.73 13.39
2/13/2023 1:30:00 PM 2 35.6 0.064 7.71 2.61 13.36
2/13/2023 1:45:00 PM 2.07 35.726 0.064 7.72 2.71 13.34
2/13/2023 2:00:00 PM 2.12 35.816 0.064 7.71 2.95 13.31
2/13/2023 2:15:00 PM 2.15 35.87 0.064 7.72 3.03 13.29
2/13/2023 2:30:00 PM 2.15 35.87 0.064 7.72 2.96 13.24
2/13/2023 2:45:00 PM 2.13 35.834 0.064 7.67 3.12 13.2
2/13/2023 3:00:00 PM 2.13 35.834 0.063 7.63 4.29 13.18
2/13/2023 3:15:00 PM 2.14 35.852 0.065 7.64 3.26 13.17
2/13/2023 3:30:00 PM 2.15 35.87 0.065 7.67 3.21 13.14
2/13/2023 3:45:00 PM 2.17 35.906 0.065 7.69 3.26 13.14
2/13/2023 4:00:00 PM 2.2 35.96 0.064 7.69 3.05 13.13
2/13/2023 4:15:00 PM 2.21 35.978 0.064 7.63 3.08 13.15
2/13/2023 4:30:00 PM 2.25 36.05 0.064 7.66 3.24 13.13
2/13/2023 4:45:00 PM 2.26 36.068 0.064 7.67 3.29 13.07
2/13/2023 5:00:00 PM 2.27 36.086 0.065 7.61 3.37 13.06
2/13/2023 5:15:00 PM 2.26 36.068 0.065 7.61 3.21 13.07
2/13/2023 5:30:00 PM 2.23 36.014 0.065 7.65 3.39 13.06
2/13/2023 5:45:00 PM 2.21 35.978 0.065 7.61 3.39 13.04
2/13/2023 6:00:00 PM 2.2 35.96 0.065 7.62 3.43 13.03
2/13/2023 6:15:00 PM 2.2 35.96 0.065 7.64 3.49 13.03
2/13/2023 6:30:00 PM 2.2 35.96 0.063 7.64 4.61 13.04
2/13/2023 6:45:00 PM 2.18 35.924 0.065 7.62 3.81 13.05
2/13/2023 7:00:00 PM 2.16 35.888 0.065 7.61 3.74 13.06
2/13/2023 7:15:00 PM 2.14 35.852 0.065 7.62 3.69 13.09
2/13/2023 7:30:00 PM 2.12 35.816 0.061 7.63 4.87 13.1
2/13/2023 7:45:00 PM 2.11 35.798 0.065 7.6 3.67 13.11
2/13/2023 8:00:00 PM 2.1 35.78 0.065 7.59 3.49 13.12
2/13/2023 8:15:00 PM 2.08 35.744 0.065 7.62 3.45 13.11
2/13/2023 8:30:00 PM 2.07 35.726 0.065 7.63 3.29 13.12
2/13/2023 8:45:00 PM 2.06 35.708 0.065 7.63 3.26 13.14
2/13/2023 9:00:00 PM 2.04 35.672 0.065 7.63 3.08 13.15
2/13/2023 9:15:00 PM 2.04 35.672 0.063 7.57 4.47 13.16
2/13/2023 9:30:00 PM 2.03 35.654 0.065 7.62 3.18 13.17
2/13/2023 9:45:00 PM 2.02 35.636 0.065 7.63 3.06 13.17
2/13/2023 10:00:00 PM 2.01 35.618 0.064 7.46 4.47 13.17
2/13/2023 10:15:00 PM 1.99 35.582 0.065 7.58 3.1 13.18
2/13/2023 10:30:00 PM 1.98 35.564 0.065 7.6 3.21 13.19
2/13/2023 10:45:00 PM 1.96 35.528 0.065 7.6 3.07 13.21
2/13/2023 11:00:00 PM 1.94 35.492 0.065 7.63 3.21 13.21
2/13/2023 11:15:00 PM 1.92 35.456 0.065 7.55 3.07 13.22
2/13/2023 11:30:00 PM 1.91 35.438 0.065 7.6 3.08 13.23
2/13/2023 11:45:00 PM 1.89 35.402 0.065 7.6 2.92 13.24
2/14/2023 12:00:00 AM 1.87 35.366 0.065 7.61 3.1 13.25
2/14/2023 12:15:00 AM 1.85 35.33 0.065 7.56 2.89 13.26
2/14/2023 12:30:00 AM 1.82 35.276 0.065 7.6 3.01 13.27
2/14/2023 12:45:00 AM -99999.99 -179968 -99999.99 -99999.99 -99999.99 -99999.99
2/14/2023 1:00:00 AM -99999.99 -179968 -99999.99 -99999.99 -99999.99 -99999.99
2/14/2023 1:15:00 AM -99999.99 -179968 -99999.99 -99999.99 -99999.99 -99999.99
2/14/2023 1:30:00 AM -99999.99 -179968 -99999.99 -99999.99 -99999.99 -99999.99
2/14/2023 1:45:00 AM -99999.99 -179968 -99999.99 -99999.99 -99999.99 -99999.99
2/14/2023 2:00:00 AM -99999.99 -179968 -99999.99 -99999.99 -99999.99 -99999.99
2/14/2023 2:15:00 AM -99999.99 -179968 -99999.99 -99999.99 -99999.99 -99999.99
2/14/2023 2:30:00 AM -99999.99 -179968 -99999.99 -99999.99 -99999.99 -99999.99
2/14/2023 2:45:00 AM -99999.99 -179968 -99999.99 -99999.99 -99999.99 -99999.99
2/14/2023 3:00:00 AM -99999.99 -179968 -99999.99 -99999.99 -99999.99 -99999.99
2/14/2023 3:15:00 AM -99999.99 -179968 -99999.99 -99999.99 -99999.99 -99999.99
2/14/2023 3:30:00 AM -99999.99 -179968 -99999.99 -99999.99 -99999.99 -99999.99
2/14/2023 3:45:00 AM -99999.99 -179968 -99999.99 -99999.99 -99999.99 -99999.99
2/14/2023 4:00:00 AM -99999.99 -179968 -99999.99 -99999.99 -99999.99 -99999.99
2/14/2023 4:15:00 AM -99999.99 -179968 -99999.99 -99999.99 -99999.99 -99999.99
2/14/2023 4:30:00 AM -99999.99 -179968 -99999.99 -99999.99 -99999.99 -99999.99
2/14/2023 4:45:00 AM -99999.99 -179968 -99999.99 -99999.99 -99999.99 -99999.99
2/14/2023 5:00:00 AM -99999.99 -179968 -99999.99 -99999.99 -99999.99 -99999.99
2/14/2023 5:15:00 AM -99999.99 -179968 -99999.99 -99999.99 -99999.99 -99999.99
2/14/2023 5:30:00 AM -99999.99 -179968 -99999.99 -99999.99 -99999.99 -99999.99
2/14/2023 5:45:00 AM -99999.99 -179968 -99999.99 -99999.99 -99999.99 -99999.99
2/14/2023 6:00:00 AM -99999.99 -179968 -99999.99 -99999.99 -99999.99 -99999.99
2/14/2023 6:15:00 AM -99999.99 -179968 -99999.99 -99999.99 -99999.99 -99999.99
2/14/2023 6:30:00 AM -99999.99 -179968 -99999.99 -99999.99 -99999.99 -99999.99
2/14/2023 6:45:00 AM -99999.99 -179968 -99999.99 -99999.99 -99999.99 -99999.99
2/14/2023 7:00:00 AM -99999.99 -179968 -99999.99 -99999.99 -99999.99 -99999.99
2/14/2023 7:15:00 AM -99999.99 -179968 -99999.99 -99999.99 -99999.99 -99999.99
2/14/2023 7:30:00 AM -99999.99 -179968 -99999.99 -99999.99 -99999.99 -99999.99
2/14/2023 7:45:00 AM 1.12 34.016 0.066 7.6 2.55 13.73
2/14/2023 8:00:00 AM 1.13 34.034 0.065 7.58 2.49 13.77
2/14/2023 8:15:00 AM 1.14 34.052 0.065 7.64 2.59 13.79
2/14/2023 8:30:00 AM 1.17 34.106 0.065 7.65 2.63 13.81
2/14/2023 8:45:00 AM 1.21 34.178 0.065 7.61 2.43 13.82
2/14/2023 9:00:00 AM 1.27 34.286 0.065 7.62 2.54 13.81
2/14/2023 9:15:00 AM 1.34 34.412 0.065 7.66 2.49 13.8
2/14/2023 9:30:00 AM 1.4 34.52 0.065 7.68 2.45 13.78
2/14/2023 9:45:00 AM 1.48 34.664 0.065 7.62 2.49 13.77
2/14/2023 10:00:00 AM 1.57 34.826 0.065 7.66 2.56 13.74
2/14/2023 10:15:00 AM 1.65 34.97 0.065 7.66 2.52 13.7
2/14/2023 10:30:00 AM 1.72 35.096 0.065 7.69 2.49 13.67
2/14/2023 10:45:00 AM 1.8 35.24 0.065 7.61 2.48 13.63
2/14/2023 11:00:00 AM 1.88 35.384 0.065 7.67 2.48 13.61
2/14/2023 11:15:00 AM 1.96 35.528 0.065 7.66 2.43 13.57
2/14/2023 11:30:00 AM 2.04 35.672 0.065 7.71 2.52 13.53
2/14/2023 11:45:00 AM 2.1 35.78 0.065 7.67 2.52 13.5
2/14/2023 12:00:00 PM 2.15 35.87 0.065 7.71 2.52 13.47
2/14/2023 12:15:00 PM 2.18 35.924 0.065 7.69 2.57 13.46
2/14/2023 12:30:00 PM 2.23 36.014 0.065 7.7 2.64 13.41
2/14/2023 12:45:00 PM 2.3 36.14 0.065 7.69 2.56 13.38
2/14/2023 1:00:00 PM 2.37 36.266 0.064 7.66 2.61 13.34
2/14/2023 1:15:00 PM 2.44 36.392 0.064 7.67 2.72 13.31
2/14/2023 1:30:00 PM 2.49 36.482 0.064 7.68 2.77 13.29
2/14/2023 1:45:00 PM 2.53 36.554 0.064 7.63 2.85 13.27
2/14/2023 2:00:00 PM 2.55 36.59 0.064 7.69 2.73 13.25
2/14/2023 2:15:00 PM 2.56 36.608 0.063 7.58 4.1 13.23
2/14/2023 2:30:00 PM 2.58 36.644 0.064 7.65 2.85 13.22
2/14/2023 2:45:00 PM 2.59 36.662 0.064 7.65 2.84 13.21
2/14/2023 3:00:00 PM 2.58 36.644 0.064 7.64 2.99 13.21
2/14/2023 3:15:00 PM 2.59 36.662 0.064 7.67 2.9 13.2
2/14/2023 3:30:00 PM 2.6 36.68 0.064 7.64 2.83 13.19
2/14/2023 3:45:00 PM 2.6 36.68 0.064 7.65 3.01 13.19
2/14/2023 4:00:00 PM 2.6 36.68 0.063 7.6 4.29 13.18
2/14/2023 4:15:00 PM 2.59 36.662 0.064 7.66 3.11 13.18
2/14/2023 4:30:00 PM 2.59 36.662 0.064 7.64 3.07 13.17
2/14/2023 4:45:00 PM 2.58 36.644 0.064 7.6 3.12 13.19
2/14/2023 5:00:00 PM 2.57 36.626 0.064 7.63 3.26 13.18
2/14/2023 5:15:00 PM 2.55 36.59 0.065 7.64 3.46 13.17
2/14/2023 5:30:00 PM 2.52 36.536 0.065 7.59 3.22 13.15
2/14/2023 5:45:00 PM 2.48 36.464 0.063 7.56 4.42 13.13
2/14/2023 6:00:00 PM 2.44 36.392 0.065 7.6 3.18 13.14
2/14/2023 6:15:00 PM 2.41 36.338 0.065 7.61 3.65 13.15
2/14/2023 6:30:00 PM 2.37 36.266 0.065 7.58 3.33 13.16
2/14/2023 6:45:00 PM 2.34 36.212 0.065 7.57 3.19 13.17
2/14/2023 7:00:00 PM 2.31 36.158 0.065 7.61 3.23 13.2
2/14/2023 7:15:00 PM 2.28 36.104 0.065 7.57 3.25 13.21
2/14/2023 7:30:00 PM 2.25 36.05 0.065 7.59 3.25 13.21
2/14/2023 7:45:00 PM 2.22 35.996 0.065 7.55 3.14 13.23
2/14/2023 8:00:00 PM 2.2 35.96 0.065 7.58 3.13 13.24
2/14/2023 8:15:00 PM 2.18 35.924 0.065 7.57 3.03 13.25
2/14/2023 8:30:00 PM 2.16 35.888 0.065 7.56 3.02 13.24
2/14/2023 8:45:00 PM 2.15 35.87 0.065 7.54 3.16 13.25
2/14/2023 9:00:00 PM 2.13 35.834 0.065 7.55 2.96 13.25
2/14/2023 9:15:00 PM -99999.99 -179968 -99999.99 -99999.99 -99999.99 -99999.99
2/14/2023 9:30:00 PM -99999.99 -179968 -99999.99 -99999.99 -99999.99 -99999.99
2/14/2023 9:45:00 PM -99999.99 -179968 -99999.99 -99999.99 -99999.99 -99999.99
2/14/2023 10:00:00 PM -99999.99 -179968 -99999.99 -99999.99 -99999.99 -99999.99
2/14/2023 10:15:00 PM -99999.99 -179968 -99999.99 -99999.99 -99999.99 -99999.99
2/14/2023 10:30:00 PM -99999.99 -179968 -99999.99 -99999.99 -99999.99 -99999.99
2/14/2023 10:45:00 PM -99999.99 -179968 -99999.99 -99999.99 -99999.99 -99999.99
2/14/2023 11:00:00 PM -99999.99 -179968 -99999.99 -99999.99 -99999.99 -99999.99
2/14/2023 11:15:00 PM -99999.99 -179968 -99999.99 -99999.99 -99999.99 -99999.99
2/14/2023 11:30:00 PM -99999.99 -179968 -99999.99 -99999.99 -99999.99 -99999.99
2/14/2023 11:45:00 PM -99999.99 -179968 -99999.99 -99999.99 -99999.99 -99999.99
2/15/2023 12:00:00 AM -99999.99 -179968 -99999.99 -99999.99 -99999.99 -99999.99
2/15/2023 12:15:00 AM -99999.99 -179968 -99999.99 -99999.99 -99999.99 -99999.99
2/15/2023 12:30:00 AM -99999.99 -179968 -99999.99 -99999.99 -99999.99 -99999.99
2/15/2023 12:45:00 AM -99999.99 -179968 -99999.99 -99999.99 -99999.99 -99999.99
2/15/2023 1:00:00 AM -99999.99 -179968 -99999.99 -99999.99 -99999.99 -99999.99
2/15/2023 1:15:00 AM -99999.99 -179968 -99999.99 -99999.99 -99999.99 -99999.99
2/15/2023 1:30:00 AM -99999.99 -179968 -99999.99 -99999.99 -99999.99 -99999.99
2/15/2023 1:45:00 AM -99999.99 -179968 -99999.99 -99999.99 -99999.99 -99999.99
2/15/2023 2:00:00 AM -99999.99 -179968 -99999.99 -99999.99 -99999.99 -99999.99
2/15/2023 2:15:00 AM -99999.99 -179968 -99999.99 -99999.99 -99999.99 -99999.99
2/15/2023 2:30:00 AM -99999.99 -179968 -99999.99 -99999.99 -99999.99 -99999.99
2/15/2023 2:45:00 AM -99999.99 -179968 -99999.99 -99999.99 -99999.99 -99999.99
2/15/2023 3:00:00 AM -99999.99 -179968 -99999.99 -99999.99 -99999.99 -99999.99
2/15/2023 3:15:00 AM -99999.99 -179968 -99999.99 -99999.99 -99999.99 -99999.99
2/15/2023 3:30:00 AM -99999.99 -179968 -99999.99 -99999.99 -99999.99 -99999.99
2/15/2023 3:45:00 AM -99999.99 -179968 -99999.99 -99999.99 -99999.99 -99999.99
2/15/2023 4:00:00 AM -99999.99 -179968 -99999.99 -99999.99 -99999.99 -99999.99
2/15/2023 4:15:00 AM -99999.99 -179968 -99999.99 -99999.99 -99999.99 -99999.99
2/15/2023 4:30:00 AM -99999.99 -179968 -99999.99 -99999.99 -99999.99 -99999.99
2/15/2023 4:45:00 AM -99999.99 -179968 -99999.99 -99999.99 -99999.99 -99999.99
2/15/2023 5:00:00 AM -99999.99 -179968 -99999.99 -99999.99 -99999.99 -99999.99
2/15/2023 5:15:00 AM -99999.99 -179968 -99999.99 -99999.99 -99999.99 -99999.99
2/15/2023 5:30:00 AM -99999.99 -179968 -99999.99 -99999.99 -99999.99 -99999.99
2/15/2023 5:45:00 AM -99999.99 -179968 -99999.99 -99999.99 -99999.99 -99999.99
2/15/2023 6:00:00 AM -99999.99 -179968 -99999.99 -99999.99 -99999.99 -99999.99
2/15/2023 6:15:00 AM -99999.99 -179968 -99999.99 -99999.99 -99999.99 -99999.99
2/15/2023 6:30:00 AM -99999.99 -179968 -99999.99 -99999.99 -99999.99 -99999.99
2/15/2023 6:45:00 AM -99999.99 -179968 -99999.99 -99999.99 -99999.99 -99999.99
2/15/2023 7:00:00 AM -99999.99 -179968 -99999.99 -99999.99 -99999.99 -99999.99
2/15/2023 7:15:00 AM -99999.99 -179968 -99999.99 -99999.99 -99999.99 -99999.99
2/15/2023 7:30:00 AM -99999.99 -179968 -99999.99 -99999.99 -99999.99 -99999.99
2/15/2023 7:45:00 AM -99999.99 -179968 -99999.99 -99999.99 -99999.99 -99999.99
2/15/2023 8:00:00 AM 2.52 36.536 0.065 7.67 2.95 13.18
2/15/2023 8:15:00 AM 2.55 36.59 0.065 7.65 3.01 13.2
2/15/2023 8:30:00 AM 2.59 36.662 0.065 7.65 3.46 13.2
2/15/2023 8:45:00 AM 2.65 36.77 0.065 7.61 3.62 13.2
2/15/2023 9:00:00 AM 2.72 36.896 0.061 7.63 4.51 13.19
2/15/2023 9:15:00 AM 2.81 37.058 0.065 7.66 3.22 13.17
2/15/2023 9:30:00 AM 2.91 37.238 0.065 7.67 3.37 13.15
2/15/2023 9:45:00 AM 3.03 37.454 0.064 7.7 3.42 13.12
2/15/2023 10:00:00 AM 3.13 37.634 0.064 7.68 3.26 13.07
2/15/2023 10:15:00 AM 3.24 37.832 0.064 7.71 4.13 13.03
2/15/2023 10:30:00 AM 3.28 37.904 0.064 7.7 4.79 12.99
2/15/2023 10:45:00 AM 3.42 38.156 0.061 7.64 5.39 12.94
2/15/2023 11:00:00 AM 3.56 38.408 0.064 7.68 4.11 12.88
2/15/2023 11:15:00 AM 3.68 38.624 0.064 7.71 4.8 12.83
2/15/2023 11:30:00 AM 3.79 38.822 0.064 7.7 5.14 12.8
2/15/2023 11:45:00 AM 3.91 39.038 0.064 7.7 6.31 12.75
2/15/2023 12:00:00 PM 4.01 39.218 0.064 7.7 5.96 12.71
2/15/2023 12:15:00 PM 4.12 39.416 0.064 7.71 6.17 12.65
2/15/2023 12:30:00 PM 4.23 39.614 0.064 7.7 5.59 12.6
2/15/2023 12:45:00 PM 4.37 39.866 0.063 7.65 5.84 12.55
2/15/2023 1:00:00 PM 4.5 40.1 0.063 7.71 7.85 12.5
2/15/2023 1:15:00 PM 4.64 40.352 0.063 7.68 7 12.47
2/15/2023 1:30:00 PM 4.69 40.442 0.062 7.65 7.93 12.42
2/15/2023 1:45:00 PM 4.78 40.604 0.063 7.7 8.78 12.38
2/15/2023 2:00:00 PM 4.86 40.748 0.063 7.67 7.74 12.32
2/15/2023 2:15:00 PM 4.95 40.91 0.063 7.69 7.24 12.29
2/15/2023 2:30:00 PM 5.01 41.018 0.063 7.69 6.69 12.25
2/15/2023 2:45:00 PM 5.05 41.09 0.063 7.69 7.4 12.24
2/15/2023 3:00:00 PM 5.07 41.126 0.063 7.65 9.7 12.22
2/15/2023 3:15:00 PM 5.11 41.198 0.063 7.67 9.04 12.18
2/15/2023 3:30:00 PM 5.17 41.306 0.063 7.64 8.45 12.16
2/15/2023 3:45:00 PM 5.2 41.36 0.063 7.65 9.02 12.14
2/15/2023 4:00:00 PM 5.25 41.45 0.063 7.64 9.47 12.12
2/15/2023 4:15:00 PM 5.28 41.504 0.062 7.62 10.15 12.1
2/15/2023 4:30:00 PM 5.28 41.504 0.063 7.62 8.79 12.09
2/15/2023 4:45:00 PM 5.28 41.504 0.064 7.63 8.28 12.09
2/15/2023 5:00:00 PM 5.26 41.468 0.064 7.61 7.71 12.08
2/15/2023 5:15:00 PM 5.24 41.432 0.064 7.61 7.79 12.07
2/15/2023 5:30:00 PM 5.23 41.414 0.06 7.59 8.8 12.05
2/15/2023 5:45:00 PM 5.19 41.342 0.064 7.62 7.44 12.04
2/15/2023 6:00:00 PM 5.15 41.27 0.064 7.61 7.5 12.03
2/15/2023 6:15:00 PM 5.11 41.198 0.064 7.6 7.41 12.04
2/15/2023 6:30:00 PM 5.07 41.126 0.063 7.53 8.45 12.06
2/15/2023 6:45:00 PM 5.03 41.054 0.064 7.57 7.01 12.07
2/15/2023 7:00:00 PM -99999.99 -179968 -99999.99 -99999.99 -99999.99 -99999.99
2/15/2023 7:15:00 PM -99999.99 -179968 -99999.99 -99999.99 -99999.99 -99999.99
2/15/2023 7:30:00 PM -99999.99 -179968 -99999.99 -99999.99 -99999.99 -99999.99
2/15/2023 7:45:00 PM -99999.99 -179968 -99999.99 -99999.99 -99999.99 -99999.99
2/15/2023 8:00:00 PM -99999.99 -179968 -99999.99 -99999.99 -99999.99 -99999.99
2/15/2023 8:15:00 PM -99999.99 -179968 -99999.99 -99999.99 -99999.99 -99999.99
2/15/2023 8:30:00 PM -99999.99 -179968 -99999.99 -99999.99 -99999.99 -99999.99
2/15/2023 8:45:00 PM -99999.99 -179968 -99999.99 -99999.99 -99999.99 -99999.99
2/15/2023 9:00:00 PM -99999.99 -179968 -99999.99 -99999.99 -99999.99 -99999.99
2/15/2023 9:15:00 PM -99999.99 -179968 -99999.99 -99999.99 -99999.99 -99999.99
2/15/2023 9:30:00 PM -99999.99 -179968 -99999.99 -99999.99 -99999.99 -99999.99
2/15/2023 9:45:00 PM -99999.99 -179968 -99999.99 -99999.99 -99999.99 -99999.99
2/15/2023 10:00:00 PM -99999.99 -179968 -99999.99 -99999.99 -99999.99 -99999.99
2/15/2023 10:15:00 PM -99999.99 -179968 -99999.99 -99999.99 -99999.99 -99999.99
2/15/2023 10:30:00 PM -99999.99 -179968 -99999.99 -99999.99 -99999.99 -99999.99
2/15/2023 10:45:00 PM -99999.99 -179968 -99999.99 -99999.99 -99999.99 -99999.99
2/15/2023 11:00:00 PM -99999.99 -179968 -99999.99 -99999.99 -99999.99 -99999.99
2/15/2023 11:15:00 PM -99999.99 -179968 -99999.99 -99999.99 -99999.99 -99999.99
2/15/2023 11:30:00 PM -99999.99 -179968 -99999.99 -99999.99 -99999.99 -99999.99
2/15/2023 11:45:00 PM -99999.99 -179968 -99999.99 -99999.99 -99999.99 -99999.99
2/16/2023 12:00:00 AM -99999.99 -179968 -99999.99 -99999.99 -99999.99 -99999.99
2/16/2023 12:15:00 AM -99999.99 -179968 -99999.99 -99999.99 -99999.99 -99999.99
2/16/2023 12:30:00 AM -99999.99 -179968 -99999.99 -99999.99 -99999.99 -99999.99
2/16/2023 12:45:00 AM -99999.99 -179968 -99999.99 -99999.99 -99999.99 -99999.99
2/16/2023 1:00:00 AM -99999.99 -179968 -99999.99 -99999.99 -99999.99 -99999.99
2/16/2023 1:15:00 AM -99999.99 -179968 -99999.99 -99999.99 -99999.99 -99999.99
2/16/2023 1:30:00 AM -99999.99 -179968 -99999.99 -99999.99 -99999.99 -99999.99
2/16/2023 1:45:00 AM -99999.99 -179968 -99999.99 -99999.99 -99999.99 -99999.99
2/16/2023 2:00:00 AM -99999.99 -179968 -99999.99 -99999.99 -99999.99 -99999.99
2/16/2023 2:15:00 AM -99999.99 -179968 -99999.99 -99999.99 -99999.99 -99999.99
2/16/2023 2:30:00 AM -99999.99 -179968 -99999.99 -99999.99 -99999.99 -99999.99
2/16/2023 2:45:00 AM -99999.99 -179968 -99999.99 -99999.99 -99999.99 -99999.99
2/16/2023 3:00:00 AM -99999.99 -179968 -99999.99 -99999.99 -99999.99 -99999.99
2/16/2023 3:15:00 AM -99999.99 -179968 -99999.99 -99999.99 -99999.99 -99999.99
2/16/2023 3:30:00 AM -99999.99 -179968 -99999.99 -99999.99 -99999.99 -99999.99
2/16/2023 3:45:00 AM -99999.99 -179968 -99999.99 -99999.99 -99999.99 -99999.99
2/16/2023 4:00:00 AM -99999.99 -179968 -99999.99 -99999.99 -99999.99 -99999.99
2/16/2023 4:15:00 AM -99999.99 -179968 -99999.99 -99999.99 -99999.99 -99999.99
2/16/2023 4:30:00 AM -99999.99 -179968 -99999.99 -99999.99 -99999.99 -99999.99
2/16/2023 4:45:00 AM -99999.99 -179968 -99999.99 -99999.99 -99999.99 -99999.99
2/16/2023 5:00:00 AM -99999.99 -179968 -99999.99 -99999.99 -99999.99 -99999.99
2/16/2023 5:15:00 AM -99999.99 -179968 -99999.99 -99999.99 -99999.99 -99999.99
2/16/2023 5:30:00 AM -99999.99 -179968 -99999.99 -99999.99 -99999.99 -99999.99
2/16/2023 5:45:00 AM -99999.99 -179968 -99999.99 -99999.99 -99999.99 -99999.99
2/16/2023 6:00:00 AM -99999.99 -179968 -99999.99 -99999.99 -99999.99 -99999.99
2/16/2023 6:15:00 AM -99999.99 -179968 -99999.99 -99999.99 -99999.99 -99999.99
2/16/2023 6:30:00 AM -99999.99 -179968 -99999.99 -99999.99 -99999.99 -99999.99
2/16/2023 6:45:00 AM -99999.99 -179968 -99999.99 -99999.99 -99999.99 -99999.99
2/16/2023 7:00:00 AM -99999.99 -179968 -99999.99 -99999.99 -99999.99 -99999.99
2/16/2023 7:15:00 AM -99999.99 -179968 -99999.99 -99999.99 -99999.99 -99999.99
2/16/2023 7:30:00 AM -99999.99 -179968 -99999.99 -99999.99 -99999.99 -99999.99
2/16/2023 7:45:00 AM -99999.99 -179968 -99999.99 -99999.99 -99999.99 -99999.99
2/16/2023 8:00:00 AM -99999.99 -179968 -99999.99 -99999.99 -99999.99 -99999.99
2/16/2023 8:15:00 AM -99999.99 -179968 -99999.99 -99999.99 -99999.99 -99999.99
2/16/2023 8:30:00 AM -99999.99 -179968 -99999.99 -99999.99 -99999.99 -99999.99
2/16/2023 8:45:00 AM -99999.99 -179968 -99999.99 -99999.99 -99999.99 -99999.99
2/16/2023 9:00:00 AM 3.96 39.128 0.065 7.67 4.58 12.8
2/16/2023 9:15:00 AM 3.99 39.182 0.06 7.68 5.27 12.81
2/16/2023 9:30:00 AM 4.02 39.236 0.065 7.68 4.9 12.81
2/16/2023 9:45:00 AM 4.05 39.29 0.065 7.72 4.4 12.8
2/16/2023 10:00:00 AM 4.08 39.344 0.065 7.7 4.17 12.79
2/16/2023 10:15:00 AM 4.14 39.452 0.065 7.69 4.36 12.8
2/16/2023 10:30:00 AM 4.19 39.542 0.065 7.74 4.34 12.78
2/16/2023 10:45:00 AM 4.22 39.596 0.065 7.73 4.36 12.77
2/16/2023 11:00:00 AM 4.26 39.668 0.065 7.75 4.18 12.75
2/16/2023 11:15:00 AM 4.28 39.704 0.065 7.72 4.29 12.74
2/16/2023 11:30:00 AM 4.31 39.758 0.064 7.7 5.43 12.73
2/16/2023 11:45:00 AM 4.34 39.812 0.065 7.74 4.42 12.72
2/16/2023 12:00:00 PM 4.37 39.866 0.065 7.72 4.46 12.7
2/16/2023 12:15:00 PM 4.42 39.956 0.064 7.71 5.75 12.69
2/16/2023 12:30:00 PM 4.47 40.046 0.065 7.76 9.14 12.67
2/16/2023 12:45:00 PM 4.53 40.154 0.063 7.7 9.23 12.65
2/16/2023 1:00:00 PM 4.58 40.244 0.065 7.77 6.53 12.62
2/16/2023 1:15:00 PM 4.63 40.334 0.063 7.76 7 12.6
2/16/2023 1:30:00 PM 4.7 40.46 0.065 7.74 5.81 12.59
2/16/2023 1:45:00 PM 4.78 40.604 0.065 7.76 5.67 12.56
2/16/2023 2:00:00 PM 4.86 40.748 0.063 7.75 6.83 12.54
2/16/2023 2:15:00 PM 4.93 40.874 0.065 7.75 5.36 12.5
2/16/2023 2:30:00 PM 4.97 40.946 0.063 7.74 6.45 12.46
2/16/2023 2:45:00 PM 5.02 41.036 0.065 7.77 5.38 12.44
2/16/2023 3:00:00 PM 5.08 41.144 0.065 7.75 5.34 12.43
2/16/2023 3:15:00 PM 5.14 41.252 0.065 7.78 5.71 12.41
2/16/2023 3:30:00 PM 5.21 41.378 0.065 7.74 5.57 12.37
2/16/2023 3:45:00 PM 5.22 41.396 0.065 7.77 5.67 12.34
2/16/2023 4:00:00 PM 5.25 41.45 0.065 7.76 5.37 12.3
2/16/2023 4:15:00 PM 5.27 41.486 0.065 7.72 5.4 12.25
2/16/2023 4:30:00 PM 5.3 41.54 0.065 7.7 5.39 12.21
2/16/2023 4:45:00 PM 5.3 41.54 0.065 7.71 5.37 12.18
2/16/2023 5:00:00 PM 5.32 41.576 0.065 7.7 5.44 12.14
2/16/2023 5:15:00 PM 5.34 41.612 0.062 7.67 6.9 12.08
2/16/2023 5:30:00 PM 5.35 41.63 0.065 7.63 5.76 12.04
2/16/2023 5:45:00 PM 5.37 41.666 0.062 7.61 6.64 12
2/16/2023 6:00:00 PM 5.4 41.72 0.065 7.64 5.65 11.98
2/16/2023 6:15:00 PM 5.42 41.756 0.065 7.59 5.71 11.97
2/16/2023 6:30:00 PM 5.49 41.882 0.063 7.59 8.05 11.94
2/16/2023 6:45:00 PM 5.52 41.936 0.065 7.62 6.25 11.92
2/16/2023 7:00:00 PM 5.53 41.954 0.066 7.62 6.66 11.92
2/16/2023 7:15:00 PM 5.54 41.972 0.066 7.6 6.61 11.92
2/16/2023 7:30:00 PM 5.58 42.044 0.062 7.58 7.42 11.91
2/16/2023 7:45:00 PM 5.61 42.098 0.066 7.61 6.55 11.9
2/16/2023 8:00:00 PM 5.65 42.17 0.066 7.62 6.17 11.88
2/16/2023 8:15:00 PM 5.66 42.188 0.066 7.55 6.26 11.87
2/16/2023 8:30:00 PM 5.68 42.224 0.066 7.63 6.45 11.86
2/16/2023 8:45:00 PM 5.7 42.26 0.064 7.49 6.93 11.86
2/16/2023 9:00:00 PM 5.72 42.296 0.063 7.58 7.42 11.84
2/16/2023 9:15:00 PM 5.75 42.35 0.066 7.61 5.91 11.83
2/16/2023 9:30:00 PM 5.77 42.386 0.066 7.62 6.1 11.82
2/16/2023 9:45:00 PM 5.78 42.404 0.062 7.59 7.35 11.82
2/16/2023 10:00:00 PM 5.79 42.422 0.066 7.56 5.95 11.81
2/16/2023 10:15:00 PM 5.8 42.44 0.063 7.58 6.61 11.8
2/16/2023 10:30:00 PM 5.8 42.44 0.066 7.59 5.61 11.8
2/16/2023 10:45:00 PM 5.79 42.422 0.066 7.6 5.67 11.8
2/16/2023 11:00:00 PM 5.82 42.476 0.062 7.59 6.73 11.78
2/16/2023 11:15:00 PM 5.81 42.458 0.066 7.56 5.79 11.78
2/16/2023 11:30:00 PM 5.81 42.458 0.066 7.61 5.44 11.78
2/16/2023 11:45:00 PM -99999.99 -179968 -99999.99 -99999.99 -99999.99 -99999.99
2/17/2023 12:00:00 AM -99999.99 -179968 -99999.99 -99999.99 -99999.99 -99999.99
2/17/2023 12:15:00 AM -99999.99 -179968 -99999.99 -99999.99 -99999.99 -99999.99
2/17/2023 12:30:00 AM -99999.99 -179968 -99999.99 -99999.99 -99999.99 -99999.99
2/17/2023 12:45:00 AM -99999.99 -179968 -99999.99 -99999.99 -99999.99 -99999.99
2/17/2023 1:00:00 AM -99999.99 -179968 -99999.99 -99999.99 -99999.99 -99999.99
2/17/2023 1:15:00 AM -99999.99 -179968 -99999.99 -99999.99 -99999.99 -99999.99
2/17/2023 1:30:00 AM -99999.99 -179968 -99999.99 -99999.99 -99999.99 -99999.99
2/17/2023 1:45:00 AM -99999.99 -179968 -99999.99 -99999.99 -99999.99 -99999.99
2/17/2023 2:00:00 AM -99999.99 -179968 -99999.99 -99999.99 -99999.99 -99999.99
2/17/2023 2:15:00 AM -99999.99 -179968 -99999.99 -99999.99 -99999.99 -99999.99
2/17/2023 2:30:00 AM -99999.99 -179968 -99999.99 -99999.99 -99999.99 -99999.99
2/17/2023 2:45:00 AM -99999.99 -179968 -99999.99 -99999.99 -99999.99 -99999.99
2/17/2023 3:00:00 AM -99999.99 -179968 -99999.99 -99999.99 -99999.99 -99999.99
2/17/2023 3:15:00 AM -99999.99 -179968 -99999.99 -99999.99 -99999.99 -99999.99
2/17/2023 3:30:00 AM -99999.99 -179968 -99999.99 -99999.99 -99999.99 -99999.99
2/17/2023 3:45:00 AM -99999.99 -179968 -99999.99 -99999.99 -99999.99 -99999.99
2/17/2023 4:00:00 AM -99999.99 -179968 -99999.99 -99999.99 -99999.99 -99999.99
2/17/2023 4:15:00 AM -99999.99 -179968 -99999.99 -99999.99 -99999.99 -99999.99
2/17/2023 4:30:00 AM -99999.99 -179968 -99999.99 -99999.99 -99999.99 -99999.99
2/17/2023 4:45:00 AM -99999.99 -179968 -99999.99 -99999.99 -99999.99 -99999.99
2/17/2023 5:00:00 AM -99999.99 -179968 -99999.99 -99999.99 -99999.99 -99999.99
2/17/2023 5:15:00 AM -99999.99 -179968 -99999.99 -99999.99 -99999.99 -99999.99
2/17/2023 5:30:00 AM -99999.99 -179968 -99999.99 -99999.99 -99999.99 -99999.99
2/17/2023 5:45:00 AM -99999.99 -179968 -99999.99 -99999.99 -99999.99 -99999.99
2/17/2023 6:00:00 AM -99999.99 -179968 -99999.99 -99999.99 -99999.99 -99999.99
2/17/2023 6:15:00 AM -99999.99 -179968 -99999.99 -99999.99 -99999.99 -99999.99
2/17/2023 6:30:00 AM -99999.99 -179968 -99999.99 -99999.99 -99999.99 -99999.99
2/17/2023 6:45:00 AM -99999.99 -179968 -99999.99 -99999.99 -99999.99 -99999.99
2/17/2023 7:00:00 AM -99999.99 -179968 -99999.99 -99999.99 -99999.99 -99999.99
2/17/2023 7:15:00 AM -99999.99 -179968 -99999.99 -99999.99 -99999.99 -99999.99
2/17/2023 7:30:00 AM -99999.99 -179968 -99999.99 -99999.99 -99999.99 -99999.99
2/17/2023 7:45:00 AM -99999.99 -179968 -99999.99 -99999.99 -99999.99 -99999.99
2/17/2023 8:00:00 AM -99999.99 -179968 -99999.99 -99999.99 -99999.99 -99999.99
2/17/2023 8:15:00 AM -99999.99 -179968 -99999.99 -99999.99 -99999.99 -99999.99
2/17/2023 8:30:00 AM -99999.99 -179968 -99999.99 -99999.99 -99999.99 -99999.99
2/17/2023 8:45:00 AM -99999.99 -179968 -99999.99 -99999.99 -99999.99 -99999.99
2/17/2023 9:00:00 AM -99999.99 -179968 -99999.99 -99999.99 -99999.99 -99999.99
2/17/2023 9:15:00 AM -99999.99 -179968 -99999.99 -99999.99 -99999.99 -99999.99
2/17/2023 9:30:00 AM -99999.99 -179968 -99999.99 -99999.99 -99999.99 -99999.99
2/17/2023 9:45:00 AM -99999.99 -179968 -99999.99 -99999.99 -99999.99 -99999.99
2/17/2023 10:00:00 AM 5.84 42.512 0.071 7.8 13.33 11.94
2/17/2023 10:15:00 AM 5.83 42.494 0.07 7.76 13.13 12.02
2/17/2023 10:30:00 AM 5.83 42.494 0.068 7.64 13.58 12.05
2/17/2023 10:45:00 AM 5.81 42.458 0.07 7.76 12.89 12.08
2/17/2023 11:00:00 AM 5.76 42.368 0.072 7.79 15.2 12.11
2/17/2023 11:15:00 AM 5.75 42.35 0.07 7.8 21.96 12.15
2/17/2023 11:30:00 AM 5.77 42.386 0.076 7.86 18.84 12.17
2/17/2023 11:45:00 AM 5.79 42.422 0.079 7.81 21.21 12.18
2/17/2023 12:00:00 PM 5.72 42.296 0.081 7.86 23.84 12.13
2/17/2023 12:15:00 PM 5.65 42.17 0.082 7.94 25.14 12.19
2/17/2023 12:30:00 PM 5.63 42.134 0.084 7.97 23.7 12.22
2/17/2023 12:45:00 PM 5.55 41.99 0.089 7.92 23.58 12.22
2/17/2023 1:00:00 PM 5.49 41.882 0.09 7.97 21.66 12.27
2/17/2023 1:15:00 PM 5.46 41.828 0.09 7.95 19.47 12.29
2/17/2023 1:30:00 PM 5.34 41.612 0.087 7.93 17.09 12.29
2/17/2023 1:45:00 PM 5.26 41.468 0.09 7.94 16.17 12.32
2/17/2023 2:00:00 PM 5.19 41.342 0.09 7.98 13.47 12.36
2/17/2023 2:15:00 PM 5.14 41.252 0.09 7.94 12.04 12.4
2/17/2023 2:30:00 PM 5.08 41.144 0.089 7.98 10.84 12.41
2/17/2023 2:45:00 PM 4.99 40.982 0.088 7.98 10.54 12.43
2/17/2023 3:00:00 PM 4.88 40.784 0.083 7.93 9.57 12.44
2/17/2023 3:15:00 PM 4.77 40.586 0.085 7.9 9.49 12.49
2/17/2023 3:30:00 PM 4.66 40.388 0.085 7.9 9.74 12.51
2/17/2023 3:45:00 PM 4.55 40.19 0.083 7.89 9.29 12.53
2/17/2023 4:00:00 PM 4.45 40.01 0.082 7.86 8.72 12.55
2/17/2023 4:15:00 PM 4.36 39.848 0.085 7.91 8.01 12.59
2/17/2023 4:30:00 PM 4.26 39.668 0.084 7.87 6.88 12.62
2/17/2023 4:45:00 PM 4.15 39.47 0.084 7.85 6.87 12.58
2/17/2023 5:00:00 PM 4.07 39.326 0.08 7.82 8.13 12.61
2/17/2023 5:15:00 PM 3.97 39.146 0.083 7.81 6.85 12.62
2/17/2023 5:30:00 PM 3.85 38.93 0.083 7.81 7.68 12.62
2/17/2023 5:45:00 PM 3.74 38.732 0.083 7.8 6.8 12.63
2/17/2023 6:00:00 PM 3.66 38.588 0.082 7.76 6.41 12.64
2/17/2023 6:15:00 PM 3.58 38.444 0.082 7.77 6.44 12.67
2/17/2023 6:30:00 PM 3.5 38.3 0.081 7.78 5.91 12.7
2/17/2023 6:45:00 PM 3.41 38.138 0.081 7.71 6.32 12.73
2/17/2023 7:00:00 PM 3.34 38.012 0.081 7.76 6.01 12.77
2/17/2023 7:15:00 PM 3.27 37.886 0.081 7.75 5.57 12.79
2/17/2023 7:30:00 PM 3.2 37.76 0.08 7.76 5.54 12.82
2/17/2023 7:45:00 PM 3.1 37.58 0.08 7.75 5.32 12.86
2/17/2023 8:00:00 PM 3.04 37.472 0.08 7.76 5.74 12.9
2/17/2023 8:15:00 PM 2.97 37.346 0.078 7.71 6.73 12.92
2/17/2023 8:30:00 PM 2.9 37.22 0.079 7.73 5.01 12.96
2/17/2023 8:45:00 PM 2.82 37.076 0.079 7.73 5.18 12.99
2/17/2023 9:00:00 PM 2.75 36.95 0.077 7.7 6.42 13.02
2/17/2023 9:15:00 PM 2.68 36.824 0.079 7.73 5.55 13.06
2/17/2023 9:30:00 PM 2.6 36.68 0.078 7.72 5.16 13.09
2/17/2023 9:45:00 PM 2.54 36.572 0.078 7.73 5.03 13.12
2/17/2023 10:00:00 PM 2.47 36.446 0.078 7.72 4.75 13.14
2/17/2023 10:15:00 PM 2.4 36.32 0.078 7.73 4.79 13.17
2/17/2023 10:30:00 PM 2.32 36.176 0.078 7.73 4.7 13.21
2/17/2023 10:45:00 PM 2.26 36.068 0.078 7.72 4.72 13.23
2/17/2023 11:00:00 PM 2.21 35.978 0.077 7.72 4.33 13.26
2/17/2023 11:15:00 PM 2.14 35.852 0.077 7.72 4.58 13.3
2/17/2023 11:30:00 PM 2.06 35.708 0.077 7.7 4.45 13.32
2/17/2023 11:45:00 PM 2 35.6 0.077 7.71 4.36 13.35
2/18/2023 12:00:00 AM 1.93 35.474 0.077 7.69 4.43 13.38
2/18/2023 12:15:00 AM 1.88 35.384 0.077 7.69 4.43 13.41
2/18/2023 12:30:00 AM 1.8 35.24 0.077 7.7 4.27 13.45
2/18/2023 12:45:00 AM 1.71 35.078 0.077 7.68 4.32 13.49
2/18/2023 1:00:00 AM 1.64 34.952 0.076 7.69 4.13 13.52
2/18/2023 1:15:00 AM 1.58 34.844 0.076 7.7 4.3 13.55
2/18/2023 1:30:00 AM 1.53 34.754 0.076 7.68 4.06 13.57
2/18/2023 1:45:00 AM 1.47 34.646 0.076 7.67 4.07 13.6
2/18/2023 2:00:00 AM 1.38 34.484 0.076 7.67 3.95 13.63
2/18/2023 2:15:00 AM 1.3 34.34 0.076 7.68 4.12 13.67
2/18/2023 2:30:00 AM 1.24 34.232 0.076 7.66 3.92 13.7
2/18/2023 2:45:00 AM 1.19 34.142 0.076 7.64 4.32 13.71
2/18/2023 3:00:00 AM 1.14 34.052 0.076 7.66 3.74 13.75
2/18/2023 3:15:00 AM 1.1 33.98 0.075 7.68 3.59 13.76
2/18/2023 3:30:00 AM 1.06 33.908 0.075 7.68 3.74 13.79
2/18/2023 3:45:00 AM 1.01 33.818 0.075 7.67 3.41 13.81
2/18/2023 4:00:00 AM 0.96 33.728 0.075 7.68 3.83 13.82
2/18/2023 4:15:00 AM 0.92 33.656 0.075 7.66 3.49 13.84
2/18/2023 4:30:00 AM 0.88 33.584 0.075 7.68 3.47 13.87
2/18/2023 4:45:00 AM 0.8 33.44 0.075 7.65 3.47 13.9
2/18/2023 5:00:00 AM -99999.99 -179968 -99999.99 -99999.99 -99999.99 -99999.99
2/18/2023 5:15:00 AM -99999.99 -179968 -99999.99 -99999.99 -99999.99 -99999.99
2/18/2023 5:30:00 AM -99999.99 -179968 -99999.99 -99999.99 -99999.99 -99999.99
2/18/2023 5:45:00 AM -99999.99 -179968 -99999.99 -99999.99 -99999.99 -99999.99
2/18/2023 6:00:00 AM -99999.99 -179968 -99999.99 -99999.99 -99999.99 -99999.99
2/18/2023 6:15:00 AM -99999.99 -179968 -99999.99 -99999.99 -99999.99 -99999.99
2/18/2023 6:30:00 AM -99999.99 -179968 -99999.99 -99999.99 -99999.99 -99999.99
2/18/2023 6:45:00 AM -99999.99 -179968 -99999.99 -99999.99 -99999.99 -99999.99
2/18/2023 7:00:00 AM -99999.99 -179968 -99999.99 -99999.99 -99999.99 -99999.99
2/18/2023 7:15:00 AM -99999.99 -179968 -99999.99 -99999.99 -99999.99 -99999.99
2/18/2023 7:30:00 AM -99999.99 -179968 -99999.99 -99999.99 -99999.99 -99999.99
2/18/2023 7:45:00 AM 0.23 32.414 0.074 7.73 3.35 14.3
2/18/2023 8:00:00 AM 0.23 32.414 0.074 7.74 3.06 14.34
2/18/2023 8:15:00 AM 0.25 32.45 0.073 7.74 3.29 14.36
2/18/2023 8:30:00 AM 0.25 32.45 0.073 7.74 3.11 14.38
2/18/2023 8:45:00 AM 0.28 32.504 0.073 7.77 3.4 14.38
2/18/2023 9:00:00 AM 0.33 32.594 0.073 7.76 3.05 14.39
2/18/2023 9:15:00 AM 0.38 32.684 0.073 7.79 3.47 14.37
2/18/2023 9:30:00 AM 0.46 32.828 0.073 7.75 3.31 14.34
2/18/2023 9:45:00 AM 0.52 32.936 0.073 7.77 3.14 14.33
2/18/2023 10:00:00 AM 0.6 33.08 0.073 7.79 3.11 14.3
2/18/2023 10:15:00 AM 0.67 33.206 0.072 7.79 3.08 14.27
2/18/2023 10:30:00 AM 0.73 33.314 0.072 7.79 3.06 14.24
2/18/2023 10:45:00 AM 0.8 33.44 0.072 7.76 3.23 14.2
2/18/2023 11:00:00 AM 0.88 33.584 0.072 7.79 3.18 14.16
2/18/2023 11:15:00 AM 0.97 33.746 0.072 7.78 3.19 14.12
2/18/2023 11:30:00 AM 1.05 33.89 0.072 7.78 3.12 14.09
2/18/2023 11:45:00 AM 1.12 34.016 0.072 7.78 3.19 14.05
2/18/2023 12:00:00 PM 1.19 34.142 0.072 7.77 3.22 14.02
2/18/2023 12:15:00 PM 1.22 34.196 0.072 7.77 3.26 13.99
2/18/2023 12:30:00 PM 1.27 34.286 0.072 7.78 3.05 13.95
2/18/2023 12:45:00 PM 1.35 34.43 0.072 7.76 3.29 13.91
2/18/2023 1:00:00 PM 1.44 34.592 0.072 7.76 3.08 13.87
2/18/2023 1:15:00 PM 1.51 34.718 0.071 7.76 3.39 13.82
2/18/2023 1:30:00 PM 1.56 34.808 0.071 7.77 3.25 13.8
2/18/2023 1:45:00 PM 1.6 34.88 0.071 7.74 3.37 13.77
2/18/2023 2:00:00 PM 1.62 34.916 0.071 7.78 3.71 13.75
2/18/2023 2:15:00 PM 1.63 34.934 0.071 7.75 3.98 13.74
2/18/2023 2:30:00 PM 1.64 34.952 0.071 7.77 3.66 13.73
2/18/2023 2:45:00 PM 1.64 34.952 0.071 7.73 4.13 13.72
2/18/2023 3:00:00 PM 1.64 34.952 0.071 7.74 3.64 13.72
2/18/2023 3:15:00 PM 1.64 34.952 0.071 7.77 3.76 13.71
2/18/2023 3:30:00 PM 1.65 34.97 0.071 7.77 3.86 13.7
2/18/2023 3:45:00 PM 1.65 34.97 0.071 7.73 3.54 13.68
2/18/2023 4:00:00 PM 1.65 34.97 0.071 7.71 3.69 13.68
2/18/2023 4:15:00 PM 1.65 34.97 0.071 7.73 3.83 13.67
2/18/2023 4:30:00 PM 1.64 34.952 0.071 7.74 3.72 13.67
2/18/2023 4:45:00 PM 1.64 34.952 0.071 7.72 3.97 13.66
2/18/2023 5:00:00 PM 1.63 34.934 0.071 7.74 3.76 13.65
2/18/2023 5:15:00 PM 1.61 34.898 0.071 7.68 3.8 13.64
2/18/2023 5:30:00 PM 1.59 34.862 0.071 7.68 4.03 13.62
2/18/2023 5:45:00 PM 1.57 34.826 0.071 7.71 4 13.6
2/18/2023 6:00:00 PM 1.54 34.772 0.071 7.67 3.85 13.59
2/18/2023 6:15:00 PM 1.52 34.736 0.071 7.68 3.91 13.6
2/18/2023 6:30:00 PM 1.48 34.664 0.071 7.66 4.29 13.61
2/18/2023 6:45:00 PM 1.44 34.592 0.071 7.67 3.67 13.63
2/18/2023 7:00:00 PM 1.41 34.538 0.071 7.67 4.14 13.65
2/18/2023 7:15:00 PM 1.38 34.484 0.071 7.67 3.5 13.66
2/18/2023 7:30:00 PM 1.35 34.43 0.071 7.63 3.88 13.68
2/18/2023 7:45:00 PM 1.32 34.376 0.071 7.66 4.32 13.69
2/18/2023 8:00:00 PM 1.3 34.34 0.071 7.6 4.08 13.69
2/18/2023 8:15:00 PM 1.27 34.286 0.071 7.63 3.62 13.71
2/18/2023 8:30:00 PM 1.25 34.25 0.071 7.67 3.84 13.72
2/18/2023 8:45:00 PM 1.23 34.214 0.067 7.64 5.14 13.73
2/18/2023 9:00:00 PM 1.21 34.178 0.071 7.66 4 13.74
2/18/2023 9:15:00 PM 1.19 34.142 0.071 7.63 3.68 13.75
2/18/2023 9:30:00 PM 1.17 34.106 0.071 7.67 4.07 13.75
2/18/2023 9:45:00 PM 1.16 34.088 0.071 7.68 3.62 13.76
2/18/2023 10:00:00 PM 1.14 34.052 0.071 7.68 3.73 13.78
2/18/2023 10:15:00 PM 1.12 34.016 0.071 7.62 3.73 13.78
2/18/2023 10:30:00 PM 1.1 33.98 0.071 7.62 3.51 13.79
2/18/2023 10:45:00 PM 1.09 33.962 0.071 7.68 3.48 13.8
2/18/2023 11:00:00 PM 1.07 33.926 0.071 7.68 3.16 13.79
2/18/2023 11:15:00 PM -99999.99 -179968 -99999.99 -99999.99 -99999.99 -99999.99
2/18/2023 11:30:00 PM -99999.99 -179968 -99999.99 -99999.99 -99999.99 -99999.99
2/18/2023 11:45:00 PM -99999.99 -179968 -99999.99 -99999.99 -99999.99 -99999.99
2/19/2023 12:00:00 AM -99999.99 -179968 -99999.99 -99999.99 -99999.99 -99999.99
2/19/2023 12:15:00 AM -99999.99 -179968 -99999.99 -99999.99 -99999.99 -99999.99
2/19/2023 12:30:00 AM -99999.99 -179968 -99999.99 -99999.99 -99999.99 -99999.99
2/19/2023 12:45:00 AM -99999.99 -179968 -99999.99 -99999.99 -99999.99 -99999.99
2/19/2023 1:00:00 AM -99999.99 -179968 -99999.99 -99999.99 -99999.99 -99999.99
2/19/2023 1:15:00 AM -99999.99 -179968 -99999.99 -99999.99 -99999.99 -99999.99
2/19/2023 1:30:00 AM -99999.99 -179968 -99999.99 -99999.99 -99999.99 -99999.99
2/19/2023 1:45:00 AM -99999.99 -179968 -99999.99 -99999.99 -99999.99 -99999.99
2/19/2023 2:00:00 AM -99999.99 -179968 -99999.99 -99999.99 -99999.99 -99999.99
2/19/2023 2:15:00 AM -99999.99 -179968 -99999.99 -99999.99 -99999.99 -99999.99
2/19/2023 2:30:00 AM -99999.99 -179968 -99999.99 -99999.99 -99999.99 -99999.99
2/19/2023 2:45:00 AM -99999.99 -179968 -99999.99 -99999.99 -99999.99 -99999.99
2/19/2023 3:00:00 AM -99999.99 -179968 -99999.99 -99999.99 -99999.99 -99999.99
2/19/2023 3:15:00 AM -99999.99 -179968 -99999.99 -99999.99 -99999.99 -99999.99
2/19/2023 3:30:00 AM -99999.99 -179968 -99999.99 -99999.99 -99999.99 -99999.99
2/19/2023 3:45:00 AM -99999.99 -179968 -99999.99 -99999.99 -99999.99 -99999.99
2/19/2023 4:00:00 AM -99999.99 -179968 -99999.99 -99999.99 -99999.99 -99999.99
2/19/2023 4:15:00 AM -99999.99 -179968 -99999.99 -99999.99 -99999.99 -99999.99
2/19/2023 4:30:00 AM -99999.99 -179968 -99999.99 -99999.99 -99999.99 -99999.99
2/19/2023 4:45:00 AM -99999.99 -179968 -99999.99 -99999.99 -99999.99 -99999.99
2/19/2023 5:00:00 AM -99999.99 -179968 -99999.99 -99999.99 -99999.99 -99999.99
2/19/2023 5:15:00 AM -99999.99 -179968 -99999.99 -99999.99 -99999.99 -99999.99
2/19/2023 5:30:00 AM -99999.99 -179968 -99999.99 -99999.99 -99999.99 -99999.99
2/19/2023 5:45:00 AM -99999.99 -179968 -99999.99 -99999.99 -99999.99 -99999.99
2/19/2023 6:00:00 AM -99999.99 -179968 -99999.99 -99999.99 -99999.99 -99999.99
2/19/2023 6:15:00 AM -99999.99 -179968 -99999.99 -99999.99 -99999.99 -99999.99
2/19/2023 6:30:00 AM -99999.99 -179968 -99999.99 -99999.99 -99999.99 -99999.99
2/19/2023 6:45:00 AM -99999.99 -179968 -99999.99 -99999.99 -99999.99 -99999.99
2/19/2023 7:00:00 AM -99999.99 -179968 -99999.99 -99999.99 -99999.99 -99999.99
2/19/2023 7:15:00 AM -99999.99 -179968 -99999.99 -99999.99 -99999.99 -99999.99
2/19/2023 7:30:00 AM -99999.99 -179968 -99999.99 -99999.99 -99999.99 -99999.99
2/19/2023 7:45:00 AM -99999.99 -179968 -99999.99 -99999.99 -99999.99 -99999.99
2/19/2023 8:00:00 AM -99999.99 -179968 -99999.99 -99999.99 -99999.99 -99999.99
2/19/2023 8:15:00 AM -99999.99 -179968 -99999.99 -99999.99 -99999.99 -99999.99
2/19/2023 8:30:00 AM -99999.99 -179968 -99999.99 -99999.99 -99999.99 -99999.99
2/19/2023 8:45:00 AM 1.23 34.214 0.07 7.77 3.12 13.92
2/19/2023 9:00:00 AM 1.29 34.322 0.07 7.71 3.17 13.93
2/19/2023 9:15:00 AM 1.36 34.448 0.07 7.74 3.21 13.93
2/19/2023 9:30:00 AM 1.44 34.592 0.07 7.74 3.21 13.91
2/19/2023 9:45:00 AM 1.53 34.754 0.068 7.76 4.71 13.89
2/19/2023 10:00:00 AM 1.7 35.06 0.069 7.69 3.32 13.85
2/19/2023 10:15:00 AM 1.81 35.258 0.069 7.76 3.24 13.77
2/19/2023 10:30:00 AM 1.87 35.366 0.069 7.74 3.68 13.73
2/19/2023 10:45:00 AM 1.95 35.51 0.069 7.71 3.39 13.7
2/19/2023 11:00:00 AM 2.05 35.69 0.069 7.73 3.47 13.66
2/19/2023 11:15:00 AM 2.11 35.798 0.069 7.77 3.9 13.65
2/19/2023 11:30:00 AM 2.2 35.96 0.065 7.71 5.2 13.6
2/19/2023 11:45:00 AM 2.3 36.14 0.065 7.71 4.98 13.57
2/19/2023 12:00:00 PM 2.41 36.338 0.069 7.78 3.86 13.5
2/19/2023 12:15:00 PM 2.49 36.482 0.069 7.74 3.58 13.48
2/19/2023 12:30:00 PM 2.58 36.644 0.065 7.76 5.29 13.43
2/19/2023 12:45:00 PM 2.68 36.824 0.069 7.75 3.54 13.38
2/19/2023 1:00:00 PM 2.76 36.968 0.069 7.75 3.54 13.34
2/19/2023 1:15:00 PM 2.87 37.166 0.069 7.78 3.71 13.29
2/19/2023 1:30:00 PM 2.93 37.274 0.069 7.74 3.75 13.26
2/19/2023 1:45:00 PM 2.97 37.346 0.069 7.74 3.87 13.23
2/19/2023 2:00:00 PM 3.02 37.436 0.069 7.74 3.83 13.22
2/19/2023 2:15:00 PM 3.07 37.526 0.066 7.73 5.57 13.19
2/19/2023 2:30:00 PM 3.1 37.58 0.069 7.75 4.21 13.15
2/19/2023 2:45:00 PM 3.11 37.598 0.069 7.73 3.97 13.14
2/19/2023 3:00:00 PM 3.11 37.598 0.069 7.77 4.47 13.1
2/19/2023 3:15:00 PM 3.07 37.526 0.069 7.75 4.8 13.07
2/19/2023 3:30:00 PM 3.03 37.454 0.069 7.7 4.8 13.03
2/19/2023 3:45:00 PM 2.99 37.382 0.069 7.7 4.82 13.02
2/19/2023 4:00:00 PM 2.97 37.346 0.069 7.67 4.38 13.01
2/19/2023 4:15:00 PM 2.96 37.328 0.069 7.72 4.71 13.01
2/19/2023 4:30:00 PM 2.97 37.346 0.069 7.69 4.64 13.04
2/19/2023 4:45:00 PM 2.97 37.346 0.069 7.61 3.94 13.01
2/19/2023 5:00:00 PM 2.98 37.364 0.069 7.71 5.23 13.01
2/19/2023 5:15:00 PM 2.96 37.328 0.069 7.7 4.75 12.97
2/19/2023 5:30:00 PM 2.91 37.238 0.068 7.68 6.07 12.95
2/19/2023 5:45:00 PM 2.86 37.148 0.069 7.64 5.1 12.94
2/19/2023 6:00:00 PM 2.82 37.076 0.069 7.63 5.18 12.93
2/19/2023 6:15:00 PM 2.78 37.004 0.069 7.62 4.96 12.94
2/19/2023 6:30:00 PM 2.75 36.95 0.069 7.63 4.96 12.95
2/19/2023 6:45:00 PM 2.72 36.896 0.069 7.57 4.58 12.95
2/19/2023 7:00:00 PM 2.68 36.824 0.069 7.62 4.66 12.97
2/19/2023 7:15:00 PM 2.65 36.77 0.07 7.65 4.53 12.98
2/19/2023 7:30:00 PM 2.64 36.752 0.066 7.66 6.21 12.98
2/19/2023 7:45:00 PM 2.64 36.752 0.07 7.65 4.26 12.99
2/19/2023 8:00:00 PM 2.62 36.716 0.071 7.62 4.39 13
2/19/2023 8:15:00 PM 2.57 36.626 0.07 7.56 4.73 13.01
2/19/2023 8:30:00 PM 2.52 36.536 0.07 7.6 4.54 13.02
2/19/2023 8:45:00 PM 2.47 36.446 0.07 7.64 4.14 13.05
2/19/2023 9:00:00 PM 2.42 36.356 0.07 7.58 3.86 13.07
2/19/2023 9:15:00 PM 2.38 36.284 0.07 7.53 4.17 13.09
2/19/2023 9:30:00 PM 2.34 36.212 0.07 7.61 3.74 13.09
2/19/2023 9:45:00 PM 2.3 36.14 0.07 7.6 3.82 13.11
2/19/2023 10:00:00 PM 2.26 36.068 0.07 7.64 3.91 13.13
2/19/2023 10:15:00 PM 2.22 35.996 0.066 7.55 4.97 13.13
2/19/2023 10:30:00 PM 2.18 35.924 0.07 7.63 3.55 13.16
2/19/2023 10:45:00 PM 2.15 35.87 0.07 7.63 3.75 13.17
2/19/2023 11:00:00 PM 2.11 35.798 0.07 7.62 3.66 13.18
2/19/2023 11:15:00 PM 2.07 35.726 0.07 7.64 4.73 13.21
2/19/2023 11:30:00 PM 2.03 35.654 0.07 7.55 4.9 13.2
2/19/2023 11:45:00 PM 1.99 35.582 0.07 7.62 4.32 13.23
2/20/2023 12:00:00 AM 1.95 35.51 0.07 7.6 3.75 13.24
2/20/2023 12:15:00 AM 1.91 35.438 0.07 7.62 3.79 13.26
2/20/2023 12:30:00 AM 1.88 35.384 0.07 7.55 4.44 13.26
2/20/2023 12:45:00 AM 1.84 35.312 0.068 7.56 5.09 13.28
2/20/2023 1:00:00 AM 1.81 35.258 0.07 7.59 3.67 13.28
2/20/2023 1:15:00 AM 1.78 35.204 0.07 7.57 3.83 13.29
2/20/2023 1:30:00 AM 1.75 35.15 0.07 7.58 3.56 13.3
2/20/2023 1:45:00 AM 1.72 35.096 0.07 7.63 3.63 13.31
2/20/2023 2:00:00 AM 1.69 35.042 0.07 7.47 4.32 13.32
2/20/2023 2:15:00 AM 1.66 34.988 0.067 7.59 4.77 13.33
2/20/2023 2:30:00 AM 1.64 34.952 0.07 7.63 3.14 13.34
2/20/2023 2:45:00 AM 1.63 34.934 0.07 7.62 3.57 13.34
2/20/2023 3:00:00 AM 1.62 34.916 0.07 7.59 3.63 13.34
2/20/2023 3:15:00 AM 1.61 34.898 0.07 7.58 3.61 13.35
2/20/2023 3:30:00 AM 1.61 34.898 0.066 7.56 4.57 13.35
2/20/2023 3:45:00 AM 1.59 34.862 0.07 7.58 3.02 13.35
2/20/2023 4:00:00 AM 1.58 34.844 0.07 7.57 3.54 13.36
2/20/2023 4:15:00 AM 1.59 34.862 0.068 7.58 4.61 13.35
2/20/2023 4:30:00 AM 1.59 34.862 0.07 7.61 3.14 13.35
2/20/2023 4:45:00 AM 1.58 34.844 0.07 7.59 3.42 13.35
2/20/2023 5:00:00 AM 1.59 34.862 0.07 7.58 3.51 13.35
2/20/2023 5:15:00 AM 1.59 34.862 0.07 7.57 3.28 13.35
2/20/2023 5:30:00 AM 1.6 34.88 0.07 7.62 3.4 13.35
2/20/2023 5:45:00 AM 1.6 34.88 0.07 7.6 3.26 13.34
2/20/2023 6:00:00 AM 1.6 34.88 0.068 7.58 4.41 13.34
2/20/2023 6:15:00 AM 1.61 34.898 0.07 7.61 3.18 13.33
2/20/2023 6:30:00 AM 1.61 34.898 0.07 7.61 4.08 13.33
2/20/2023 6:45:00 AM 1.6 34.88 0.07 7.55 3.29 13.34
2/20/2023 7:00:00 AM 1.58 34.844 0.07 7.55 3.41 13.34
2/20/2023 7:15:00 AM 1.56 34.808 0.07 7.6 3.31 13.38
2/20/2023 7:30:00 AM 1.56 34.808 0.07 7.58 3.3 13.44
2/20/2023 7:45:00 AM 1.62 34.916 0.069 7.64 3.08 13.49
2/20/2023 8:00:00 AM 1.67 35.006 0.069 7.67 3.45 13.48
2/20/2023 8:15:00 AM 1.73 35.114 0.068 7.62 4.51 13.5
2/20/2023 8:30:00 AM 1.79 35.222 0.069 7.65 3.11 13.51
2/20/2023 8:45:00 AM 1.84 35.312 0.069 7.65 3.19 13.49
2/20/2023 9:00:00 AM 1.89 35.402 0.067 7.65 4.48 13.46
2/20/2023 9:15:00 AM 1.97 35.546 0.067 7.72 4.66 13.47
2/20/2023 9:30:00 AM 2.07 35.726 0.069 7.68 3.09 13.43
2/20/2023 9:45:00 AM 2.22 35.996 0.069 7.65 2.97 13.38
2/20/2023 10:00:00 AM 2.37 36.266 0.069 7.71 2.93 13.34
2/20/2023 10:15:00 AM 2.52 36.536 0.068 7.68 2.82 13.29
2/20/2023 10:30:00 AM 2.68 36.824 0.068 7.73 3.41 13.22
2/20/2023 10:45:00 AM 2.84 37.112 0.068 7.69 3.27 13.15
2/20/2023 11:00:00 AM 2.99 37.382 0.068 7.7 3.42 13.1
2/20/2023 11:15:00 AM 3.06 37.508 0.067 7.72 4.75 13.05
2/20/2023 11:30:00 AM 3.26 37.868 0.065 7.72 5.1 13.03
2/20/2023 11:45:00 AM 3.41 38.138 0.068 7.77 3.58 12.96
2/20/2023 12:00:00 PM 3.45 38.21 0.068 7.75 4.15 12.9
2/20/2023 12:15:00 PM 3.41 38.138 0.068 7.71 5.42 12.9
2/20/2023 12:30:00 PM 3.39 38.102 0.068 7.7 4.46 12.89
2/20/2023 12:45:00 PM 3.43 38.174 0.066 7.69 6.35 12.87
2/20/2023 1:00:00 PM 3.52 38.336 0.066 7.55 5.73 12.86
2/20/2023 1:15:00 PM 3.7 38.66 0.068 7.72 4.08 12.82
2/20/2023 1:30:00 PM 3.91 39.038 0.064 7.71 5.24 12.75
2/20/2023 1:45:00 PM 4.02 39.236 0.068 7.76 3.92 12.67
2/20/2023 2:00:00 PM 3.97 39.146 0.068 7.64 4.06 12.64
2/20/2023 2:15:00 PM 3.98 39.164 0.068 7.76 4.05 12.69
2/20/2023 2:30:00 PM 3.95 39.11 0.068 7.73 3.97 12.65
2/20/2023 2:45:00 PM 3.93 39.074 0.066 7.66 5.59 12.65
2/20/2023 3:00:00 PM 3.94 39.092 0.066 7.68 5.6 12.66
2/20/2023 3:15:00 PM 4.01 39.218 0.067 7.75 4.14 12.66
2/20/2023 3:30:00 PM 4.06 39.308 0.068 7.76 4.82 12.62
2/20/2023 3:45:00 PM 4.06 39.308 0.068 7.7 4.59 12.59
2/20/2023 4:00:00 PM 4.08 39.344 0.068 7.71 4.85 12.61
2/20/2023 4:15:00 PM 4.09 39.362 0.068 7.66 4.42 12.57
2/20/2023 4:30:00 PM 4.11 39.398 0.068 7.71 4.56 12.56
2/20/2023 4:45:00 PM 4.12 39.416 0.066 7.66 6.1 12.52
2/20/2023 5:00:00 PM 4.12 39.416 0.068 7.7 4.83 12.52
2/20/2023 5:15:00 PM 4.08 39.344 0.068 7.63 5.05 12.47
2/20/2023 5:30:00 PM 4.02 39.236 0.068 7.68 4.66 12.45
2/20/2023 5:45:00 PM 3.97 39.146 0.068 7.61 4.44 12.43
2/20/2023 6:00:00 PM 3.93 39.074 0.068 7.6 4.79 12.42
2/20/2023 6:15:00 PM 3.92 39.056 0.068 7.64 4.47 12.42
2/20/2023 6:30:00 PM 3.92 39.056 0.068 7.53 4.79 12.42
2/20/2023 6:45:00 PM 3.9 39.02 0.068 7.61 4.74 12.43
2/20/2023 7:00:00 PM 3.9 39.02 0.068 7.63 4.24 12.43
2/20/2023 7:15:00 PM 3.9 39.02 0.068 7.64 4.55 12.43
2/20/2023 7:30:00 PM 3.88 38.984 0.068 7.54 4.58 12.44
2/20/2023 7:45:00 PM 3.86 38.948 0.069 7.6 4.56 12.45
2/20/2023 8:00:00 PM 3.84 38.912 0.069 7.59 4.5 12.46
2/20/2023 8:15:00 PM 3.82 38.876 0.069 7.63 4.61 12.46
2/20/2023 8:30:00 PM 3.8 38.84 0.069 7.58 5.56 12.47
2/20/2023 8:45:00 PM 3.77 38.786 0.069 7.58 5.08 12.48
2/20/2023 9:00:00 PM 3.75 38.75 0.069 7.59 4.56 12.49
2/20/2023 9:15:00 PM 3.71 38.678 0.069 7.59 4.81 12.49
2/20/2023 9:30:00 PM 3.69 38.642 0.067 7.6 5.73 12.5
2/20/2023 9:45:00 PM 3.67 38.606 0.069 7.63 4.33 12.5
2/20/2023 10:00:00 PM 3.66 38.588 0.069 7.63 4.35 12.51
2/20/2023 10:15:00 PM 3.65 38.57 0.069 7.52 4.1 12.51
2/20/2023 10:30:00 PM 3.63 38.534 0.069 7.59 4.47 12.52
2/20/2023 10:45:00 PM 3.62 38.516 0.069 7.58 4.46 12.52
2/20/2023 11:00:00 PM 3.61 38.498 0.069 7.64 5.23 12.52
2/20/2023 11:15:00 PM 3.6 38.48 0.069 7.62 4.04 12.54
2/20/2023 11:30:00 PM 3.59 38.462 0.067 7.57 5.24 12.53
2/20/2023 11:45:00 PM 3.58 38.444 0.069 7.61 4.19 12.55
2/21/2023 12:00:00 AM 3.56 38.408 0.069 7.59 4.05 12.55
2/21/2023 12:15:00 AM 3.53 38.354 0.069 7.57 4.04 12.55
2/21/2023 12:30:00 AM 3.46 38.228 0.069 7.6 4.54 12.57
2/21/2023 12:45:00 AM 3.4 38.12 0.069 7.56 4.2 12.6
2/21/2023 1:00:00 AM 3.38 38.084 0.067 7.59 5.11 12.6
2/21/2023 1:15:00 AM 3.36 38.048 0.069 7.63 4.48 12.62
2/21/2023 1:30:00 AM 3.34 38.012 0.069 7.6 3.95 12.62
2/21/2023 1:45:00 AM 3.32 37.976 0.067 7.62 5.03 12.62
2/21/2023 2:00:00 AM 3.3 37.94 0.069 7.59 3.86 12.63
2/21/2023 2:15:00 AM 3.28 37.904 0.067 7.56 5.26 12.64
2/21/2023 2:30:00 AM 3.25 37.85 0.069 7.62 3.89 12.66
2/21/2023 2:45:00 AM 3.2 37.76 0.069 7.55 4.11 12.66
2/21/2023 3:00:00 AM 3.17 37.706 0.069 7.6 3.44 12.68
2/21/2023 3:15:00 AM 3.15 37.67 0.067 7.58 4.86 12.69
2/21/2023 3:30:00 AM 3.13 37.634 0.067 7.42 5.01 12.7
2/21/2023 3:45:00 AM 3.09 37.562 0.069 7.6 3.48 12.71
2/21/2023 4:00:00 AM 3.05 37.49 0.066 7.59 4.72 12.72
2/21/2023 4:15:00 AM 3.04 37.472 0.069 7.63 3.63 12.72
2/21/2023 4:30:00 AM 3.03 37.454 0.069 7.63 3.31 12.73
2/21/2023 4:45:00 AM 3.01 37.418 0.069 7.58 3.49 12.73
2/21/2023 5:00:00 AM 3 37.4 0.069 7.58 3.65 12.73
2/21/2023 5:15:00 AM 2.99 37.382 0.069 7.61 3.28 12.74
2/21/2023 5:30:00 AM 2.97 37.346 0.069 7.61 3.16 12.74
2/21/2023 5:45:00 AM 2.95 37.31 0.069 7.54 3.22 12.75
2/21/2023 6:00:00 AM 2.94 37.292 0.065 7.58 4.98 12.75
2/21/2023 6:15:00 AM 2.92 37.256 0.069 7.62 3.53 12.75
2/21/2023 6:30:00 AM 2.91 37.238 0.067 7.58 4.84 12.76
2/21/2023 6:45:00 AM 2.9 37.22 0.067 7.56 4.97 12.76
2/21/2023 7:00:00 AM 2.89 37.202 0.069 7.61 3.38 12.77
2/21/2023 7:15:00 AM 2.89 37.202 0.069 7.58 3.48 12.79
2/21/2023 7:30:00 AM 2.89 37.202 0.069 7.58 3.6 12.82
2/21/2023 7:45:00 AM 2.9 37.22 0.069 7.66 3.53 12.86
2/21/2023 8:00:00 AM 2.92 37.256 0.069 7.66 3.71 12.89
2/21/2023 8:15:00 AM 2.94 37.292 0.067 7.63 4.49 12.89
2/21/2023 8:30:00 AM 2.96 37.328 0.068 7.67 3.48 12.92
2/21/2023 8:45:00 AM 3 37.4 0.068 7.7 3.66 12.95
2/21/2023 9:00:00 AM 3.04 37.472 0.068 7.7 3.49 12.92
2/21/2023 9:15:00 AM 3.07 37.526 0.068 7.64 3.52 12.91
2/21/2023 9:30:00 AM 3.12 37.616 0.068 7.69 3.52 12.93
2/21/2023 9:45:00 AM 3.17 37.706 0.068 7.63 3.41 12.93
2/21/2023 10:00:00 AM 3.19 37.742 0.068 7.7 3.38 12.87
2/21/2023 10:15:00 AM 3.25 37.85 0.068 7.74 3.39 12.91
2/21/2023 10:30:00 AM 3.32 37.976 0.068 7.74 3.61 12.89
2/21/2023 10:45:00 AM 3.39 38.102 0.068 7.7 3.36 12.88
2/21/2023 11:00:00 AM 3.47 38.246 0.068 7.77 3.59 12.86
2/21/2023 11:15:00 AM 3.5 38.3 0.068 7.73 3.44 12.8
2/21/2023 11:30:00 AM 3.49 38.282 0.068 7.67 3.6 12.69
2/21/2023 11:45:00 AM 3.46 38.228 0.067 7.65 5.4 12.68
2/21/2023 12:00:00 PM 3.52 38.336 0.067 7.68 4.76 12.79
2/21/2023 12:15:00 PM 3.57 38.426 0.067 7.71 8.69 12.78
2/21/2023 12:30:00 PM 3.65 38.57 0.069 7.75 13.71 12.79
2/21/2023 12:45:00 PM 3.81 38.858 0.068 7.75 8.25 12.73
2/21/2023 1:00:00 PM 3.85 38.93 0.065 7.74 6.97 12.7
2/21/2023 1:15:00 PM 3.93 39.074 0.068 7.71 4.84 12.69
2/21/2023 1:30:00 PM 3.99 39.182 0.068 7.74 4.4 12.64
2/21/2023 1:45:00 PM 4.1 39.38 0.068 7.75 4.74 12.63
2/21/2023 2:00:00 PM 4.09 39.362 0.069 7.69 4.35 12.52
2/21/2023 2:15:00 PM 3.92 39.056 0.069 7.71 5.44 12.48
2/21/2023 2:30:00 PM 3.86 38.948 0.068 7.71 6.35 12.62
2/21/2023 2:45:00 PM 3.85 38.93 0.069 7.75 13.41 12.63
2/21/2023 3:00:00 PM 3.93 39.074 0.069 7.75 8.87 12.65
2/21/2023 3:15:00 PM 3.9 39.02 0.065 7.71 8.73 12.6
2/21/2023 3:30:00 PM 3.84 38.912 0.07 7.75 8.45 12.6
2/21/2023 3:45:00 PM 3.81 38.858 0.073 7.75 9.75 12.61
2/21/2023 4:00:00 PM 3.79 38.822 0.075 7.75 11.56 12.61
2/21/2023 4:15:00 PM 3.75 38.75 0.072 7.72 12.19 12.6
2/21/2023 4:30:00 PM 3.7 38.66 0.069 7.68 11.29 12.6
2/21/2023 4:45:00 PM 3.64 38.552 0.072 7.67 7.83 12.62
2/21/2023 5:00:00 PM 3.58 38.444 0.068 7.66 8.62 12.64
2/21/2023 5:15:00 PM 3.52 38.336 0.071 7.72 8.16 12.64
2/21/2023 5:30:00 PM 3.46 38.228 0.067 7.6 9.18 12.65
2/21/2023 5:45:00 PM 3.39 38.102 0.07 7.65 10.02 12.65
2/21/2023 6:00:00 PM 3.34 38.012 0.071 7.64 9.73 12.66
2/21/2023 6:15:00 PM 3.28 37.904 0.073 7.66 7.75 12.68
2/21/2023 6:30:00 PM 3.22 37.796 0.074 7.68 7.83 12.7
2/21/2023 6:45:00 PM 3.17 37.706 0.072 7.67 9.31 12.72
2/21/2023 7:00:00 PM 3.12 37.616 0.074 7.7 7.1 12.75
2/21/2023 7:15:00 PM 3.06 37.508 0.074 7.61 6.81 12.77
2/21/2023 7:30:00 PM 3 37.4 0.075 7.69 7.91 12.79
2/21/2023 7:45:00 PM 2.95 37.31 0.076 7.65 9.4 12.82
2/21/2023 8:00:00 PM 2.88 37.184 0.077 7.71 9.3 12.85
2/21/2023 8:15:00 PM 2.82 37.076 0.077 7.69 11.15 12.88
2/21/2023 8:30:00 PM 2.76 36.968 0.078 7.7 9.55 12.91
2/21/2023 8:45:00 PM 2.7 36.86 0.078 7.66 8.47 12.93
2/21/2023 9:00:00 PM 2.65 36.77 0.078 7.68 7.45 12.96
2/21/2023 9:15:00 PM 2.6 36.68 0.078 7.65 6.72 12.98
2/21/2023 9:30:00 PM 2.55 36.59 0.078 7.71 6.49 13
2/21/2023 9:45:00 PM 2.5 36.5 0.078 7.71 6.51 13.01
2/21/2023 10:00:00 PM 2.47 36.446 0.077 7.65 6.1 13.05
2/21/2023 10:15:00 PM 2.43 36.374 0.077 7.69 5.21 13.06
2/21/2023 10:30:00 PM 2.38 36.284 0.077 7.69 4.74 13.08
2/21/2023 10:45:00 PM 2.34 36.212 0.077 7.68 4.69 13.1
2/21/2023 11:00:00 PM 2.29 36.122 0.076 7.65 4.61 13.11
2/21/2023 11:15:00 PM 2.25 36.05 0.076 7.69 4.19 13.14
2/21/2023 11:30:00 PM 2.21 35.978 0.074 7.63 5.6 13.16
2/21/2023 11:45:00 PM 2.16 35.888 0.076 7.65 4.45 13.17
2/22/2023 12:00:00 AM 2.12 35.816 0.076 7.63 4.4 13.19
2/22/2023 12:15:00 AM 2.08 35.744 0.075 7.64 4.23 13.22
2/22/2023 12:30:00 AM 2.04 35.672 0.075 7.68 4.42 13.24
2/22/2023 12:45:00 AM 2 35.6 0.075 7.62 4.16 13.25
2/22/2023 1:00:00 AM 1.95 35.51 0.075 7.67 3.95 13.27
2/22/2023 1:15:00 AM 1.91 35.438 0.075 7.64 3.92 13.29
2/22/2023 1:30:00 AM 1.88 35.384 0.074 7.63 3.82 13.31
2/22/2023 1:45:00 AM 1.84 35.312 0.074 7.67 3.77 13.33
2/22/2023 2:00:00 AM 1.8 35.24 0.074 7.6 4.01 13.35
2/22/2023 2:15:00 AM 1.76 35.168 0.074 7.65 3.8 13.36
2/22/2023 2:30:00 AM 1.71 35.078 0.074 7.68 3.76 13.38
2/22/2023 2:45:00 AM 1.67 35.006 0.074 7.65 5.25 13.4
2/22/2023 3:00:00 AM 1.63 34.934 0.074 7.62 4.05 13.41
2/22/2023 3:15:00 AM 1.59 34.862 0.073 7.62 3.9 13.43
2/22/2023 3:30:00 AM 1.55 34.79 0.073 7.66 4.12 13.45
2/22/2023 3:45:00 AM 1.51 34.718 0.073 7.65 4.15 13.47
2/22/2023 4:00:00 AM 1.47 34.646 0.073 7.61 3.96 13.49
2/22/2023 4:15:00 AM 1.43 34.574 0.073 7.68 4.08 13.51
2/22/2023 4:30:00 AM 1.39 34.502 0.073 7.66 3.71 13.53
2/22/2023 4:45:00 AM 1.36 34.448 0.073 7.65 3.95 13.54
2/22/2023 5:00:00 AM 1.32 34.376 0.073 7.66 4.12 13.56
2/22/2023 5:15:00 AM 1.28 34.304 0.073 7.66 3.83 13.58
2/22/2023 5:30:00 AM 1.25 34.25 0.073 7.61 3.6 13.59
2/22/2023 5:45:00 AM 1.23 34.214 0.073 7.64 4.05 13.6
2/22/2023 6:00:00 AM 1.22 34.196 0.072 7.66 3.95 13.62
2/22/2023 6:15:00 AM 1.18 34.124 0.072 7.61 3.47 13.64
2/22/2023 6:30:00 AM 1.14 34.052 0.072 7.61 3.76 13.65
2/22/2023 6:45:00 AM 1.1 33.98 0.072 7.66 3.67 13.67
2/22/2023 7:00:00 AM 1.08 33.944 0.072 7.64 3.68 13.69
2/22/2023 7:15:00 AM 1.06 33.908 0.072 7.62 3.35 13.74
2/22/2023 7:30:00 AM 1.06 33.908 0.072 7.66 3.52 13.81
2/22/2023 7:45:00 AM 1.08 33.944 0.072 7.66 3.6 13.83
2/22/2023 8:00:00 AM 1.11 33.998 0.072 7.71 3.69 13.86
2/22/2023 8:15:00 AM 1.14 34.052 0.071 7.63 3.63 13.87
2/22/2023 8:30:00 AM 1.16 34.088 0.071 7.66 3.33 13.86
2/22/2023 8:45:00 AM 1.17 34.106 0.071 7.68 3 13.84
2/22/2023 9:00:00 AM 1.18 34.124 0.071 7.7 3.29 13.85
2/22/2023 9:15:00 AM 1.2 34.16 0.071 7.63 3.02 13.85
2/22/2023 9:30:00 AM 1.23 34.214 0.071 7.7 3.32 13.85
2/22/2023 9:45:00 AM 1.28 34.304 0.071 7.73 3.31 13.87
2/22/2023 10:00:00 AM 1.32 34.376 0.071 7.7 2.95 13.87
2/22/2023 10:15:00 AM 1.37 34.466 0.071 7.74 3.44 13.86
2/22/2023 10:30:00 AM 1.39 34.502 0.071 7.75 3.27 13.82
2/22/2023 10:45:00 AM 1.4 34.52 0.071 7.7 3.49 13.82
2/22/2023 11:00:00 AM 1.38 34.484 0.068 7.72 4.48 13.82
2/22/2023 11:15:00 AM 1.25 34.25 0.07 7.7 3.49 13.84
2/22/2023 11:30:00 AM 1.16 34.088 0.07 7.76 3.4 13.89
2/22/2023 11:45:00 AM 1.06 33.908 0.07 7.75 3.38 13.91
2/22/2023 12:00:00 PM 0.97 33.746 0.07 7.69 3.23 13.93
2/22/2023 12:15:00 PM 0.83 33.494 0.07 7.74 3.73 13.97
2/22/2023 12:30:00 PM 0.66 33.188 0.069 7.65 3.53 14.01
2/22/2023 12:45:00 PM 0.49 32.882 0.069 7.72 3.51 14.07
2/22/2023 1:00:00 PM 0.36 32.648 0.069 7.71 3.34 14.09
2/22/2023 1:15:00 PM -0.04 31.928 0.068 7.72 5.24 14.18
2/22/2023 1:30:00 PM -0.05 31.91 0.068 7.6 8.46 14.28
2/22/2023 1:45:00 PM -0.04 31.928 0.068 7.7 7.76 14.32
2/22/2023 2:00:00 PM -0.05 31.91 0.068 7.66 5.88 14.34
2/22/2023 2:15:00 PM -0.05 31.91 0.067 7.66 6.29 14.33
2/22/2023 2:30:00 PM -0.05 31.91 0.067 7.66 5.93 14.33
2/22/2023 2:45:00 PM -0.05 31.91 0.067 7.69 6.11 14.33
2/22/2023 3:00:00 PM -0.05 31.91 0.066 7.6 6.62 14.31
2/22/2023 3:15:00 PM -0.05 31.91 0.066 7.66 6.51 14.31
2/22/2023 3:30:00 PM -0.05 31.91 0.066 7.7 5.85 14.29
2/22/2023 3:45:00 PM -0.04 31.928 0.065 7.69 6 14.27
2/22/2023 4:00:00 PM -0.04 31.928 0.065 7.63 5.84 14.25
2/22/2023 4:15:00 PM -0.04 31.928 0.065 7.62 7.3 14.24
2/22/2023 4:30:00 PM -0.04 31.928 0.065 7.61 6.06 14.24
2/22/2023 4:45:00 PM -0.04 31.928 0.065 7.63 6.08 14.22
2/22/2023 5:00:00 PM -0.04 31.928 0.065 7.64 6.05 14.19
2/22/2023 5:15:00 PM -0.04 31.928 0.065 7.65 6.44 14.18
2/22/2023 5:30:00 PM -0.04 31.928 0.066 7.63 6.31 14.16
2/22/2023 5:45:00 PM -0.03 31.946 0.066 7.62 5.82 14.14
2/22/2023 6:00:00 PM -0.03 31.946 0.066 7.62 5.61 14.13
2/22/2023 6:15:00 PM -0.03 31.946 0.066 7.6 5.93 14.13
2/22/2023 6:30:00 PM -0.03 31.946 0.066 7.61 5.59 14.13
2/22/2023 6:45:00 PM -0.03 31.946 0.065 7.6 5.34 14.13
2/22/2023 7:00:00 PM -0.02 31.964 0.065 7.61 5.44 14.11
2/22/2023 7:15:00 PM -0.01 31.982 0.066 7.61 6.26 14.11
2/22/2023 7:30:00 PM 0 32 0.066 7.61 6.48 14.1
2/22/2023 7:45:00 PM 0.01 32.018 0.066 7.62 7.39 14.1
2/22/2023 8:00:00 PM 0.03 32.054 0.067 7.62 7.6 14.08
2/22/2023 8:15:00 PM 0.06 32.108 0.068 7.61 8.49 14.05
2/22/2023 8:30:00 PM 0.12 32.216 0.068 7.62 7.73 14.02
2/22/2023 8:45:00 PM 0.2 32.36 0.068 7.62 7.12 14
2/22/2023 9:00:00 PM 0.29 32.522 0.069 7.6 6.96 13.96
2/22/2023 9:15:00 PM 0.37 32.666 0.068 7.63 7.19 13.93
2/22/2023 9:30:00 PM 0.44 32.792 0.068 7.63 6.54 13.9
2/22/2023 9:45:00 PM 0.5 32.9 0.068 7.62 5.77 13.87
2/22/2023 10:00:00 PM 0.56 33.008 0.068 7.62 5.87 13.84
2/22/2023 10:15:00 PM 0.61 33.098 0.068 7.63 5.71 13.82
2/22/2023 10:30:00 PM 0.66 33.188 0.068 7.62 5.43 13.79
2/22/2023 10:45:00 PM 0.71 33.278 0.068 7.58 5.89 13.77
2/22/2023 11:00:00 PM 0.75 33.35 0.068 7.62 5.39 13.74
2/22/2023 11:15:00 PM 0.79 33.422 0.068 7.62 5.3 13.73
2/22/2023 11:30:00 PM 0.83 33.494 0.068 7.63 4.93 13.71
2/22/2023 11:45:00 PM 0.88 33.584 0.068 7.62 5.16 13.69
2/23/2023 12:00:00 AM 0.92 33.656 0.068 7.64 4.92 13.66
2/23/2023 12:15:00 AM 0.95 33.71 0.068 7.6 5.03 13.66
2/23/2023 12:30:00 AM 0.98 33.764 0.068 7.62 5.2 13.64
2/23/2023 12:45:00 AM 1.02 33.836 0.068 7.64 5.22 13.62
2/23/2023 1:00:00 AM 1.05 33.89 0.068 7.61 4.82 13.6
2/23/2023 1:15:00 AM 1.08 33.944 0.068 7.63 5.04 13.59
2/23/2023 1:30:00 AM 1.12 34.016 0.083 7.61 5.19 13.56
2/23/2023 1:45:00 AM 1.15 34.07 0.07 7.59 5.32 13.55
2/23/2023 2:00:00 AM 1.18 34.124 0.069 7.63 5.88 13.53
2/23/2023 2:15:00 AM 1.22 34.196 0.075 7.63 6.09 13.51
2/23/2023 2:30:00 AM 1.25 34.25 0.07 7.61 7.36 13.49
2/23/2023 2:45:00 AM 1.29 34.322 0.069 7.64 7.75 13.48
2/23/2023 3:00:00 AM 1.32 34.376 0.07 7.62 8.35 13.46
2/23/2023 3:15:00 AM 1.35 34.43 0.069 7.6 10.64 13.45
2/23/2023 3:30:00 AM 1.38 34.484 0.071 7.63 10.37 13.44
2/23/2023 3:45:00 AM 1.42 34.556 0.071 7.65 10.85 13.42
2/23/2023 4:00:00 AM 1.44 34.592 0.071 7.64 11.48 13.41
2/23/2023 4:15:00 AM 1.47 34.646 0.071 7.64 11.43 13.41
2/23/2023 4:30:00 AM 1.49 34.682 0.07 7.61 10.34 13.4
2/23/2023 4:45:00 AM 1.52 34.736 0.07 7.62 10.66 13.39
2/23/2023 5:00:00 AM -99999.99 -179968 -99999.99 -99999.99 -99999.99 -99999.99
2/23/2023 5:15:00 AM -99999.99 -179968 -99999.99 -99999.99 -99999.99 -99999.99
2/23/2023 5:30:00 AM -99999.99 -179968 -99999.99 -99999.99 -99999.99 -99999.99
2/23/2023 5:45:00 AM -99999.99 -179968 -99999.99 -99999.99 -99999.99 -99999.99
2/23/2023 6:00:00 AM -99999.99 -179968 -99999.99 -99999.99 -99999.99 -99999.99
2/23/2023 6:15:00 AM -99999.99 -179968 -99999.99 -99999.99 -99999.99 -99999.99
2/23/2023 6:30:00 AM -99999.99 -179968 -99999.99 -99999.99 -99999.99 -99999.99
2/23/2023 6:45:00 AM -99999.99 -179968 -99999.99 -99999.99 -99999.99 -99999.99
2/23/2023 7:00:00 AM -99999.99 -179968 -99999.99 -99999.99 -99999.99 -99999.99
2/23/2023 7:15:00 AM -99999.99 -179968 -99999.99 -99999.99 -99999.99 -99999.99
2/23/2023 7:30:00 AM -99999.99 -179968 -99999.99 -99999.99 -99999.99 -99999.99
2/23/2023 7:45:00 AM -99999.99 -179968 -99999.99 -99999.99 -99999.99 -99999.99
2/23/2023 8:00:00 AM -99999.99 -179968 -99999.99 -99999.99 -99999.99 -99999.99
2/23/2023 8:15:00 AM -99999.99 -179968 -99999.99 -99999.99 -99999.99 -99999.99
2/23/2023 8:30:00 AM -99999.99 -179968 -99999.99 -99999.99 -99999.99 -99999.99
2/23/2023 8:45:00 AM -99999.99 -179968 -99999.99 -99999.99 -99999.99 -99999.99
2/23/2023 9:00:00 AM -99999.99 -179968 -99999.99 -99999.99 -99999.99 -99999.99
2/23/2023 9:15:00 AM -99999.99 -179968 -99999.99 -99999.99 -99999.99 -99999.99
2/23/2023 9:30:00 AM -99999.99 -179968 -99999.99 -99999.99 -99999.99 -99999.99
2/23/2023 9:45:00 AM 2.11 35.798 0.063 7.54 7.86 13.47
2/23/2023 10:00:00 AM 2.14 35.852 0.063 7.49 7.73 13.47
2/23/2023 10:15:00 AM 2.18 35.924 0.063 7.46 7.66 13.46
2/23/2023 10:30:00 AM 2.23 36.014 0.063 7.46 7.6 13.47
2/23/2023 10:45:00 AM 2.32 36.176 0.062 7.46 7.78 13.46
2/23/2023 11:00:00 AM 2.4 36.32 0.062 7.46 7.86 13.45
2/23/2023 11:15:00 AM 2.46 36.428 0.063 7.47 8.52 13.42
2/23/2023 11:30:00 AM 2.49 36.482 0.063 7.47 8.69 13.41
2/23/2023 11:45:00 AM 2.58 36.644 0.064 7.47 9.03 13.4
2/23/2023 12:00:00 PM 2.71 36.878 0.064 7.48 9.75 13.35
2/23/2023 12:15:00 PM 2.77 36.986 0.064 7.48 10.52 13.32
2/23/2023 12:30:00 PM 2.83 37.094 0.065 7.5 10.82 13.31
2/23/2023 12:45:00 PM 2.98 37.364 0.066 7.51 11.58 13.27
2/23/2023 1:00:00 PM 3.03 37.454 0.066 7.53 14.88 13.23
2/23/2023 1:15:00 PM 3.05 37.49 0.066 7.52 13.04 13.18
2/23/2023 1:30:00 PM 3.1 37.58 0.066 7.5 12.45 13.15
2/23/2023 1:45:00 PM 3.13 37.634 0.066 7.51 12.91 13.12
2/23/2023 2:00:00 PM 3.16 37.688 0.067 7.5 13.61 13.09
2/23/2023 2:15:00 PM 3.18 37.724 0.067 7.49 15.52 13.07
2/23/2023 2:30:00 PM 3.23 37.814 0.068 7.5 17.54 13.08
2/23/2023 2:45:00 PM 3.29 37.922 0.069 7.52 18.07 13.08
2/23/2023 3:00:00 PM 3.24 37.832 0.069 7.52 17.92 13.03
2/23/2023 3:15:00 PM 3.21 37.778 0.068 7.51 17.49 13.01
2/23/2023 3:30:00 PM 3.22 37.796 0.068 7.5 16.79 13.01
2/23/2023 3:45:00 PM 3.22 37.796 0.068 7.49 17.94 13
2/23/2023 4:00:00 PM 3.21 37.778 0.068 7.49 18.09 12.98
2/23/2023 4:15:00 PM 3.19 37.742 0.067 7.48 17.14 12.98
2/23/2023 4:30:00 PM 3.17 37.706 0.067 7.48 18.06 12.98
2/23/2023 4:45:00 PM 3.16 37.688 0.066 7.48 18.3 12.98
2/23/2023 5:00:00 PM 3.15 37.67 0.066 7.47 17.27 12.99
2/23/2023 5:15:00 PM 3.14 37.652 0.066 7.45 16.59 12.97
2/23/2023 5:30:00 PM 3.12 37.616 0.066 7.44 16.37 12.96
2/23/2023 5:45:00 PM 3.1 37.58 0.065 7.43 17.03 12.94
2/23/2023 6:00:00 PM 3.08 37.544 0.065 7.42 15.74 12.93
2/23/2023 6:15:00 PM 3.07 37.526 0.065 7.4 15.57 12.93
2/23/2023 6:30:00 PM 3.08 37.544 0.065 7.4 16.51 12.93
2/23/2023 6:45:00 PM 3.07 37.526 0.066 7.39 17.13 12.93
2/23/2023 7:00:00 PM 3.07 37.526 0.066 7.4 16.97 12.93
2/23/2023 7:15:00 PM 3.07 37.526 0.066 7.41 17.09 12.93
2/23/2023 7:30:00 PM 3.08 37.544 0.066 7.4 16.46 12.92
2/23/2023 7:45:00 PM 3.09 37.562 0.066 7.4 16.92 12.93
2/23/2023 8:00:00 PM 3.1 37.58 0.066 7.41 17.57 12.93
2/23/2023 8:15:00 PM 3.09 37.562 0.066 7.39 16.52 12.93
2/23/2023 8:30:00 PM 3.09 37.562 0.066 7.4 16.92 12.94
2/23/2023 8:45:00 PM 3.1 37.58 0.066 7.39 16.87 12.94
2/23/2023 9:00:00 PM 3.09 37.562 0.066 7.39 16.62 12.95
2/23/2023 9:15:00 PM 3.07 37.526 0.065 7.39 16.17 12.96
2/23/2023 9:30:00 PM 3.08 37.544 0.065 7.39 16.4 12.96
2/23/2023 9:45:00 PM 3.09 37.562 0.065 7.37 16.54 12.96
2/23/2023 10:00:00 PM 3.1 37.58 0.064 7.38 16.27 12.95
2/23/2023 10:15:00 PM 3.11 37.598 0.064 7.37 15.34 12.95
2/23/2023 10:30:00 PM 3.13 37.634 0.063 7.37 15.64 12.95
2/23/2023 10:45:00 PM 3.15 37.67 0.063 7.37 16.14 12.95
2/23/2023 11:00:00 PM 3.15 37.67 0.063 7.37 15.74 12.94
2/23/2023 11:15:00 PM 3.14 37.652 0.063 7.36 16.04 12.94
2/23/2023 11:30:00 PM 3.17 37.706 0.063 7.37 17.04 12.94
2/23/2023 11:45:00 PM 3.18 37.724 0.064 7.37 18.46 12.94
2/24/2023 12:00:00 AM 3.18 37.724 0.064 7.38 16.96 12.94
2/24/2023 12:15:00 AM 3.18 37.724 0.063 7.37 16.84 12.95
2/24/2023 12:30:00 AM 3.19 37.742 0.063 7.37 15.78 12.95
2/24/2023 12:45:00 AM 3.19 37.742 0.062 7.36 16.3 12.95
2/24/2023 1:00:00 AM 3.19 37.742 0.062 7.37 15.78 12.96
2/24/2023 1:15:00 AM 3.17 37.706 0.061 7.35 15.06 12.97
2/24/2023 1:30:00 AM 3.15 37.67 0.061 7.35 15.58 12.98
2/24/2023 1:45:00 AM 3.13 37.634 0.061 7.35 15.04 12.99
2/24/2023 2:00:00 AM 3.12 37.616 0.06 7.34 15.05 13
2/24/2023 2:15:00 AM 3.13 37.634 0.06 7.34 14.78 13
2/24/2023 2:30:00 AM 3.15 37.67 0.06 7.34 14.54 13
2/24/2023 2:45:00 AM 3.12 37.616 0.06 7.32 14.59 13
2/24/2023 3:00:00 AM 3.08 37.544 0.059 7.33 14.22 13.02
2/24/2023 3:15:00 AM 3.07 37.526 0.059 7.32 14.37 13.03
2/24/2023 3:30:00 AM 3.07 37.526 0.059 7.33 13.77 13.03
2/24/2023 3:45:00 AM -99999.99 -179968 -99999.99 -99999.99 -99999.99 -99999.99
2/24/2023 4:00:00 AM -99999.99 -179968 -99999.99 -99999.99 -99999.99 -99999.99
2/24/2023 4:15:00 AM -99999.99 -179968 -99999.99 -99999.99 -99999.99 -99999.99
2/24/2023 4:30:00 AM -99999.99 -179968 -99999.99 -99999.99 -99999.99 -99999.99
2/24/2023 4:45:00 AM -99999.99 -179968 -99999.99 -99999.99 -99999.99 -99999.99
2/24/2023 5:00:00 AM -99999.99 -179968 -99999.99 -99999.99 -99999.99 -99999.99
2/24/2023 5:15:00 AM -99999.99 -179968 -99999.99 -99999.99 -99999.99 -99999.99
2/24/2023 5:30:00 AM -99999.99 -179968 -99999.99 -99999.99 -99999.99 -99999.99
2/24/2023 5:45:00 AM -99999.99 -179968 -99999.99 -99999.99 -99999.99 -99999.99
2/24/2023 6:00:00 AM -99999.99 -179968 -99999.99 -99999.99 -99999.99 -99999.99
2/24/2023 6:15:00 AM -99999.99 -179968 -99999.99 -99999.99 -99999.99 -99999.99
2/24/2023 6:30:00 AM -99999.99 -179968 -99999.99 -99999.99 -99999.99 -99999.99
2/24/2023 6:45:00 AM -99999.99 -179968 -99999.99 -99999.99 -99999.99 -99999.99
2/24/2023 7:00:00 AM -99999.99 -179968 -99999.99 -99999.99 -99999.99 -99999.99
2/24/2023 7:15:00 AM -99999.99 -179968 -99999.99 -99999.99 -99999.99 -99999.99
2/24/2023 7:30:00 AM -99999.99 -179968 -99999.99 -99999.99 -99999.99 -99999.99
2/24/2023 7:45:00 AM -99999.99 -179968 -99999.99 -99999.99 -99999.99 -99999.99
2/24/2023 8:00:00 AM -99999.99 -179968 -99999.99 -99999.99 -99999.99 -99999.99
2/24/2023 8:15:00 AM 2.67 36.806 0.057 7.33 10.12 13.34
2/24/2023 8:30:00 AM 2.67 36.806 0.057 7.33 10.32 13.37
2/24/2023 8:45:00 AM 2.67 36.806 0.057 7.33 10.4 13.39
2/24/2023 9:00:00 AM 2.7 36.86 0.057 7.34 10.48 13.39
2/24/2023 9:15:00 AM 2.68 36.824 0.056 7.35 9.85 13.41
2/24/2023 9:30:00 AM 2.63 36.734 0.056 7.36 10.02 13.41
2/24/2023 9:45:00 AM 2.6 36.68 0.056 7.35 10.01 13.42
2/24/2023 10:00:00 AM 2.63 36.734 0.056 7.34 10.11 13.46
2/24/2023 10:15:00 AM 2.67 36.806 0.056 7.35 10.15 13.43
2/24/2023 10:30:00 AM 2.66 36.788 0.056 7.36 9.65 13.42
2/24/2023 10:45:00 AM 2.75 36.95 0.056 7.35 9.5 13.42
2/24/2023 11:00:00 AM 2.71 36.878 0.056 7.36 9.39 13.41
2/24/2023 11:15:00 AM 2.8 37.04 0.056 7.36 9.89 13.4
2/24/2023 11:30:00 AM 2.86 37.148 0.056 7.36 9.56 13.37
2/24/2023 11:45:00 AM 2.88 37.184 0.056 7.36 10.32 13.36
2/24/2023 12:00:00 PM 2.87 37.166 0.056 7.36 9.53 13.37
2/24/2023 12:15:00 PM 3 37.4 0.056 7.36 9.67 13.34
2/24/2023 12:30:00 PM 2.97 37.346 0.056 7.36 9.55 13.33
2/24/2023 12:45:00 PM 2.93 37.274 0.056 7.36 10.32 13.34
2/24/2023 1:00:00 PM 2.99 37.382 0.056 7.36 9.67 13.31
2/24/2023 1:15:00 PM 2.98 37.364 0.056 7.35 9.65 13.31
2/24/2023 1:30:00 PM 2.97 37.346 0.055 7.35 9.42 13.31
2/24/2023 1:45:00 PM 2.95 37.31 0.055 7.35 9.31 13.31
2/24/2023 2:00:00 PM 2.91 37.238 0.055 7.36 9.09 13.32
2/24/2023 2:15:00 PM 2.9 37.22 0.055 7.34 9.24 13.33
2/24/2023 2:30:00 PM 2.83 37.094 0.055 7.35 9.1 13.33
2/24/2023 2:45:00 PM 2.78 37.004 0.055 7.34 9.74 13.35
2/24/2023 3:00:00 PM 2.74 36.932 0.055 7.34 9.23 13.37
2/24/2023 3:15:00 PM 2.64 36.752 0.055 7.34 8.98 13.41
2/24/2023 3:30:00 PM 2.57 36.626 0.055 7.34 9.71 13.44
2/24/2023 3:45:00 PM 2.51 36.518 0.055 7.33 9.13 13.44
2/24/2023 4:00:00 PM 2.47 36.446 0.055 7.33 9.02 13.45
2/24/2023 4:15:00 PM 2.41 36.338 0.055 7.33 9.12 13.48
2/24/2023 4:30:00 PM 2.36 36.248 0.055 7.31 9.31 13.5
2/24/2023 4:45:00 PM 2.31 36.158 0.055 7.31 8.94 13.53
2/24/2023 5:00:00 PM 2.25 36.05 0.055 7.3 9.07 13.53
2/24/2023 5:15:00 PM 2.19 35.942 0.055 7.31 8.78 13.55
2/24/2023 5:30:00 PM 2.14 35.852 0.055 7.3 8.98 13.56
2/24/2023 5:45:00 PM 2.09 35.762 0.055 7.29 9.21 13.57
2/24/2023 6:00:00 PM 2.04 35.672 0.056 7.26 9.02 13.6
2/24/2023 6:15:00 PM 1.99 35.582 0.056 7.26 9.19 13.62
2/24/2023 6:30:00 PM 1.93 35.474 0.056 7.25 8.62 13.64
2/24/2023 6:45:00 PM 1.89 35.402 0.056 7.25 8.9 13.65
2/24/2023 7:00:00 PM 1.84 35.312 0.055 7.26 9.08 13.68
2/24/2023 7:15:00 PM 1.81 35.258 0.055 7.24 8.67 13.69
2/24/2023 7:30:00 PM 1.76 35.168 0.055 7.25 8.62 13.7
2/24/2023 7:45:00 PM 1.7 35.06 0.055 7.24 8.68 13.73
2/24/2023 8:00:00 PM 1.65 34.97 0.055 7.24 8.66 13.75
2/24/2023 8:15:00 PM 1.6 34.88 0.055 7.23 8.15 13.76
2/24/2023 8:30:00 PM 1.56 34.808 0.055 7.23 8.46 13.79
2/24/2023 8:45:00 PM 1.51 34.718 0.055 7.23 7.83 13.82
2/24/2023 9:00:00 PM 1.47 34.646 0.055 7.24 8 13.83
2/24/2023 9:15:00 PM 1.44 34.592 0.055 7.23 7.7 13.85
2/24/2023 9:30:00 PM 1.39 34.502 0.055 7.24 7.63 13.87
2/24/2023 9:45:00 PM 1.35 34.43 0.055 7.24 7.67 13.9
2/24/2023 10:00:00 PM 1.33 34.394 0.055 7.23 7.53 13.91
2/24/2023 10:15:00 PM 1.3 34.34 0.055 7.24 7.57 13.93
2/24/2023 10:30:00 PM 1.27 34.286 0.055 7.23 7.87 13.94
2/24/2023 10:45:00 PM 1.25 34.25 0.055 7.24 7.5 13.95
2/24/2023 11:00:00 PM 1.22 34.196 0.055 7.24 7.32 13.96
2/24/2023 11:15:00 PM 1.2 34.16 0.055 7.25 7.41 13.97
2/24/2023 11:30:00 PM 1.16 34.088 0.055 7.23 7.57 13.98
2/24/2023 11:45:00 PM 1.13 34.034 0.055 7.24 7.33 13.99
2/25/2023 12:00:00 AM 1.09 33.962 0.055 7.26 7.59 14.01
2/25/2023 12:15:00 AM 1.05 33.89 0.055 7.25 7.26 14.02
2/25/2023 12:30:00 AM 1.03 33.854 0.055 7.25 7.38 14.03
2/25/2023 12:45:00 AM 1 33.8 0.055 7.24 7.28 14.04
2/25/2023 1:00:00 AM 0.97 33.746 0.055 7.23 7.27 14.04
2/25/2023 1:15:00 AM 0.94 33.692 0.055 7.24 7.41 14.05
2/25/2023 1:30:00 AM 0.91 33.638 0.055 7.23 7.6 14.05
2/25/2023 1:45:00 AM 0.87 33.566 0.055 7.24 7.04 14.07
2/25/2023 2:00:00 AM 0.84 33.512 0.055 7.23 7.29 14.08
2/25/2023 2:15:00 AM 0.82 33.476 0.055 7.24 8.34 14.1
2/25/2023 2:30:00 AM 0.8 33.44 0.055 7.23 7.6 14.11
2/25/2023 2:45:00 AM -99999.99 -179968 -99999.99 -99999.99 -99999.99 -99999.99
2/25/2023 3:00:00 AM -99999.99 -179968 -99999.99 -99999.99 -99999.99 -99999.99
2/25/2023 3:15:00 AM -99999.99 -179968 -99999.99 -99999.99 -99999.99 -99999.99
2/25/2023 3:30:00 AM -99999.99 -179968 -99999.99 -99999.99 -99999.99 -99999.99
2/25/2023 3:45:00 AM -99999.99 -179968 -99999.99 -99999.99 -99999.99 -99999.99
2/25/2023 4:00:00 AM -99999.99 -179968 -99999.99 -99999.99 -99999.99 -99999.99
2/25/2023 4:15:00 AM -99999.99 -179968 -99999.99 -99999.99 -99999.99 -99999.99
2/25/2023 4:30:00 AM -99999.99 -179968 -99999.99 -99999.99 -99999.99 -99999.99
2/25/2023 4:45:00 AM -99999.99 -179968 -99999.99 -99999.99 -99999.99 -99999.99
2/25/2023 5:00:00 AM -99999.99 -179968 -99999.99 -99999.99 -99999.99 -99999.99
2/25/2023 5:15:00 AM -99999.99 -179968 -99999.99 -99999.99 -99999.99 -99999.99
2/25/2023 5:30:00 AM -99999.99 -179968 -99999.99 -99999.99 -99999.99 -99999.99
2/25/2023 5:45:00 AM -99999.99 -179968 -99999.99 -99999.99 -99999.99 -99999.99
2/25/2023 6:00:00 AM -99999.99 -179968 -99999.99 -99999.99 -99999.99 -99999.99
2/25/2023 6:15:00 AM -99999.99 -179968 -99999.99 -99999.99 -99999.99 -99999.99
2/25/2023 6:30:00 AM -99999.99 -179968 -99999.99 -99999.99 -99999.99 -99999.99
2/25/2023 6:45:00 AM -99999.99 -179968 -99999.99 -99999.99 -99999.99 -99999.99
2/25/2023 7:00:00 AM -99999.99 -179968 -99999.99 -99999.99 -99999.99 -99999.99
2/25/2023 7:15:00 AM -99999.99 -179968 -99999.99 -99999.99 -99999.99 -99999.99
2/25/2023 7:30:00 AM -99999.99 -179968 -99999.99 -99999.99 -99999.99 -99999.99
2/25/2023 7:45:00 AM -99999.99 -179968 -99999.99 -99999.99 -99999.99 -99999.99
2/25/2023 8:00:00 AM -99999.99 -179968 -99999.99 -99999.99 -99999.99 -99999.99
2/25/2023 8:15:00 AM -99999.99 -179968 -99999.99 -99999.99 -99999.99 -99999.99
2/25/2023 8:30:00 AM -99999.99 -179968 -99999.99 -99999.99 -99999.99 -99999.99
2/25/2023 8:45:00 AM -99999.99 -179968 -99999.99 -99999.99 -99999.99 -99999.99
2/25/2023 9:00:00 AM -99999.99 -179968 -99999.99 -99999.99 -99999.99 -99999.99
2/25/2023 9:15:00 AM -99999.99 -179968 -99999.99 -99999.99 -99999.99 -99999.99
2/25/2023 9:30:00 AM -99999.99 -179968 -99999.99 -99999.99 -99999.99 -99999.99
2/25/2023 9:45:00 AM -99999.99 -179968 -99999.99 -99999.99 -99999.99 -99999.99
2/25/2023 10:00:00 AM -99999.99 -179968 -99999.99 -99999.99 -99999.99 -99999.99
2/25/2023 10:15:00 AM -99999.99 -179968 -99999.99 -99999.99 -99999.99 -99999.99
2/25/2023 10:30:00 AM -99999.99 -179968 -99999.99 -99999.99 -99999.99 -99999.99
2/25/2023 10:45:00 AM -99999.99 -179968 -99999.99 -99999.99 -99999.99 -99999.99
2/25/2023 11:00:00 AM -99999.99 -179968 -99999.99 -99999.99 -99999.99 -99999.99
2/25/2023 11:15:00 AM -99999.99 -179968 -99999.99 -99999.99 -99999.99 -99999.99
2/25/2023 11:30:00 AM -99999.99 -179968 -99999.99 -99999.99 -99999.99 -99999.99
2/25/2023 11:45:00 AM -99999.99 -179968 -99999.99 -99999.99 -99999.99 -99999.99
2/25/2023 12:00:00 PM -99999.99 -179968 -99999.99 -99999.99 -99999.99 -99999.99
2/25/2023 12:15:00 PM -99999.99 -179968 -99999.99 -99999.99 -99999.99 -99999.99
2/25/2023 12:30:00 PM -99999.99 -179968 -99999.99 -99999.99 -99999.99 -99999.99
2/25/2023 12:45:00 PM -99999.99 -179968 -99999.99 -99999.99 -99999.99 -99999.99
2/25/2023 1:00:00 PM -99999.99 -179968 -99999.99 -99999.99 -99999.99 -99999.99
2/25/2023 1:15:00 PM -99999.99 -179968 -99999.99 -99999.99 -99999.99 -99999.99
2/25/2023 1:30:00 PM -99999.99 -179968 -99999.99 -99999.99 -99999.99 -99999.99
2/25/2023 1:45:00 PM -99999.99 -179968 -99999.99 -99999.99 -99999.99 -99999.99
2/25/2023 2:00:00 PM -99999.99 -179968 -99999.99 -99999.99 -99999.99 -99999.99
2/25/2023 2:15:00 PM -99999.99 -179968 -99999.99 -99999.99 -99999.99 -99999.99
2/25/2023 2:30:00 PM -99999.99 -179968 -99999.99 -99999.99 -99999.99 -99999.99
2/25/2023 2:45:00 PM -99999.99 -179968 -99999.99 -99999.99 -99999.99 -99999.99
2/25/2023 3:00:00 PM -99999.99 -179968 -99999.99 -99999.99 -99999.99 -99999.99
2/25/2023 3:15:00 PM -99999.99 -179968 -99999.99 -99999.99 -99999.99 -99999.99
2/25/2023 3:30:00 PM -99999.99 -179968 -99999.99 -99999.99 -99999.99 -99999.99
2/25/2023 3:45:00 PM -99999.99 -179968 -99999.99 -99999.99 -99999.99 -99999.99
2/25/2023 4:00:00 PM -99999.99 -179968 -99999.99 -99999.99 -99999.99 -99999.99
2/25/2023 4:15:00 PM -99999.99 -179968 -99999.99 -99999.99 -99999.99 -99999.99
2/25/2023 4:30:00 PM -99999.99 -179968 -99999.99 -99999.99 -99999.99 -99999.99
2/25/2023 4:45:00 PM -99999.99 -179968 -99999.99 -99999.99 -99999.99 -99999.99
2/25/2023 5:00:00 PM -99999.99 -179968 -99999.99 -99999.99 -99999.99 -99999.99
2/25/2023 5:15:00 PM -99999.99 -179968 -99999.99 -99999.99 -99999.99 -99999.99
2/25/2023 5:30:00 PM -99999.99 -179968 -99999.99 -99999.99 -99999.99 -99999.99
2/25/2023 5:45:00 PM -99999.99 -179968 -99999.99 -99999.99 -99999.99 -99999.99
2/25/2023 6:00:00 PM -99999.99 -179968 -99999.99 -99999.99 -99999.99 -99999.99
2/25/2023 6:15:00 PM -99999.99 -179968 -99999.99 -99999.99 -99999.99 -99999.99
2/25/2023 6:30:00 PM -99999.99 -179968 -99999.99 -99999.99 -99999.99 -99999.99
2/25/2023 6:45:00 PM -99999.99 -179968 -99999.99 -99999.99 -99999.99 -99999.99
2/25/2023 7:00:00 PM -99999.99 -179968 -99999.99 -99999.99 -99999.99 -99999.99
2/25/2023 7:15:00 PM -99999.99 -179968 -99999.99 -99999.99 -99999.99 -99999.99
2/25/2023 7:30:00 PM -99999.99 -179968 -99999.99 -99999.99 -99999.99 -99999.99
2/25/2023 7:45:00 PM -99999.99 -179968 -99999.99 -99999.99 -99999.99 -99999.99
2/25/2023 8:00:00 PM -99999.99 -179968 -99999.99 -99999.99 -99999.99 -99999.99
2/25/2023 8:15:00 PM -99999.99 -179968 -99999.99 -99999.99 -99999.99 -99999.99
2/25/2023 8:30:00 PM -99999.99 -179968 -99999.99 -99999.99 -99999.99 -99999.99
2/25/2023 8:45:00 PM -99999.99 -179968 -99999.99 -99999.99 -99999.99 -99999.99
2/25/2023 9:00:00 PM -99999.99 -179968 -99999.99 -99999.99 -99999.99 -99999.99
2/25/2023 9:15:00 PM -99999.99 -179968 -99999.99 -99999.99 -99999.99 -99999.99
2/25/2023 9:30:00 PM -99999.99 -179968 -99999.99 -99999.99 -99999.99 -99999.99
2/25/2023 9:45:00 PM -99999.99 -179968 -99999.99 -99999.99 -99999.99 -99999.99
2/25/2023 10:00:00 PM -99999.99 -179968 -99999.99 -99999.99 -99999.99 -99999.99
2/25/2023 10:15:00 PM -99999.99 -179968 -99999.99 -99999.99 -99999.99 -99999.99
2/25/2023 10:30:00 PM -99999.99 -179968 -99999.99 -99999.99 -99999.99 -99999.99
2/25/2023 10:45:00 PM -99999.99 -179968 -99999.99 -99999.99 -99999.99 -99999.99
2/25/2023 11:00:00 PM -99999.99 -179968 -99999.99 -99999.99 -99999.99 -99999.99
2/25/2023 11:15:00 PM -99999.99 -179968 -99999.99 -99999.99 -99999.99 -99999.99
2/25/2023 11:30:00 PM -99999.99 -179968 -99999.99 -99999.99 -99999.99 -99999.99
2/25/2023 11:45:00 PM -99999.99 -179968 -99999.99 -99999.99 -99999.99 -99999.99
2/26/2023 12:00:00 AM -99999.99 -179968 -99999.99 -99999.99 -99999.99 -99999.99
2/26/2023 12:15:00 AM -99999.99 -179968 -99999.99 -99999.99 -99999.99 -99999.99
2/26/2023 12:30:00 AM -99999.99 -179968 -99999.99 -99999.99 -99999.99 -99999.99
2/26/2023 12:45:00 AM -99999.99 -179968 -99999.99 -99999.99 -99999.99 -99999.99
2/26/2023 1:00:00 AM -99999.99 -179968 -99999.99 -99999.99 -99999.99 -99999.99
2/26/2023 1:15:00 AM -99999.99 -179968 -99999.99 -99999.99 -99999.99 -99999.99
2/26/2023 1:30:00 AM -99999.99 -179968 -99999.99 -99999.99 -99999.99 -99999.99
2/26/2023 1:45:00 AM -99999.99 -179968 -99999.99 -99999.99 -99999.99 -99999.99
2/26/2023 2:00:00 AM -99999.99 -179968 -99999.99 -99999.99 -99999.99 -99999.99
2/26/2023 2:15:00 AM -99999.99 -179968 -99999.99 -99999.99 -99999.99 -99999.99
2/26/2023 2:30:00 AM -99999.99 -179968 -99999.99 -99999.99 -99999.99 -99999.99
2/26/2023 2:45:00 AM -99999.99 -179968 -99999.99 -99999.99 -99999.99 -99999.99
2/26/2023 3:00:00 AM -99999.99 -179968 -99999.99 -99999.99 -99999.99 -99999.99
2/26/2023 3:15:00 AM -99999.99 -179968 -99999.99 -99999.99 -99999.99 -99999.99
2/26/2023 3:30:00 AM -99999.99 -179968 -99999.99 -99999.99 -99999.99 -99999.99
2/26/2023 3:45:00 AM -99999.99 -179968 -99999.99 -99999.99 -99999.99 -99999.99
2/26/2023 4:00:00 AM -99999.99 -179968 -99999.99 -99999.99 -99999.99 -99999.99
2/26/2023 4:15:00 AM -99999.99 -179968 -99999.99 -99999.99 -99999.99 -99999.99
2/26/2023 4:30:00 AM -99999.99 -179968 -99999.99 -99999.99 -99999.99 -99999.99
2/26/2023 4:45:00 AM -99999.99 -179968 -99999.99 -99999.99 -99999.99 -99999.99
2/26/2023 5:00:00 AM -99999.99 -179968 -99999.99 -99999.99 -99999.99 -99999.99
2/26/2023 5:15:00 AM -99999.99 -179968 -99999.99 -99999.99 -99999.99 -99999.99
2/26/2023 5:30:00 AM -99999.99 -179968 -99999.99 -99999.99 -99999.99 -99999.99
2/26/2023 5:45:00 AM -99999.99 -179968 -99999.99 -99999.99 -99999.99 -99999.99
2/26/2023 6:00:00 AM -99999.99 -179968 -99999.99 -99999.99 -99999.99 -99999.99
2/26/2023 6:15:00 AM -99999.99 -179968 -99999.99 -99999.99 -99999.99 -99999.99
2/26/2023 6:30:00 AM -99999.99 -179968 -99999.99 -99999.99 -99999.99 -99999.99
2/26/2023 6:45:00 AM -99999.99 -179968 -99999.99 -99999.99 -99999.99 -99999.99
2/26/2023 7:00:00 AM -99999.99 -179968 -99999.99 -99999.99 -99999.99 -99999.99
2/26/2023 7:15:00 AM -99999.99 -179968 -99999.99 -99999.99 -99999.99 -99999.99
2/26/2023 7:30:00 AM -99999.99 -179968 -99999.99 -99999.99 -99999.99 -99999.99
2/26/2023 7:45:00 AM -99999.99 -179968 -99999.99 -99999.99 -99999.99 -99999.99
2/26/2023 8:00:00 AM -99999.99 -179968 -99999.99 -99999.99 -99999.99 -99999.99
2/26/2023 8:15:00 AM 0.59 33.062 0.053 7.33 5.48 14.04
2/26/2023 8:30:00 AM 0.7 33.26 0.053 7.29 5.59 14.01
2/26/2023 8:45:00 AM 0.81 33.458 0.053 7.28 5.6 13.97
2/26/2023 9:00:00 AM 0.94 33.692 0.053 7.28 5.44 13.92
2/26/2023 9:15:00 AM 1.08 33.944 0.053 7.28 5.51 13.88
2/26/2023 9:30:00 AM 1.24 34.232 0.053 7.28 5.86 13.82
2/26/2023 9:45:00 AM 1.39 34.502 0.053 7.3 5.62 13.76
2/26/2023 10:00:00 AM 1.54 34.772 0.052 7.3 5.56 13.7
2/26/2023 10:15:00 AM 1.69 35.042 0.052 7.29 5.27 13.63
2/26/2023 10:30:00 AM 1.86 35.348 0.052 7.31 5.79 13.57
2/26/2023 10:45:00 AM 2 35.6 0.052 7.3 5.6 13.53
2/26/2023 11:00:00 AM 2.13 35.834 0.052 7.31 5.79 13.45
2/26/2023 11:15:00 AM 2.28 36.104 0.052 7.31 5.96 13.4
2/26/2023 11:30:00 AM 2.41 36.338 0.052 7.32 5.94 13.35
2/26/2023 11:45:00 AM 2.54 36.572 0.052 7.32 5.91 13.3
2/26/2023 12:00:00 PM 2.67 36.806 0.052 7.33 6.12 13.24
2/26/2023 12:15:00 PM 2.82 37.076 0.052 7.33 6.56 13.17
2/26/2023 12:30:00 PM 2.94 37.292 0.052 7.33 6.56 13.13
2/26/2023 12:45:00 PM 3.07 37.526 0.052 7.34 6.65 13.07
2/26/2023 1:00:00 PM 3.18 37.724 0.052 7.33 8.54 13.03
2/26/2023 1:15:00 PM 3.26 37.868 0.052 7.34 8.56 12.99
2/26/2023 1:30:00 PM 3.31 37.958 0.052 7.34 7.47 12.96
2/26/2023 1:45:00 PM 3.34 38.012 0.052 7.34 7.47 12.95
2/26/2023 2:00:00 PM 3.38 38.084 0.052 7.33 7.12 12.92
2/26/2023 2:15:00 PM 3.4 38.12 0.052 7.34 6.82 12.9
2/26/2023 2:30:00 PM 3.43 38.174 0.052 7.33 6.82 12.88
2/26/2023 2:45:00 PM 3.45 38.21 0.052 7.33 6.68 12.87
2/26/2023 3:00:00 PM 3.44 38.192 0.052 7.33 7.04 12.86
2/26/2023 3:15:00 PM 3.42 38.156 0.052 7.33 6.89 12.86
2/26/2023 3:30:00 PM 3.39 38.102 0.052 7.32 6.93 12.87
2/26/2023 3:45:00 PM 3.38 38.084 0.052 7.32 7.02 12.88
2/26/2023 4:00:00 PM 3.37 38.066 0.052 7.31 6.99 12.88
2/26/2023 4:15:00 PM 3.35 38.03 0.052 7.32 7.24 12.88
2/26/2023 4:30:00 PM 3.34 38.012 0.052 7.31 7.56 12.88
2/26/2023 4:45:00 PM 3.32 37.976 0.052 7.31 7.29 12.88
2/26/2023 5:00:00 PM 3.3 37.94 0.052 7.31 7.2 12.9
2/26/2023 5:15:00 PM 3.27 37.886 0.052 7.3 7.33 12.9
2/26/2023 5:30:00 PM 3.25 37.85 0.052 7.29 7.59 12.9
2/26/2023 5:45:00 PM 3.22 37.796 0.052 7.29 7.39 12.9
2/26/2023 6:00:00 PM 3.19 37.742 0.052 7.27 7.89 12.91
2/26/2023 6:15:00 PM 3.14 37.652 0.052 7.28 7.34 12.91
2/26/2023 6:30:00 PM 3.11 37.598 0.052 7.27 7.55 12.93
2/26/2023 6:45:00 PM 3.07 37.526 0.052 7.27 7.46 12.95
2/26/2023 7:00:00 PM 3.03 37.454 0.052 7.25 7.22 12.96
2/26/2023 7:15:00 PM 2.98 37.364 0.052 7.26 7.44 12.97
2/26/2023 7:30:00 PM 2.94 37.292 0.053 7.24 7.33 13
2/26/2023 7:45:00 PM 2.89 37.202 0.052 7.25 7.4 13.02
2/26/2023 8:00:00 PM 2.84 37.112 0.052 7.24 7.17 13.04
2/26/2023 8:15:00 PM 2.79 37.022 0.052 7.25 7.19 13.06
2/26/2023 8:30:00 PM 2.74 36.932 0.053 7.24 7.26 13.07
2/26/2023 8:45:00 PM 2.69 36.842 0.053 7.24 6.77 13.11
2/26/2023 9:00:00 PM 2.64 36.752 0.053 7.24 6.51 13.13
2/26/2023 9:15:00 PM 2.61 36.698 0.053 7.24 6.69 13.15
2/26/2023 9:30:00 PM 2.58 36.644 0.053 7.24 6.68 13.16
2/26/2023 9:45:00 PM 2.56 36.608 0.053 7.24 6.73 13.18
2/26/2023 10:00:00 PM 2.55 36.59 0.053 7.23 7.2 13.18
2/26/2023 10:15:00 PM 2.54 36.572 0.052 7.23 6.59 13.19
2/26/2023 10:30:00 PM 2.52 36.536 0.053 7.24 6.59 13.2
2/26/2023 10:45:00 PM 2.5 36.5 0.053 7.24 6.39 13.2
2/26/2023 11:00:00 PM 2.48 36.464 0.052 7.23 6.46 13.2
2/26/2023 11:15:00 PM 2.45 36.41 0.053 7.24 6.32 13.22
2/26/2023 11:30:00 PM 2.44 36.392 0.053 7.22 6.31 13.23
2/26/2023 11:45:00 PM -99999.99 -179968 -99999.99 -99999.99 -99999.99 -99999.99
2/27/2023 12:00:00 AM -99999.99 -179968 -99999.99 -99999.99 -99999.99 -99999.99
2/27/2023 12:15:00 AM -99999.99 -179968 -99999.99 -99999.99 -99999.99 -99999.99
2/27/2023 12:30:00 AM -99999.99 -179968 -99999.99 -99999.99 -99999.99 -99999.99
2/27/2023 12:45:00 AM -99999.99 -179968 -99999.99 -99999.99 -99999.99 -99999.99
2/27/2023 1:00:00 AM -99999.99 -179968 -99999.99 -99999.99 -99999.99 -99999.99
2/27/2023 1:15:00 AM -99999.99 -179968 -99999.99 -99999.99 -99999.99 -99999.99
2/27/2023 1:30:00 AM -99999.99 -179968 -99999.99 -99999.99 -99999.99 -99999.99
2/27/2023 1:45:00 AM -99999.99 -179968 -99999.99 -99999.99 -99999.99 -99999.99
2/27/2023 2:00:00 AM -99999.99 -179968 -99999.99 -99999.99 -99999.99 -99999.99
2/27/2023 2:15:00 AM -99999.99 -179968 -99999.99 -99999.99 -99999.99 -99999.99
2/27/2023 2:30:00 AM -99999.99 -179968 -99999.99 -99999.99 -99999.99 -99999.99
2/27/2023 2:45:00 AM -99999.99 -179968 -99999.99 -99999.99 -99999.99 -99999.99
2/27/2023 3:00:00 AM -99999.99 -179968 -99999.99 -99999.99 -99999.99 -99999.99
2/27/2023 3:15:00 AM -99999.99 -179968 -99999.99 -99999.99 -99999.99 -99999.99
2/27/2023 3:30:00 AM -99999.99 -179968 -99999.99 -99999.99 -99999.99 -99999.99
2/27/2023 3:45:00 AM -99999.99 -179968 -99999.99 -99999.99 -99999.99 -99999.99
2/27/2023 4:00:00 AM -99999.99 -179968 -99999.99 -99999.99 -99999.99 -99999.99
2/27/2023 4:15:00 AM -99999.99 -179968 -99999.99 -99999.99 -99999.99 -99999.99
2/27/2023 4:30:00 AM -99999.99 -179968 -99999.99 -99999.99 -99999.99 -99999.99
2/27/2023 4:45:00 AM -99999.99 -179968 -99999.99 -99999.99 -99999.99 -99999.99
2/27/2023 5:00:00 AM -99999.99 -179968 -99999.99 -99999.99 -99999.99 -99999.99
2/27/2023 5:15:00 AM -99999.99 -179968 -99999.99 -99999.99 -99999.99 -99999.99
2/27/2023 5:30:00 AM -99999.99 -179968 -99999.99 -99999.99 -99999.99 -99999.99
2/27/2023 5:45:00 AM -99999.99 -179968 -99999.99 -99999.99 -99999.99 -99999.99
2/27/2023 6:00:00 AM -99999.99 -179968 -99999.99 -99999.99 -99999.99 -99999.99
2/27/2023 6:15:00 AM -99999.99 -179968 -99999.99 -99999.99 -99999.99 -99999.99
2/27/2023 6:30:00 AM -99999.99 -179968 -99999.99 -99999.99 -99999.99 -99999.99
2/27/2023 6:45:00 AM -99999.99 -179968 -99999.99 -99999.99 -99999.99 -99999.99
2/27/2023 7:00:00 AM -99999.99 -179968 -99999.99 -99999.99 -99999.99 -99999.99
2/27/2023 7:15:00 AM -99999.99 -179968 -99999.99 -99999.99 -99999.99 -99999.99
2/27/2023 7:30:00 AM 1.48 34.664 0.052 7.29 5.77 13.66
2/27/2023 7:45:00 AM 1.48 34.664 0.053 7.28 5.44 13.7
2/27/2023 8:00:00 AM 1.48 34.664 0.052 7.24 5.37 13.73
2/27/2023 8:15:00 AM 1.49 34.682 0.052 7.27 5.6 13.73
2/27/2023 8:30:00 AM 1.52 34.736 0.053 7.27 5.27 13.73
2/27/2023 8:45:00 AM 1.56 34.808 0.052 7.28 5.51 13.72
2/27/2023 9:00:00 AM 1.62 34.916 0.052 7.27 5.38 13.72
2/27/2023 9:15:00 AM 1.69 35.042 0.052 7.3 5.35 13.7
2/27/2023 9:30:00 AM 1.75 35.15 0.052 7.27 5.53 13.69
2/27/2023 9:45:00 AM 1.81 35.258 0.052 7.3 5.62 13.66
2/27/2023 10:00:00 AM 1.87 35.366 0.051 7.25 5.54 13.65
2/27/2023 10:15:00 AM 1.95 35.51 0.052 7.3 5.4 13.62
2/27/2023 10:30:00 AM 2.06 35.708 0.053 7.3 5.34 13.57
2/27/2023 10:45:00 AM 2.15 35.87 0.052 7.31 5.48 13.53
2/27/2023 11:00:00 AM 2.19 35.942 0.052 7.32 5.25 13.51
2/27/2023 11:15:00 AM 2.28 36.104 0.052 7.3 5.23 13.49
2/27/2023 11:30:00 AM 2.36 36.248 0.052 7.32 5.51 13.44
2/27/2023 11:45:00 AM 2.44 36.392 0.051 7.32 5.47 13.42
2/27/2023 12:00:00 PM 2.5 36.5 0.051 7.33 5.73 13.38
2/27/2023 12:15:00 PM 2.6 36.68 0.051 7.34 5.76 13.35
2/27/2023 12:30:00 PM 2.72 36.896 0.052 7.28 5.91 13.29
2/27/2023 12:45:00 PM 2.82 37.076 0.052 7.34 5.41 13.24
2/27/2023 1:00:00 PM 2.91 37.238 0.051 7.3 5.68 13.2
2/27/2023 1:15:00 PM 3.02 37.436 0.052 7.33 5.56 13.16
2/27/2023 1:30:00 PM 3.07 37.526 0.05 7.33 5.74 13.12
2/27/2023 1:45:00 PM 3.08 37.544 0.051 7.34 5.8 13.11
2/27/2023 2:00:00 PM 3.09 37.562 0.05 7.33 5.51 13.1
2/27/2023 2:15:00 PM 3.1 37.58 0.052 7.35 5.84 13.08
2/27/2023 2:30:00 PM 3.12 37.616 0.052 7.34 5.49 13.07
2/27/2023 2:45:00 PM 3.18 37.724 0.052 7.35 5.95 13.06
2/27/2023 3:00:00 PM 3.2 37.76 0.053 7.28 6.04 13.04
2/27/2023 3:15:00 PM 3.17 37.706 0.052 7.34 6 13.01
2/27/2023 3:30:00 PM 3.13 37.634 0.052 7.32 5.76 12.98
2/27/2023 3:45:00 PM 3.1 37.58 0.051 7.32 5.96 12.97
2/27/2023 4:00:00 PM 3.03 37.454 0.051 7.31 5.96 12.95
2/27/2023 4:15:00 PM 2.82 37.076 0.052 7.3 6.06 13
2/27/2023 4:30:00 PM 2.71 36.878 0.052 7.29 6.03 13.03
2/27/2023 4:45:00 PM 2.65 36.77 0.053 7.28 6.16 13.05
2/27/2023 5:00:00 PM 2.62 36.716 0.052 7.28 6.39 13.06
2/27/2023 5:15:00 PM 2.58 36.644 0.053 7.28 6.32 13.07
2/27/2023 5:30:00 PM 2.55 36.59 0.051 7.27 6.53 13.09
2/27/2023 5:45:00 PM 2.42 36.356 0.052 7.28 6.56 13.11
2/27/2023 6:00:00 PM 2.15 35.87 0.052 7.27 6.55 13.15
2/27/2023 6:15:00 PM 2.05 35.69 0.052 7.23 6.75 13.22
2/27/2023 6:30:00 PM 2.01 35.618 0.052 7.25 7.1 13.25
2/27/2023 6:45:00 PM 1.93 35.474 0.052 7.26 6.51 13.28
2/27/2023 7:00:00 PM 1.93 35.474 0.052 7.22 6.35 13.29
2/27/2023 7:15:00 PM 1.95 35.51 0.052 7.25 6.18 13.29
2/27/2023 7:30:00 PM 1.99 35.582 0.052 7.23 6.22 13.27
2/27/2023 7:45:00 PM 2.02 35.636 0.052 7.24 6.14 13.26
2/27/2023 8:00:00 PM 2.01 35.618 0.052 7.25 6.03 13.26
2/27/2023 8:15:00 PM 2.03 35.654 0.052 7.25 5.92 13.25
2/27/2023 8:30:00 PM 2.02 35.636 0.052 7.2 6.1 13.24
2/27/2023 8:45:00 PM 2.02 35.636 0.052 7.23 5.88 13.24
2/27/2023 9:00:00 PM 1.99 35.582 0.052 7.24 5.85 13.24
2/27/2023 9:15:00 PM 2.02 35.636 0.052 7.25 6.26 13.24
2/27/2023 9:30:00 PM 2.04 35.672 0.053 7.23 6.26 13.23
2/27/2023 9:45:00 PM 1.99 35.582 0.052 7.26 6.22 13.23
2/27/2023 10:00:00 PM 1.6 34.88 0.053 7.23 5.98 13.29
2/27/2023 10:15:00 PM 1.33 34.394 0.052 7.25 6 13.4
2/27/2023 10:30:00 PM 1.41 34.538 0.052 7.21 5.82 13.43
2/27/2023 10:45:00 PM 1.54 34.772 0.052 7.24 5.57 13.38
2/27/2023 11:00:00 PM 1.61 34.898 0.052 7.24 5.53 13.37
2/27/2023 11:15:00 PM 1.65 34.97 0.052 7.24 5.63 13.36
2/27/2023 11:30:00 PM 1.67 35.006 0.052 7.22 5.78 13.35
2/27/2023 11:45:00 PM 1.69 35.042 0.052 7.24 5.77 13.34
2/28/2023 12:00:00 AM 1.72 35.096 0.053 7.21 5.91 13.33
2/28/2023 12:15:00 AM 1.74 35.132 0.052 7.23 5.89 13.31
2/28/2023 12:30:00 AM 1.76 35.168 0.052 7.24 5.49 13.3
2/28/2023 12:45:00 AM 1.77 35.186 0.052 7.24 5.68 13.3
2/28/2023 1:00:00 AM 1.79 35.222 0.053 7.25 5.57 13.3
2/28/2023 1:15:00 AM 1.81 35.258 0.052 7.22 5.79 13.3
2/28/2023 1:30:00 AM 1.84 35.312 0.053 7.24 5.48 13.28
2/28/2023 1:45:00 AM 1.87 35.366 0.052 7.24 6.03 13.26
2/28/2023 2:00:00 AM 1.89 35.402 0.053 7.21 5.53 13.26
2/28/2023 2:15:00 AM 1.92 35.456 0.052 7.25 5.67 13.25
2/28/2023 2:30:00 AM 1.94 35.492 0.053 7.22 5.32 13.24
2/28/2023 2:45:00 AM 1.96 35.528 0.052 7.25 5.39 13.24
2/28/2023 3:00:00 AM 1.99 35.582 0.053 7.23 6.16 13.23
2/28/2023 3:15:00 AM 2 35.6 0.053 7.26 5.77 13.22
2/28/2023 3:30:00 AM 2.02 35.636 0.053 7.23 5.86 13.22
2/28/2023 3:45:00 AM 2.03 35.654 0.053 7.26 5.64 13.2
2/28/2023 4:00:00 AM 2.04 35.672 0.053 7.26 5.79 13.2
2/28/2023 4:15:00 AM 2.06 35.708 0.054 7.26 5.69 13.2
2/28/2023 4:30:00 AM 2.07 35.726 0.054 7.24 5.68 13.19
2/28/2023 4:45:00 AM 2.08 35.744 0.054 7.26 5.72 13.19
2/28/2023 5:00:00 AM 2.1 35.78 0.053 7.23 5.49 13.18
2/28/2023 5:15:00 AM 2.12 35.816 0.053 7.27 5.65 13.16
2/28/2023 5:30:00 AM 2.14 35.852 0.054 7.24 6.02 13.16
2/28/2023 5:45:00 AM 2.16 35.888 0.054 7.27 6.01 13.15
2/28/2023 6:00:00 AM 2.19 35.942 0.054 7.27 5.78 13.15
2/28/2023 6:15:00 AM 2.21 35.978 0.053 7.27 5.56 13.15
2/28/2023 6:30:00 AM 2.23 36.014 0.054 7.25 5.73 13.14
2/28/2023 6:45:00 AM 2.25 36.05 0.054 7.27 5.51 13.13
2/28/2023 7:00:00 AM 2.28 36.104 0.053 7.27 5.47 13.14
2/28/2023 7:15:00 AM 2.31 36.158 0.054 7.27 5.42 13.14
2/28/2023 7:30:00 AM 2.33 36.194 0.054 7.24 5.49 13.16
2/28/2023 7:45:00 AM 2.35 36.23 0.053 7.28 5.48 13.17
2/28/2023 8:00:00 AM 2.38 36.284 0.053 7.29 5.42 13.19
2/28/2023 8:15:00 AM 2.42 36.356 0.053 7.27 5.55 13.2
2/28/2023 8:30:00 AM 2.44 36.392 0.053 7.3 5.5 13.2
2/28/2023 8:45:00 AM 2.46 36.428 0.053 7.31 5.69 13.19
2/28/2023 9:00:00 AM 2.49 36.482 0.053 7.31 5.45 13.19
2/28/2023 9:15:00 AM 2.53 36.554 0.053 7.32 5.58 13.22
2/28/2023 9:30:00 AM 2.58 36.644 0.053 7.29 6.03 13.21
2/28/2023 9:45:00 AM 2.63 36.734 0.053 7.33 5.99 13.21
2/28/2023 10:00:00 AM 2.69 36.842 0.053 7.34 6.04 13.19
2/28/2023 10:15:00 AM 2.8 37.04 0.053 7.34 6.1 13.16
2/28/2023 10:30:00 AM 2.85 37.13 0.053 7.35 6.04 13.15
2/28/2023 10:45:00 AM 2.87 37.166 0.053 7.36 6.67 13.14
2/28/2023 11:00:00 AM 2.89 37.202 0.053 7.37 6.64 13.12
2/28/2023 11:15:00 AM 2.91 37.238 0.054 7.37 6.29 13.12
2/28/2023 11:30:00 AM 3.05 37.49 0.053 7.37 6.65 13.1
2/28/2023 11:45:00 AM 3.26 37.868 0.054 7.36 7.09 13.05
2/28/2023 12:00:00 PM 3.27 37.886 0.055 7.4 8.73 13.03
2/28/2023 12:15:00 PM 3.34 38.012 0.055 7.39 9.04 13.01
2/28/2023 12:30:00 PM 3.43 38.174 0.055 7.42 9.84 12.97
2/28/2023 12:45:00 PM 3.45 38.21 0.056 7.41 10.09 12.95
2/28/2023 1:00:00 PM 3.49 38.282 0.056 7.43 10.59 12.95
2/28/2023 1:15:00 PM 3.52 38.336 0.057 7.42 11.36 12.94
2/28/2023 1:30:00 PM 3.56 38.408 0.058 7.44 13.15 12.93
2/28/2023 1:45:00 PM 3.64 38.552 0.058 7.44 14.29 12.92
2/28/2023 2:00:00 PM 3.74 38.732 0.057 7.46 15.81 12.88
2/28/2023 2:15:00 PM 3.73 38.714 0.057 7.45 16.99 12.87
2/28/2023 2:30:00 PM 3.76 38.768 0.057 7.46 13.08 12.88
2/28/2023 2:45:00 PM 3.76 38.768 0.056 7.44 12.23 12.87
2/28/2023 3:00:00 PM 3.75 38.75 0.056 7.44 10.84 12.86
2/28/2023 3:15:00 PM 3.77 38.786 0.056 7.44 10.19 12.85
2/28/2023 3:30:00 PM 3.76 38.768 0.056 7.42 9.51 12.84
2/28/2023 3:45:00 PM 3.75 38.75 0.055 7.42 9.9 12.86
2/28/2023 4:00:00 PM 3.74 38.732 0.055 7.41 9.23 12.85
2/28/2023 4:15:00 PM 3.74 38.732 0.055 7.42 9.2 12.86
2/28/2023 4:30:00 PM 3.73 38.714 0.055 7.4 9.36 12.87
2/28/2023 4:45:00 PM 3.71 38.678 0.055 7.4 9.87 12.87
2/28/2023 5:00:00 PM 3.68 38.624 0.055 7.38 9.46 12.85
2/28/2023 5:15:00 PM 3.66 38.588 0.055 7.38 9.64 12.84
2/28/2023 5:30:00 PM 3.63 38.534 0.055 7.36 9.59 12.82
2/28/2023 5:45:00 PM 3.6 38.48 0.055 7.36 10.3 12.83
2/28/2023 6:00:00 PM 3.56 38.408 0.056 7.34 9.85 12.82
2/28/2023 6:15:00 PM 3.53 38.354 0.056 7.35 9.99 12.83
2/28/2023 6:30:00 PM 3.5 38.3 0.056 7.34 9.59 12.83
2/28/2023 6:45:00 PM 3.48 38.264 0.056 7.33 9.85 12.84
2/28/2023 7:00:00 PM 3.44 38.192 0.056 7.33 9.16 12.86
2/28/2023 7:15:00 PM 3.38 38.084 0.056 7.32 9.24 12.88
2/28/2023 7:30:00 PM 3.33 37.994 0.056 7.32 8.84 12.91
2/28/2023 7:45:00 PM 3.28 37.904 0.056 7.31 8.51 12.94
2/28/2023 8:00:00 PM 3.23 37.814 0.056 7.32 7.89 12.95
2/28/2023 8:15:00 PM 3.18 37.724 0.056 7.32 7.79 12.98
2/28/2023 8:30:00 PM 3.11 37.598 0.056 7.3 7.37 13
2/28/2023 8:45:00 PM 3.05 37.49 0.055 7.31 7.25 13.02
2/28/2023 9:00:00 PM 2.99 37.382 0.056 7.3 7.16 13.05
2/28/2023 9:15:00 PM 2.93 37.274 0.055 7.31 7.07 13.06
2/28/2023 9:30:00 PM 2.88 37.184 0.056 7.29 7.08 13.08
2/28/2023 9:45:00 PM 2.83 37.094 0.055 7.3 6.84 13.1
2/28/2023 10:00:00 PM 2.79 37.022 0.055 7.29 6.65 13.13
2/28/2023 10:15:00 PM 2.75 36.95 0.055 7.29 6.61 13.15
2/28/2023 10:30:00 PM 2.7 36.86 0.055 7.28 6.4 13.16
2/28/2023 10:45:00 PM 2.66 36.788 0.055 7.29 6.37 13.19
2/28/2023 11:00:00 PM 2.63 36.734 0.055 7.28 6.27 13.2
2/28/2023 11:15:00 PM 2.61 36.698 0.055 7.29 6.27 13.21
2/28/2023 11:30:00 PM 2.58 36.644 0.055 7.29 6.09 13.22
2/28/2023 11:45:00 PM 2.56 36.608 0.055 7.29 6.1 13.24
3/1/2023 12:00:00 AM 2.53 36.554 0.054 7.27 5.86 13.25
3/1/2023 12:15:00 AM 2.51 36.518 0.054 7.28 6.27 13.26
3/1/2023 12:30:00 AM 2.48 36.464 0.054 7.28 5.78 13.28
3/1/2023 12:45:00 AM 2.43 36.374 0.054 7.27 5.76 13.29
3/1/2023 1:00:00 AM 2.39 36.302 0.055 7.27 6.06 13.3
3/1/2023 1:15:00 AM 2.38 36.284 0.054 7.26 5.61 13.31
3/1/2023 1:30:00 AM 2.37 36.266 0.055 7.27 5.6 13.31
3/1/2023 1:45:00 AM 2.35 36.23 0.054 7.26 6.02 13.33
3/1/2023 2:00:00 AM 2.32 36.176 0.054 7.27 6.1 13.33
3/1/2023 2:15:00 AM 2.29 36.122 0.054 7.26 5.73 13.34
3/1/2023 2:30:00 AM 2.28 36.104 0.054 7.27 5.49 13.34
3/1/2023 2:45:00 AM 2.26 36.068 0.054 7.25 5.42 13.36
3/1/2023 3:00:00 AM 2.24 36.032 0.054 7.26 5.41 13.36
3/1/2023 3:15:00 AM 2.22 35.996 0.054 7.25 5.48 13.37
3/1/2023 3:30:00 AM 2.2 35.96 0.054 7.26 5.5 13.38
3/1/2023 3:45:00 AM 2.18 35.924 0.054 7.25 5.53 13.38
3/1/2023 4:00:00 AM 2.17 35.906 0.054 7.26 5.47 13.39
3/1/2023 4:15:00 AM 2.16 35.888 0.054 7.26 5.69 13.39
3/1/2023 4:30:00 AM 2.13 35.834 0.054 7.24 5.35 13.4
3/1/2023 4:45:00 AM 2.08 35.744 0.054 7.26 5.42 13.42
3/1/2023 5:00:00 AM 2.05 35.69 0.054 7.25 5.03 13.44
3/1/2023 5:15:00 AM 2.01 35.618 0.054 7.24 5.19 13.46
3/1/2023 5:30:00 AM 1.98 35.564 0.054 7.25 5.4 13.47
3/1/2023 5:45:00 AM 1.94 35.492 0.054 7.25 5.18 13.47
3/1/2023 6:00:00 AM 1.91 35.438 0.054 7.25 5.17 13.49
3/1/2023 6:15:00 AM 1.89 35.402 0.054 7.24 5.18 13.5
3/1/2023 6:30:00 AM 1.88 35.384 0.054 7.25 5.4 13.51
3/1/2023 6:45:00 AM 1.87 35.366 0.054 7.25 5.26 13.52
3/1/2023 7:00:00 AM 1.86 35.348 0.054 7.25 5.53 13.54
3/1/2023 7:15:00 AM 1.83 35.294 0.054 7.26 5.42 13.57
3/1/2023 7:30:00 AM 1.85 35.33 0.054 7.25 5.09 13.62
3/1/2023 7:45:00 AM 1.88 35.384 0.054 7.28 5.29 13.65
3/1/2023 8:00:00 AM 1.94 35.492 0.054 7.28 5.24 13.65
3/1/2023 8:15:00 AM 2.01 35.618 0.054 7.3 5.14 13.63
3/1/2023 8:30:00 AM 2.04 35.672 0.054 7.31 5.26 13.62
3/1/2023 8:45:00 AM 2.1 35.78 0.054 7.32 5.08 13.6
3/1/2023 9:00:00 AM 2.19 35.942 0.054 7.32 5.07 13.58
3/1/2023 9:15:00 AM 2.25 36.05 0.054 7.32 4.94 13.53
3/1/2023 9:30:00 AM 2.33 36.194 0.054 7.33 4.96 13.52
3/1/2023 9:45:00 AM 2.4 36.32 0.054 7.33 5.12 13.49
3/1/2023 10:00:00 AM 2.38 36.284 0.054 7.33 4.87 13.45
3/1/2023 10:15:00 AM 2.41 36.338 0.054 7.33 5.23 13.45
3/1/2023 10:30:00 AM 2.51 36.518 0.053 7.33 5.01 13.44
3/1/2023 10:45:00 AM 2.52 36.536 0.054 7.34 5.11 13.39
3/1/2023 11:00:00 AM 2.51 36.518 0.054 7.33 4.81 13.39
3/1/2023 11:15:00 AM 2.55 36.59 0.053 7.33 5.02 13.39
3/1/2023 11:30:00 AM 2.59 36.662 0.054 7.33 4.93 13.37
3/1/2023 11:45:00 AM 2.61 36.698 0.053 7.32 4.94 13.35
3/1/2023 12:00:00 PM 2.65 36.77 0.054 7.34 4.82 13.32
3/1/2023 12:15:00 PM 2.66 36.788 0.054 7.34 4.9 13.32
3/1/2023 12:30:00 PM 2.72 36.896 0.054 7.34 5.11 13.31
3/1/2023 12:45:00 PM 2.78 37.004 0.054 7.35 5.1 13.29
3/1/2023 1:00:00 PM 2.82 37.076 0.053 7.34 4.93 13.26
3/1/2023 1:15:00 PM 2.85 37.13 0.054 7.35 4.9 13.25
3/1/2023 1:30:00 PM 2.91 37.238 0.054 7.35 5.41 13.24
3/1/2023 1:45:00 PM 2.96 37.328 0.054 7.35 5.61 13.23
3/1/2023 2:00:00 PM 3.01 37.418 0.054 7.36 5.09 13.21
3/1/2023 2:15:00 PM 3.07 37.526 0.053 7.35 6.27 13.19
3/1/2023 2:30:00 PM 3.12 37.616 0.053 7.36 5.32 13.17
3/1/2023 2:45:00 PM 3.17 37.706 0.054 7.36 5.4 13.15
3/1/2023 3:00:00 PM 3.22 37.796 0.053 7.37 5.19 13.13
3/1/2023 3:15:00 PM 3.26 37.868 0.054 7.37 5.36 13.12
3/1/2023 3:30:00 PM 3.27 37.886 0.054 7.36 5.27 13.09
3/1/2023 3:45:00 PM 3.26 37.868 0.054 7.36 5.52 13.06
3/1/2023 4:00:00 PM 3.25 37.85 0.054 7.36 5.89 13.06
3/1/2023 4:15:00 PM 3.25 37.85 0.054 7.34 6.01 13.04
3/1/2023 4:30:00 PM 3.25 37.85 0.054 7.34 6.16 13.03
3/1/2023 4:45:00 PM 3.25 37.85 0.054 7.32 5.73 13.01
3/1/2023 5:00:00 PM 3.26 37.868 0.054 7.33 5.7 13
3/1/2023 5:15:00 PM 3.26 37.868 0.054 7.32 5.67 12.97
3/1/2023 5:30:00 PM 3.26 37.868 0.054 7.32 5.75 12.96
3/1/2023 5:45:00 PM 3.24 37.832 0.054 7.3 5.79 12.94
3/1/2023 6:00:00 PM 3.22 37.796 0.055 7.3 5.77 12.94
3/1/2023 6:15:00 PM 3.2 37.76 0.054 7.29 6.22 12.93
3/1/2023 6:30:00 PM 3.17 37.706 0.054 7.29 5.8 12.92
3/1/2023 6:45:00 PM 3.15 37.67 0.054 7.28 5.95 12.94
3/1/2023 7:00:00 PM 3.12 37.616 0.054 7.28 5.66 12.93
3/1/2023 7:15:00 PM 3.1 37.58 0.054 7.26 5.76 12.95
3/1/2023 7:30:00 PM 3.08 37.544 0.054 7.27 5.52 12.95
3/1/2023 7:45:00 PM 3.06 37.508 0.054 7.26 5.72 12.96
3/1/2023 8:00:00 PM 3.05 37.49 0.054 7.27 5.53 12.96
3/1/2023 8:15:00 PM 3.04 37.472 0.054 7.27 5.52 12.96
3/1/2023 8:30:00 PM 3.03 37.454 0.055 7.27 5.38 12.98
3/1/2023 8:45:00 PM 3.01 37.418 0.055 7.27 5.35 12.97
3/1/2023 9:00:00 PM 3 37.4 0.055 7.27 5.34 12.97
3/1/2023 9:15:00 PM 2.99 37.382 0.055 7.27 5.52 12.98
3/1/2023 9:30:00 PM 3 37.4 0.055 7.27 5.41 12.98
3/1/2023 9:45:00 PM 3.01 37.418 0.055 7.26 5.35 12.96
3/1/2023 10:00:00 PM 2.99 37.382 0.055 7.27 5.07 12.97
3/1/2023 10:15:00 PM 2.98 37.364 0.055 7.26 5.13 12.98
3/1/2023 10:30:00 PM 2.98 37.364 0.055 7.27 5.61 12.97
3/1/2023 10:45:00 PM 2.98 37.364 0.055 7.26 5.21 12.96
3/1/2023 11:00:00 PM 2.98 37.364 0.055 7.27 5.51 12.96
3/1/2023 11:15:00 PM 3.01 37.418 0.055 7.26 5.21 12.96
3/1/2023 11:30:00 PM 3.02 37.436 0.055 7.27 5.27 12.94
3/1/2023 11:45:00 PM 3.04 37.472 0.055 7.26 5.26 12.94
3/2/2023 12:00:00 AM 3.05 37.49 0.055 7.27 5.49 12.93
3/2/2023 12:15:00 AM 3.05 37.49 0.055 7.26 5.52 12.92
3/2/2023 12:30:00 AM 3.07 37.526 0.055 7.27 5.28 12.92
3/2/2023 12:45:00 AM 3.08 37.544 0.055 7.27 5.1 12.91
3/2/2023 1:00:00 AM 3.09 37.562 0.056 7.27 5.49 12.9
3/2/2023 1:15:00 AM 3.09 37.562 0.054 7.27 5.03 12.91
3/2/2023 1:30:00 AM 3.09 37.562 0.054 7.27 5.17 12.9
3/2/2023 1:45:00 AM 3.09 37.562 0.055 7.27 5.1 12.9
3/2/2023 2:00:00 AM 3.1 37.58 0.072 7.28 5.05 12.89
3/2/2023 2:15:00 AM 3.1 37.58 0.056 7.28 4.95 12.89
3/2/2023 2:30:00 AM 3.11 37.598 0.055 7.28 5.08 12.89
3/2/2023 2:45:00 AM 3.12 37.616 0.055 7.27 5.14 12.88
3/2/2023 3:00:00 AM 3.13 37.634 0.055 7.27 5.14 12.87
3/2/2023 3:15:00 AM 3.14 37.652 0.055 7.26 5.24 12.86
3/2/2023 3:30:00 AM 3.15 37.67 0.055 7.27 5.17 12.86
3/2/2023 3:45:00 AM 3.16 37.688 0.055 7.27 5.53 12.85
3/2/2023 4:00:00 AM 3.17 37.706 0.055 7.27 5.12 12.85
3/2/2023 4:15:00 AM 3.18 37.724 0.055 7.27 5.11 12.85
3/2/2023 4:30:00 AM 3.19 37.742 0.055 7.27 5.2 12.85
3/2/2023 4:45:00 AM 3.21 37.778 0.055 7.27 4.65 12.85
3/2/2023 5:00:00 AM 3.22 37.796 0.055 7.27 4.83 12.85
3/2/2023 5:15:00 AM 3.22 37.796 0.055 7.27 4.83 12.85
3/2/2023 5:30:00 AM 3.22 37.796 0.055 7.27 5.24 12.86
3/2/2023 5:45:00 AM 3.22 37.796 0.055 7.27 5.18 12.85
3/2/2023 6:00:00 AM 3.23 37.814 0.055 7.26 5.08 12.85
3/2/2023 6:15:00 AM 3.21 37.778 0.055 7.26 4.89 12.85
3/2/2023 6:30:00 AM 3.18 37.724 0.055 7.26 5.06 12.86
3/2/2023 6:45:00 AM 3.16 37.688 0.055 7.26 4.9 12.87
3/2/2023 7:00:00 AM 3.14 37.652 0.055 7.27 5.12 12.9
3/2/2023 7:15:00 AM 3.12 37.616 0.055 7.26 4.96 12.92
3/2/2023 7:30:00 AM 3.11 37.598 0.055 7.28 5.09 12.95
3/2/2023 7:45:00 AM 3.1 37.58 0.055 7.29 4.97 13
3/2/2023 8:00:00 AM 3.12 37.616 0.054 7.29 5.06 13.03
3/2/2023 8:15:00 AM 3.17 37.706 0.054 7.31 5.08 13.03
3/2/2023 8:30:00 AM 3.23 37.814 0.054 7.31 4.99 13.04
3/2/2023 8:45:00 AM 3.29 37.922 0.054 7.33 4.76 13.03
3/2/2023 9:00:00 AM 3.35 38.03 0.054 7.34 5.03 13.01
3/2/2023 9:15:00 AM 3.48 38.264 0.054 7.35 4.98 12.99
3/2/2023 9:30:00 AM 3.59 38.462 0.054 7.36 4.99 12.96
3/2/2023 9:45:00 AM 3.65 38.57 0.054 7.36 5.25 12.94
3/2/2023 10:00:00 AM 3.77 38.786 0.054 7.38 5.14 12.91
3/2/2023 10:15:00 AM 3.9 39.02 0.054 7.38 5.12 12.86
3/2/2023 10:30:00 AM 4.06 39.308 0.054 7.38 5.23 12.81
3/2/2023 10:45:00 AM 4.17 39.506 0.054 7.39 5.43 12.77
3/2/2023 11:00:00 AM 4.25 39.65 0.054 7.39 5.45 12.74
3/2/2023 11:15:00 AM 4.33 39.794 0.054 7.39 5.4 12.71
3/2/2023 11:30:00 AM 4.43 39.974 0.054 7.39 5.48 12.67
3/2/2023 11:45:00 AM 4.53 40.154 0.054 7.39 5.58 12.64
3/2/2023 12:00:00 PM 4.61 40.298 0.054 7.4 5.36 12.61
3/2/2023 12:15:00 PM 4.66 40.388 0.054 7.39 5.65 12.58
3/2/2023 12:30:00 PM 4.75 40.55 0.054 7.4 5.65 12.56
3/2/2023 12:45:00 PM 4.78 40.604 0.054 7.4 5.87 12.51
3/2/2023 1:00:00 PM 4.82 40.676 0.054 7.4 6.03 12.52
3/2/2023 1:15:00 PM 4.85 40.73 0.054 7.4 6.08 12.5
3/2/2023 1:30:00 PM 5 41 0.054 7.4 5.79 12.48
3/2/2023 1:45:00 PM 5.09 41.162 0.054 7.41 6.31 12.43
3/2/2023 2:00:00 PM 5.1 41.18 0.054 7.41 6.44 12.45
3/2/2023 2:15:00 PM 5.22 41.396 0.054 7.41 6.14 12.41
3/2/2023 2:30:00 PM 5.25 41.45 0.053 7.41 6.68 12.38
3/2/2023 2:45:00 PM 5.17 41.306 0.054 7.41 6.17 12.38
3/2/2023 3:00:00 PM 5.15 41.27 0.054 7.41 6.38 12.39
3/2/2023 3:15:00 PM 5.15 41.27 0.054 7.4 6.81 12.39
3/2/2023 3:30:00 PM 5.16 41.288 0.054 7.4 6.96 12.41
3/2/2023 3:45:00 PM 5.15 41.27 0.054 7.4 7.08 12.4
3/2/2023 4:00:00 PM 5.13 41.234 0.054 7.4 6.86 12.4
3/2/2023 4:15:00 PM 5.1 41.18 0.054 7.4 7.34 12.4
3/2/2023 4:30:00 PM 5.06 41.108 0.054 7.39 7.67 12.39
3/2/2023 4:45:00 PM 5 41 0.054 7.38 7.32 12.39
3/2/2023 5:00:00 PM 4.94 40.892 0.054 7.37 7.06 12.4
3/2/2023 5:15:00 PM 4.92 40.856 0.054 7.37 7.45 12.39
3/2/2023 5:30:00 PM 4.9 40.82 0.054 7.36 7.58 12.38
3/2/2023 5:45:00 PM 4.87 40.766 0.054 7.34 7.81 12.36
3/2/2023 6:00:00 PM 4.84 40.712 0.054 7.34 7.69 12.35
3/2/2023 6:15:00 PM 4.79 40.622 0.055 7.32 7.46 12.36
3/2/2023 6:30:00 PM 4.73 40.514 0.054 7.32 7.58 12.37
3/2/2023 6:45:00 PM 4.68 40.424 0.055 7.31 7.42 12.4
3/2/2023 7:00:00 PM 4.63 40.334 0.055 7.31 7.64 12.42
3/2/2023 7:15:00 PM 4.57 40.226 0.055 7.3 7.14 12.46
3/2/2023 7:30:00 PM 4.53 40.154 0.055 7.31 7.47 12.48
3/2/2023 7:45:00 PM 4.47 40.046 0.055 7.3 7.01 12.5
3/2/2023 8:00:00 PM 4.38 39.884 0.055 7.3 7.05 12.53
3/2/2023 8:15:00 PM 4.3 39.74 0.055 7.3 7.02 12.56
3/2/2023 8:30:00 PM 4.22 39.596 0.055 7.3 6.93 12.58
3/2/2023 8:45:00 PM 4.15 39.47 0.055 7.3 6.98 12.61
3/2/2023 9:00:00 PM 4.08 39.344 0.055 7.3 6.63 12.63
3/2/2023 9:15:00 PM 4.01 39.218 0.055 7.29 6.54 12.66
3/2/2023 9:30:00 PM 3.96 39.128 0.055 7.3 6.53 12.69
3/2/2023 9:45:00 PM 3.92 39.056 0.055 7.29 6.27 12.71
3/2/2023 10:00:00 PM 3.89 39.002 0.055 7.28 6.25 12.72
3/2/2023 10:15:00 PM 3.85 38.93 0.055 7.29 6.3 12.73
3/2/2023 10:30:00 PM 3.81 38.858 0.055 7.29 6.08 12.74
3/2/2023 10:45:00 PM 3.78 38.804 0.055 7.28 6.01 12.76
3/2/2023 11:00:00 PM 3.75 38.75 0.055 7.28 5.95 12.76
3/2/2023 11:15:00 PM 3.72 38.696 0.055 7.28 6.21 12.78
3/2/2023 11:30:00 PM 3.69 38.642 0.055 7.28 6.01 12.78
3/2/2023 11:45:00 PM 3.65 38.57 0.055 7.28 5.88 12.8
3/3/2023 12:00:00 AM 3.61 38.498 0.055 7.28 6.23 12.81
3/3/2023 12:15:00 AM 3.59 38.462 0.055 7.28 6.02 12.82
3/3/2023 12:30:00 AM 3.56 38.408 0.055 7.28 5.81 12.83
3/3/2023 12:45:00 AM 3.53 38.354 0.055 7.28 5.5 12.83
3/3/2023 1:00:00 AM 3.49 38.282 0.055 7.28 5.69 12.85
3/3/2023 1:15:00 AM 3.47 38.246 0.055 7.28 5.89 12.86
3/3/2023 1:30:00 AM 3.45 38.21 0.055 7.28 5.72 12.87
3/3/2023 1:45:00 AM 3.43 38.174 0.055 7.27 5.8 12.88
3/3/2023 2:00:00 AM 3.4 38.12 0.055 7.27 5.55 12.89
3/3/2023 2:15:00 AM 3.38 38.084 0.055 7.27 5.51 12.9
3/3/2023 2:30:00 AM 3.36 38.048 0.055 7.26 5.55 12.91
3/3/2023 2:45:00 AM 3.34 38.012 0.055 7.27 5.53 12.92
3/3/2023 3:00:00 AM 3.31 37.958 0.055 7.26 5.39 12.93
3/3/2023 3:15:00 AM 3.26 37.868 0.055 7.27 5.59 12.95
3/3/2023 3:30:00 AM 3.22 37.796 0.055 7.26 5.25 12.97
3/3/2023 3:45:00 AM 3.19 37.742 0.055 7.27 5.16 12.98
3/3/2023 4:00:00 AM 3.13 37.634 0.055 7.27 5.3 13
3/3/2023 4:15:00 AM 3.06 37.508 0.055 7.27 5.32 13.02
3/3/2023 4:30:00 AM 3.01 37.418 0.055 7.27 5.12 13.04
3/3/2023 4:45:00 AM 2.97 37.346 0.055 7.26 5.53 13.06
3/3/2023 5:00:00 AM 2.93 37.274 0.055 7.26 5.11 13.08
3/3/2023 5:15:00 AM 2.89 37.202 0.055 7.26 5.09 13.09
3/3/2023 5:30:00 AM 2.85 37.13 0.055 7.26 4.92 13.09
3/3/2023 5:45:00 AM 2.82 37.076 0.055 7.26 5.04 13.11
3/3/2023 6:00:00 AM 2.77 36.986 0.055 7.26 5.12 13.11
3/3/2023 6:15:00 AM 2.72 36.896 0.055 7.25 5.15 13.14
3/3/2023 6:30:00 AM 2.67 36.806 0.055 7.26 4.92 13.18
3/3/2023 6:45:00 AM 2.63 36.734 0.055 7.26 5.08 13.2
3/3/2023 7:00:00 AM 2.59 36.662 0.055 7.27 5 13.23
3/3/2023 7:15:00 AM 2.59 36.662 0.055 7.27 4.93 13.3
3/3/2023 7:30:00 AM 2.59 36.662 0.055 7.28 4.79 13.33
3/3/2023 7:45:00 AM 2.6 36.68 0.055 7.28 4.97 13.36
3/3/2023 8:00:00 AM 2.62 36.716 0.055 7.29 5.21 13.38
3/3/2023 8:15:00 AM 2.63 36.734 0.055 7.31 4.91 13.39
3/3/2023 8:30:00 AM 2.67 36.806 0.055 7.31 4.97 13.39
3/3/2023 8:45:00 AM 2.7 36.86 0.055 7.33 5.3 13.38
3/3/2023 9:00:00 AM 2.76 36.968 0.055 7.33 5.01 13.38
3/3/2023 9:15:00 AM 2.82 37.076 0.054 7.35 4.88 13.36
3/3/2023 9:30:00 AM 2.87 37.166 0.054 7.35 4.94 13.35
3/3/2023 9:45:00 AM 2.94 37.292 0.054 7.35 4.78 13.34
3/3/2023 10:00:00 AM 3.02 37.436 0.054 7.36 4.84 13.31
3/3/2023 10:15:00 AM 3.12 37.616 0.054 7.36 4.91 13.28
3/3/2023 10:30:00 AM 3.21 37.778 0.054 7.37 4.92 13.25
3/3/2023 10:45:00 AM 3.3 37.94 0.054 7.37 4.79 13.22
3/3/2023 11:00:00 AM 3.37 38.066 0.054 7.38 4.79 13.18
3/3/2023 11:15:00 AM 3.41 38.138 0.054 7.38 4.82 13.15
3/3/2023 11:30:00 AM 3.46 38.228 0.054 7.38 4.75 13.13
3/3/2023 11:45:00 AM 3.53 38.354 0.054 7.38 4.89 13.1
3/3/2023 12:00:00 PM 3.62 38.516 0.054 7.39 4.72 13.09
3/3/2023 12:15:00 PM 3.68 38.624 0.054 7.39 4.82 13.05
3/3/2023 12:30:00 PM 3.71 38.678 0.054 7.39 4.72 13.04
3/3/2023 12:45:00 PM 3.75 38.75 0.054 7.39 4.79 13.02
3/3/2023 1:00:00 PM 3.8 38.84 0.054 7.39 4.75 12.98
3/3/2023 1:15:00 PM 3.79 38.822 0.054 7.39 4.85 12.97
3/3/2023 1:30:00 PM 3.78 38.804 0.054 7.39 4.8 12.95
3/3/2023 1:45:00 PM 3.78 38.804 0.054 7.39 4.89 12.94
3/3/2023 2:00:00 PM 3.79 38.822 0.054 7.38 4.98 12.94
3/3/2023 2:15:00 PM 3.8 38.84 0.054 7.38 5.26 12.93
3/3/2023 2:30:00 PM 3.82 38.876 0.054 7.39 5.35 12.92
3/3/2023 2:45:00 PM 3.85 38.93 0.054 7.39 5.32 12.91
3/3/2023 3:00:00 PM 3.84 38.912 0.054 7.38 5.33 12.9
3/3/2023 3:15:00 PM 3.82 38.876 0.054 7.38 5.16 12.86
3/3/2023 3:30:00 PM 3.77 38.786 0.054 7.37 5.23 12.82
3/3/2023 3:45:00 PM 3.7 38.66 0.055 7.36 5.2 12.81
3/3/2023 4:00:00 PM 3.57 38.426 0.055 7.34 5.4 12.82
3/3/2023 4:15:00 PM 3.44 38.192 0.055 7.34 5.43 12.85
3/3/2023 4:30:00 PM 3.38 38.084 0.055 7.32 5.55 12.87
3/3/2023 4:45:00 PM 3.29 37.922 0.055 7.32 5.72 12.88
3/3/2023 5:00:00 PM 3.17 37.706 0.055 7.31 5.97 12.91
3/3/2023 5:15:00 PM 3 37.4 0.055 7.31 6.06 12.94
3/3/2023 5:30:00 PM 2.95 37.31 0.055 7.3 5.87 12.96
3/3/2023 5:45:00 PM 2.91 37.238 0.055 7.3 5.81 12.95
3/3/2023 6:00:00 PM 2.7 36.86 0.055 7.29 5.97 12.99
3/3/2023 6:15:00 PM 2.61 36.698 0.055 7.29 5.95 13.05
3/3/2023 6:30:00 PM 2.36 36.248 0.055 7.28 5.82 13.07
3/3/2023 6:45:00 PM 2.05 35.69 0.054 7.24 6 13.19
3/3/2023 7:00:00 PM 1.88 35.384 0.054 7.23 6.21 13.25
3/3/2023 7:15:00 PM 1.62 34.916 0.054 7.22 6.22 13.34
3/3/2023 7:30:00 PM 1.36 34.448 0.054 7.21 6.45 13.44
3/3/2023 7:45:00 PM 1.01 33.818 0.053 7.18 6.5 13.56
3/3/2023 8:00:00 PM 0.88 33.584 0.053 7.18 6.47 13.67
3/3/2023 8:15:00 PM 0.55 32.99 0.053 7.16 6.43 13.76
3/3/2023 8:30:00 PM 0.64 33.152 0.053 7.17 6.47 13.82
3/3/2023 8:45:00 PM 0.67 33.206 0.053 7.19 6.14 13.79
3/3/2023 9:00:00 PM 0.35 32.63 0.053 7.15 6.56 13.84
3/3/2023 9:15:00 PM 0.37 32.666 0.053 7.17 6.38 13.9
3/3/2023 9:30:00 PM 0.52 32.936 0.053 7.18 6.27 13.87
3/3/2023 9:45:00 PM 0.6 33.08 0.053 7.2 6.19 13.85
3/3/2023 10:00:00 PM 0.67 33.206 0.053 7.2 5.79 13.81
3/3/2023 10:15:00 PM 0.78 33.404 0.053 7.21 5.46 13.75
3/3/2023 10:30:00 PM 0.87 33.566 0.053 7.21 5.41 13.7
3/3/2023 10:45:00 PM 0.95 33.71 0.053 7.22 5.44 13.66
3/3/2023 11:00:00 PM 1.03 33.854 0.053 7.23 5.44 13.62
3/3/2023 11:15:00 PM 1.1 33.98 0.053 7.24 5.21 13.59
3/3/2023 11:30:00 PM 1.16 34.088 0.053 7.23 5.23 13.56
3/3/2023 11:45:00 PM 1.21 34.178 0.054 7.24 5.2 13.52
3/4/2023 12:00:00 AM 1.28 34.304 0.054 7.25 5.08 13.5
3/4/2023 12:15:00 AM 1.33 34.394 0.054 7.25 5.13 13.47
3/4/2023 12:30:00 AM 1.38 34.484 0.054 7.25 5.03 13.44
3/4/2023 12:45:00 AM 1.42 34.556 0.054 7.26 4.96 13.41
3/4/2023 1:00:00 AM 1.45 34.61 0.054 7.26 5.08 13.38
3/4/2023 1:15:00 AM 1.46 34.628 0.054 7.26 4.86 13.37
3/4/2023 1:30:00 AM 1.46 34.628 0.054 7.26 5.71 13.37
3/4/2023 1:45:00 AM 1.43 34.574 0.054 7.26 5.76 13.38
3/4/2023 2:00:00 AM 1.43 34.574 0.054 7.26 5.68 13.38
3/4/2023 2:15:00 AM 1.48 34.664 0.054 7.26 5.74 13.35
3/4/2023 2:30:00 AM 1.54 34.772 0.054 7.26 5.93 13.33
3/4/2023 2:45:00 AM 1.59 34.862 0.055 7.26 5.96 13.3
3/4/2023 3:00:00 AM 1.64 34.952 0.055 7.26 5.91 13.29
3/4/2023 3:15:00 AM 1.69 35.042 0.055 7.26 5.92 13.28
3/4/2023 3:30:00 AM 1.73 35.114 0.055 7.26 5.56 13.26
3/4/2023 3:45:00 AM 1.77 35.186 0.055 7.26 5.54 13.25
3/4/2023 4:00:00 AM 1.82 35.276 0.055 7.26 5.21 13.23
3/4/2023 4:15:00 AM 1.86 35.348 0.055 7.26 5.56 13.22
3/4/2023 4:30:00 AM 1.9 35.42 0.055 7.26 5.51 13.2
3/4/2023 4:45:00 AM 1.94 35.492 0.055 7.26 5.23 13.18
3/4/2023 5:00:00 AM 1.98 35.564 0.055 7.26 5.37 13.17
3/4/2023 5:15:00 AM 2.02 35.636 0.055 7.27 5.47 13.15
3/4/2023 5:30:00 AM 2.05 35.69 0.055 7.27 5.4 13.14
3/4/2023 5:45:00 AM 2.09 35.762 0.056 7.26 6.47 13.12
3/4/2023 6:00:00 AM 2.12 35.816 0.056 7.28 7.26 13.12
3/4/2023 6:15:00 AM 2.14 35.852 0.056 7.28 6.14 13.1
3/4/2023 6:30:00 AM 2.17 35.906 0.056 7.28 6.05 13.1
3/4/2023 6:45:00 AM 2.21 35.978 0.056 7.28 5.74 13.09
3/4/2023 7:00:00 AM 2.24 36.032 0.056 7.28 5.76 13.1
3/4/2023 7:15:00 AM 2.27 36.086 0.056 7.29 5.86 13.11
3/4/2023 7:30:00 AM 2.31 36.158 0.056 7.3 5.9 13.13
3/4/2023 7:45:00 AM 2.35 36.23 0.056 7.3 5.79 13.16
3/4/2023 8:00:00 AM 2.41 36.338 0.056 7.32 6.2 13.18
3/4/2023 8:15:00 AM 2.44 36.392 0.058 7.35 10.28 13.16
3/4/2023 8:30:00 AM 2.47 36.446 0.058 7.39 10.05 13.17
3/4/2023 8:45:00 AM 2.53 36.554 0.058 7.4 10.54 13.19
3/4/2023 9:00:00 AM 2.6 36.68 0.058 7.41 9.55 13.19
3/4/2023 9:15:00 AM 2.67 36.806 0.058 7.42 9.1 13.2
3/4/2023 9:30:00 AM 2.75 36.95 0.058 7.43 8.66 13.17
3/4/2023 9:45:00 AM 2.81 37.058 0.058 7.43 8.81 13.14
3/4/2023 10:00:00 AM 2.84 37.112 0.058 7.43 9.5 13.13
3/4/2023 10:15:00 AM 2.86 37.148 0.058 7.44 8.73 13.13
3/4/2023 10:30:00 AM 2.93 37.274 0.059 7.44 10.17 13.13
3/4/2023 10:45:00 AM 2.96 37.328 0.06 7.46 10.54 13.12
3/4/2023 11:00:00 AM 3.04 37.472 0.06 7.48 10.14 13.11
3/4/2023 11:15:00 AM 3.22 37.796 0.06 7.49 10.5 13.07
3/4/2023 11:30:00 AM 3.35 38.03 0.06 7.49 10.23 13.03
3/4/2023 11:45:00 AM 3.38 38.084 0.06 7.5 11.02 13.02
3/4/2023 12:00:00 PM 3.49 38.282 0.061 7.51 12.66 12.98
3/4/2023 12:15:00 PM 3.62 38.516 0.062 7.53 14.41 12.94
3/4/2023 12:30:00 PM 3.67 38.606 0.062 7.54 15.52 12.94
3/4/2023 12:45:00 PM 3.67 38.606 0.062 7.53 15.98 12.93
3/4/2023 1:00:00 PM 3.69 38.642 0.062 7.53 15.17 12.93
3/4/2023 1:15:00 PM 3.71 38.678 0.062 7.53 15.64 12.92
3/4/2023 1:30:00 PM 3.74 38.732 0.061 7.53 13.41 12.91
3/4/2023 1:45:00 PM 3.74 38.732 0.061 7.51 12.72 12.91
3/4/2023 2:00:00 PM 3.76 38.768 0.06 7.5 12.03 12.91
3/4/2023 2:15:00 PM 3.74 38.732 0.06 7.5 10.37 12.91
3/4/2023 2:30:00 PM 3.69 38.642 0.06 7.47 10.82 12.91
3/4/2023 2:45:00 PM 3.68 38.624 0.06 7.47 10.65 12.93
3/4/2023 3:00:00 PM 3.67 38.606 0.06 7.46 9.92 12.93
3/4/2023 3:15:00 PM 3.64 38.552 0.06 7.46 9.39 12.94
3/4/2023 3:30:00 PM 3.62 38.516 0.06 7.44 9.43 12.93
3/4/2023 3:45:00 PM 3.59 38.462 0.06 7.44 9.77 12.93
3/4/2023 4:00:00 PM 3.57 38.426 0.06 7.43 10.04 12.94
3/4/2023 4:15:00 PM 3.55 38.39 0.06 7.42 9.65 12.93
3/4/2023 4:30:00 PM 3.53 38.354 0.06 7.41 9.42 12.94
3/4/2023 4:45:00 PM 3.5 38.3 0.06 7.41 9.43 12.95
3/4/2023 5:00:00 PM 3.48 38.264 0.061 7.41 9.2 12.96
3/4/2023 5:15:00 PM 3.46 38.228 0.061 7.4 8.88 12.94
3/4/2023 5:30:00 PM 3.43 38.174 0.061 7.39 8.94 12.92
3/4/2023 5:45:00 PM 3.4 38.12 0.061 7.38 8.98 12.91
3/4/2023 6:00:00 PM 3.37 38.066 0.06 7.37 9.02 12.91
3/4/2023 6:15:00 PM 3.35 38.03 0.06 7.35 8.19 12.91
3/4/2023 6:30:00 PM 3.33 37.994 0.06 7.35 8.13 12.92
3/4/2023 6:45:00 PM 3.3 37.94 0.06 7.34 7.95 12.93
3/4/2023 7:00:00 PM 3.28 37.904 0.06 7.33 7.66 12.95
3/4/2023 7:15:00 PM 3.26 37.868 0.06 7.32 7.83 12.95
3/4/2023 7:30:00 PM 3.25 37.85 0.06 7.32 7.47 12.96
3/4/2023 7:45:00 PM 3.23 37.814 0.059 7.32 7.25 12.96
3/4/2023 8:00:00 PM 3.22 37.796 0.059 7.31 7.2 12.98
3/4/2023 8:15:00 PM 3.2 37.76 0.059 7.31 7.15 12.99
3/4/2023 8:30:00 PM 3.17 37.706 0.059 7.31 6.99 13
3/4/2023 8:45:00 PM 3.13 37.634 0.059 7.31 7.05 13.01
3/4/2023 9:00:00 PM 3.09 37.562 0.059 7.31 6.75 13.02
3/4/2023 9:15:00 PM 3.06 37.508 0.059 7.3 6.61 13.04
3/4/2023 9:30:00 PM 3.04 37.472 0.059 7.3 6.93 13.04
3/4/2023 9:45:00 PM 3 37.4 0.059 7.3 6.45 13.05
3/4/2023 10:00:00 PM 2.97 37.346 0.059 7.3 6.72 13.08
3/4/2023 10:15:00 PM 2.92 37.256 0.059 7.3 6.17 13.08
3/4/2023 10:30:00 PM 2.89 37.202 0.059 7.3 6.41 13.1
3/4/2023 10:45:00 PM 2.86 37.148 0.058 7.3 6.17 13.11
3/4/2023 11:00:00 PM 2.83 37.094 0.058 7.29 6.08 13.12
3/4/2023 11:15:00 PM 2.81 37.058 0.058 7.29 5.93 13.13
3/4/2023 11:30:00 PM 2.78 37.004 0.058 7.29 5.97 13.14
3/4/2023 11:45:00 PM 2.74 36.932 0.058 7.29 5.74 13.16
3/5/2023 12:00:00 AM 2.71 36.878 0.058 7.28 5.8 13.17
3/5/2023 12:15:00 AM 2.7 36.86 0.058 7.29 5.88 13.18
3/5/2023 12:30:00 AM 2.68 36.824 0.058 7.28 5.71 13.18
3/5/2023 12:45:00 AM 2.66 36.788 0.058 7.28 5.75 13.21
3/5/2023 1:00:00 AM 2.65 36.77 0.058 7.28 5.84 13.21
3/5/2023 1:15:00 AM 2.63 36.734 0.058 7.28 5.91 13.21
3/5/2023 1:30:00 AM 2.62 36.716 0.058 7.27 5.73 13.23
3/5/2023 1:45:00 AM 2.61 36.698 0.058 7.27 5.84 13.23
3/5/2023 2:00:00 AM 2.6 36.68 0.058 7.27 5.66 13.23
3/5/2023 2:15:00 AM 2.59 36.662 0.058 7.27 5.34 13.23
3/5/2023 2:30:00 AM 2.59 36.662 0.057 7.27 5.58 13.23
3/5/2023 2:45:00 AM 2.58 36.644 0.057 7.27 5.54 13.24
3/5/2023 3:00:00 AM 2.58 36.644 0.057 7.26 5.54 13.24
3/5/2023 3:15:00 AM 2.57 36.626 0.057 7.26 5.22 13.23
3/5/2023 3:30:00 AM 2.58 36.644 0.057 7.26 5.42 13.25
3/5/2023 3:45:00 AM 2.59 36.662 0.057 7.26 5.61 13.25
3/5/2023 4:00:00 AM 2.59 36.662 0.057 7.26 5.57 13.24
3/5/2023 4:15:00 AM 2.59 36.662 0.057 7.26 5.21 13.23
3/5/2023 4:30:00 AM 2.59 36.662 0.057 7.26 5.36 13.24
3/5/2023 4:45:00 AM 2.6 36.68 0.057 7.26 5.26 13.24
3/5/2023 5:00:00 AM 2.6 36.68 0.057 7.26 5.26 13.23
3/5/2023 5:15:00 AM 2.59 36.662 0.057 7.26 5.19 13.24
3/5/2023 5:30:00 AM 2.59 36.662 0.057 7.26 4.98 13.25
3/5/2023 5:45:00 AM 2.6 36.68 0.057 7.26 5.24 13.24
3/5/2023 6:00:00 AM 2.61 36.698 0.057 7.26 5.21 13.25
3/5/2023 6:15:00 AM 2.61 36.698 0.057 7.26 5.04 13.24
3/5/2023 6:30:00 AM 2.59 36.662 0.057 7.26 5.51 13.27
3/5/2023 6:45:00 AM 2.6 36.68 0.057 7.26 5.15 13.26
3/5/2023 7:00:00 AM 2.58 36.644 0.057 7.27 5.09 13.28
3/5/2023 7:15:00 AM 2.58 36.644 0.057 7.27 5.11 13.32
3/5/2023 7:30:00 AM 2.58 36.644 0.057 7.28 5.17 13.36
3/5/2023 7:45:00 AM 2.61 36.698 0.057 7.29 5.12 13.38
3/5/2023 8:00:00 AM 2.67 36.806 0.056 7.3 4.98 13.39
3/5/2023 8:15:00 AM 2.71 36.878 0.056 7.32 4.98 13.37
3/5/2023 8:30:00 AM 2.71 36.878 0.056 7.31 4.87 13.37
3/5/2023 8:45:00 AM 2.78 37.004 0.056 7.32 5.19 13.38
3/5/2023 9:00:00 AM 2.9 37.22 0.056 7.33 4.95 13.35
3/5/2023 9:15:00 AM 2.95 37.31 0.056 7.34 5.25 13.33
3/5/2023 9:30:00 AM 3.03 37.454 0.056 7.35 5.28 13.33
3/5/2023 9:45:00 AM 3.07 37.526 0.056 7.35 5.32 13.28
3/5/2023 10:00:00 AM 3.1 37.58 0.056 7.36 5.28 13.27
3/5/2023 10:15:00 AM 3.14 37.652 0.056 7.36 5.23 13.26
3/5/2023 10:30:00 AM 3.16 37.688 0.056 7.35 5.28 13.23
3/5/2023 10:45:00 AM 3.19 37.742 0.056 7.35 5.26 13.23
3/5/2023 11:00:00 AM 3.28 37.904 0.056 7.36 5.01 13.24
3/5/2023 11:15:00 AM 3.38 38.084 0.056 7.37 4.99 13.22
3/5/2023 11:30:00 AM 3.45 38.21 0.056 7.38 4.89 13.19
3/5/2023 11:45:00 AM 3.46 38.228 0.056 7.38 5.15 13.15
3/5/2023 12:00:00 PM 3.52 38.336 0.056 7.37 5.05 13.15
3/5/2023 12:15:00 PM 3.64 38.552 0.056 7.38 5.12 13.14
3/5/2023 12:30:00 PM 3.62 38.516 0.056 7.38 5.21 13.07
3/5/2023 12:45:00 PM 3.68 38.624 0.056 7.38 5.29 13.11
3/5/2023 1:00:00 PM 3.73 38.714 0.056 7.38 5.79 13.06
3/5/2023 1:15:00 PM 3.82 38.876 0.056 7.39 5.5 13.07
3/5/2023 1:30:00 PM 3.81 38.858 0.056 7.38 5.22 13.03
3/5/2023 1:45:00 PM 3.77 38.786 0.056 7.37 5.64 12.99
3/5/2023 2:00:00 PM 3.79 38.822 0.056 7.37 5.51 13.03
3/5/2023 2:15:00 PM 3.82 38.876 0.056 7.37 5.88 13.03
3/5/2023 2:30:00 PM 3.81 38.858 0.056 7.38 5.67 13
3/5/2023 2:45:00 PM 3.83 38.894 0.056 7.37 5.76 13.01
3/5/2023 3:00:00 PM 3.86 38.948 0.056 7.38 5.85 13.02
3/5/2023 3:15:00 PM 3.89 39.002 0.056 7.37 5.78 13.02
3/5/2023 3:30:00 PM 3.92 39.056 0.056 7.38 6.04 13.01
3/5/2023 3:45:00 PM 3.91 39.038 0.056 7.38 6.41 12.98
3/5/2023 4:00:00 PM 3.9 39.02 0.056 7.37 5.76 12.97
3/5/2023 4:15:00 PM 3.91 39.038 0.056 7.37 6.22 12.97
3/5/2023 4:30:00 PM 3.91 39.038 0.056 7.36 6.02 12.95
3/5/2023 4:45:00 PM 3.91 39.038 0.056 7.36 6.48 12.97
3/5/2023 5:00:00 PM 3.89 39.002 0.056 7.36 6.61 12.93
3/5/2023 5:15:00 PM 3.86 38.948 0.056 7.35 6.52 12.92
3/5/2023 5:30:00 PM 3.84 38.912 0.056 7.34 6.53 12.91
3/5/2023 5:45:00 PM 3.82 38.876 0.056 7.32 6.29 12.89
3/5/2023 6:00:00 PM 3.79 38.822 0.056 7.32 6.53 12.89
3/5/2023 6:15:00 PM 3.76 38.768 0.056 7.29 6.67 12.89
3/5/2023 6:30:00 PM 3.73 38.714 0.056 7.3 6.82 12.9
3/5/2023 6:45:00 PM 3.71 38.678 0.056 7.29 6.64 12.91
3/5/2023 7:00:00 PM 3.69 38.642 0.056 7.3 6.41 12.91
3/5/2023 7:15:00 PM 3.67 38.606 0.056 7.29 6.94 12.92
3/5/2023 7:30:00 PM 3.64 38.552 0.056 7.28 6.7 12.93
3/5/2023 7:45:00 PM 3.63 38.534 0.056 7.28 8.68 12.93
3/5/2023 8:00:00 PM 3.61 38.498 0.056 7.28 7.57 12.95
3/5/2023 8:15:00 PM 3.59 38.462 0.056 7.28 7.04 12.95
3/5/2023 8:30:00 PM 3.57 38.426 0.057 7.28 6.58 12.95
3/5/2023 8:45:00 PM 3.55 38.39 0.057 7.28 6.49 12.97
3/5/2023 9:00:00 PM 3.53 38.354 0.057 7.28 6.45 12.97
3/5/2023 9:15:00 PM 3.49 38.282 0.056 7.26 6.21 12.98
3/5/2023 9:30:00 PM 3.45 38.21 0.057 7.27 6.11 12.99
3/5/2023 9:45:00 PM 3.41 38.138 0.056 7.26 6.21 13.01
3/5/2023 10:00:00 PM 3.38 38.084 0.057 7.27 6.39 13.02
3/5/2023 10:15:00 PM 3.33 37.994 0.057 7.27 6.18 13.04
3/5/2023 10:30:00 PM 3.28 37.904 0.057 7.27 6.28 13.06
3/5/2023 10:45:00 PM 3.22 37.796 0.057 7.27 5.77 13.08
3/5/2023 11:00:00 PM 3.17 37.706 0.056 7.27 5.8 13.1
3/5/2023 11:15:00 PM 3.12 37.616 0.056 7.26 6.68 13.12
3/5/2023 11:30:00 PM 3.06 37.508 0.056 7.27 5.82 13.14
3/5/2023 11:45:00 PM 3.02 37.436 0.057 7.26 5.84 13.15
3/6/2023 12:00:00 AM 2.97 37.346 0.056 7.27 5.77 13.17
3/6/2023 12:15:00 AM 2.92 37.256 0.057 7.26 5.87 13.19
3/6/2023 12:30:00 AM 2.87 37.166 0.056 7.26 6.09 13.2
3/6/2023 12:45:00 AM 2.83 37.094 0.056 7.25 5.66 13.21
3/6/2023 1:00:00 AM 2.79 37.022 0.056 7.25 5.76 13.22
3/6/2023 1:15:00 AM 2.74 36.932 0.056 7.25 5.94 13.25
3/6/2023 1:30:00 AM 2.7 36.86 0.056 7.24 5.53 13.27
3/6/2023 1:45:00 AM 2.67 36.806 0.056 7.25 5.72 13.29
3/6/2023 2:00:00 AM 2.63 36.734 0.056 7.25 5.71 13.3
3/6/2023 2:15:00 AM 2.59 36.662 0.056 7.25 5.4 13.32
3/6/2023 2:30:00 AM 2.56 36.608 0.056 7.25 5.68 13.33
3/6/2023 2:45:00 AM 2.51 36.518 0.056 7.25 5.58 13.33
3/6/2023 3:00:00 AM 2.48 36.464 0.056 7.24 5.27 13.35
3/6/2023 3:15:00 AM 2.45 36.41 0.056 7.24 5.54 13.36
3/6/2023 3:30:00 AM 2.42 36.356 0.056 7.25 5.24 13.38
3/6/2023 3:45:00 AM 2.39 36.302 0.056 7.24 5.3 13.39
3/6/2023 4:00:00 AM 2.35 36.23 0.056 7.24 5.45 13.39
3/6/2023 4:15:00 AM 2.32 36.176 0.056 7.24 5.42 13.41
3/6/2023 4:30:00 AM 2.28 36.104 0.056 7.24 5.18 13.43
3/6/2023 4:45:00 AM 2.25 36.05 0.056 7.23 5.23 13.43
3/6/2023 5:00:00 AM 2.22 35.996 0.056 7.24 5.5 13.44
3/6/2023 5:15:00 AM 2.19 35.942 0.056 7.24 5.21 13.46
3/6/2023 5:30:00 AM 2.15 35.87 0.056 7.24 5.23 13.48
3/6/2023 5:45:00 AM 2.12 35.816 0.056 7.24 5.1 13.49
3/6/2023 6:00:00 AM 2.09 35.762 0.056 7.24 5.22 13.5
3/6/2023 6:15:00 AM 2.06 35.708 0.056 7.23 5.17 13.51
3/6/2023 6:30:00 AM 2.04 35.672 0.056 7.24 5.36 13.53
3/6/2023 6:45:00 AM 2.02 35.636 0.056 7.22 5.4 13.55
3/6/2023 7:00:00 AM 2.03 35.654 0.056 7.24 5.1 13.6
3/6/2023 7:15:00 AM 2.05 35.69 0.056 7.24 5.41 13.61
3/6/2023 7:30:00 AM 2.05 35.69 0.056 7.25 4.97 13.6
3/6/2023 7:45:00 AM 2.05 35.69 0.056 7.25 4.98 13.61
3/6/2023 8:00:00 AM 2.09 35.762 0.056 7.26 4.95 13.65
3/6/2023 8:15:00 AM 2.11 35.798 0.056 7.27 5.11 13.64
3/6/2023 8:30:00 AM 2.15 35.87 0.056 7.28 5.08 13.65
3/6/2023 8:45:00 AM 2.23 36.014 0.056 7.29 4.97 13.66
3/6/2023 9:00:00 AM 2.29 36.122 0.056 7.3 5.1 13.64
3/6/2023 9:15:00 AM 2.31 36.158 0.056 7.31 5.1 13.63
3/6/2023 9:30:00 AM 2.39 36.302 0.055 7.31 4.9 13.62
3/6/2023 9:45:00 AM 2.43 36.374 0.055 7.32 4.95 13.58
3/6/2023 10:00:00 AM 2.49 36.482 0.055 7.32 5.07 13.56
3/6/2023 10:15:00 AM 2.63 36.734 0.055 7.33 4.98 13.55
3/6/2023 10:30:00 AM 2.77 36.986 0.055 7.34 5.08 13.49
3/6/2023 10:45:00 AM 2.86 37.148 0.055 7.34 5 13.44
3/6/2023 11:00:00 AM 2.86 37.148 0.055 7.35 4.84 13.42
3/6/2023 11:15:00 AM 2.93 37.274 0.055 7.35 4.85 13.4
3/6/2023 11:30:00 AM 3 37.4 0.055 7.36 4.82 13.37
3/6/2023 11:45:00 AM 3.05 37.49 0.055 7.36 5.18 13.36
3/6/2023 12:00:00 PM 3.12 37.616 0.055 7.37 5.05 13.33
3/6/2023 12:15:00 PM 3.12 37.616 0.055 7.35 4.78 13.29
3/6/2023 12:30:00 PM 3.13 37.634 0.055 7.36 5.15 13.3
3/6/2023 12:45:00 PM 3.15 37.67 0.055 7.35 5.21 13.28
3/6/2023 1:00:00 PM 3.18 37.724 0.055 7.36 4.98 13.27
3/6/2023 1:15:00 PM 3.23 37.814 0.055 7.36 5.04 13.25
3/6/2023 1:30:00 PM 3.37 38.066 0.055 7.37 4.99 13.23
3/6/2023 1:45:00 PM 3.49 38.282 0.055 7.37 4.99 13.18
3/6/2023 2:00:00 PM 3.45 38.21 0.055 7.38 5.14 13.15
3/6/2023 2:15:00 PM 3.42 38.156 0.055 7.37 5.22 13.15
3/6/2023 2:30:00 PM 3.46 38.228 0.055 7.37 5.06 13.14
3/6/2023 2:45:00 PM 3.5 38.3 0.055 7.36 5.01 13.12
3/6/2023 3:00:00 PM 3.53 38.354 0.055 7.37 5.18 13.13
3/6/2023 3:15:00 PM 3.58 38.444 0.055 7.37 5.2 13.12
3/6/2023 3:30:00 PM 3.61 38.498 0.055 7.38 5.31 13.09
3/6/2023 3:45:00 PM 3.61 38.498 0.055 7.37 5.17 13.07
3/6/2023 4:00:00 PM 3.61 38.498 0.055 7.37 5.36 13.07
3/6/2023 4:15:00 PM 3.6 38.48 0.055 7.37 5.3 13.05
3/6/2023 4:30:00 PM 3.57 38.426 0.055 7.36 5.31 13
3/6/2023 4:45:00 PM 3.57 38.426 0.055 7.35 5.33 12.97
3/6/2023 5:00:00 PM 3.56 38.408 0.055 7.33 5.41 12.95
3/6/2023 5:15:00 PM 3.55 38.39 0.056 7.32 5.93 12.93
3/6/2023 5:30:00 PM 3.55 38.39 0.056 7.32 6.13 12.95
3/6/2023 5:45:00 PM 3.54 38.372 0.056 7.32 5.82 12.93
3/6/2023 6:00:00 PM 3.51 38.318 0.056 7.3 5.99 12.9
3/6/2023 6:15:00 PM 3.5 38.3 0.056 7.29 6.16 12.88
3/6/2023 6:30:00 PM 3.49 38.282 0.056 7.28 5.8 12.88
3/6/2023 6:45:00 PM 3.48 38.264 0.056 7.28 5.95 12.88
3/6/2023 7:00:00 PM 3.47 38.246 0.056 7.28 6.02 12.89
3/6/2023 7:15:00 PM 3.46 38.228 0.056 7.28 5.85 12.89
3/6/2023 7:30:00 PM 3.45 38.21 0.056 7.27 6.13 12.89
3/6/2023 7:45:00 PM 3.42 38.156 0.056 7.27 5.85 12.9
3/6/2023 8:00:00 PM 3.38 38.084 0.056 7.28 5.73 12.91
3/6/2023 8:15:00 PM 3.36 38.048 0.056 7.27 5.91 12.92
3/6/2023 8:30:00 PM 3.32 37.976 0.056 7.28 5.48 12.94
3/6/2023 8:45:00 PM 3.15 37.67 0.056 7.27 5.58 12.97
3/6/2023 9:00:00 PM 2.98 37.364 0.056 7.27 5.69 13.02
3/6/2023 9:15:00 PM 2.91 37.238 0.056 7.27 5.5 13.05
3/6/2023 9:30:00 PM 2.87 37.166 0.056 7.27 5.74 13.07
3/6/2023 9:45:00 PM 2.79 37.022 0.056 7.26 5.9 13.1
3/6/2023 10:00:00 PM 2.7 36.86 0.056 7.26 5.54 13.13
3/6/2023 10:15:00 PM 2.5 36.5 0.056 7.27 5.57 13.18
3/6/2023 10:30:00 PM 2.42 36.356 0.056 7.25 5.48 13.23
3/6/2023 10:45:00 PM 2.34 36.212 0.056 7.26 6 13.25
3/6/2023 11:00:00 PM 2.26 36.068 0.055 7.25 5.7 13.29
3/6/2023 11:15:00 PM 2.17 35.906 0.055 7.25 5.82 13.32
3/6/2023 11:30:00 PM 2.12 35.816 0.055 7.24 5.84 13.35
3/6/2023 11:45:00 PM 2.11 35.798 0.055 7.25 5.66 13.36
3/7/2023 12:00:00 AM 2.1 35.78 0.055 7.24 5.8 13.38
3/7/2023 12:15:00 AM 2.06 35.708 0.055 7.25 5.46 13.39
3/7/2023 12:30:00 AM 2.01 35.618 0.055 7.25 5.37 13.41
3/7/2023 12:45:00 AM 2.01 35.618 0.055 7.24 5.52 13.41
3/7/2023 1:00:00 AM 2 35.6 0.055 7.24 5.47 13.41
3/7/2023 1:15:00 AM 1.95 35.51 0.055 7.24 5.54 13.43
3/7/2023 1:30:00 AM 1.9 35.42 0.055 7.23 5.3 13.45
3/7/2023 1:45:00 AM 1.88 35.384 0.055 7.24 5.46 13.45
3/7/2023 2:00:00 AM 1.91 35.438 0.055 7.24 5.3 13.44
3/7/2023 2:15:00 AM 1.92 35.456 0.055 7.24 5.43 13.44
3/7/2023 2:30:00 AM 1.93 35.474 0.055 7.23 5.19 13.44
3/7/2023 2:45:00 AM 1.93 35.474 0.055 7.24 4.98 13.44
3/7/2023 3:00:00 AM 1.94 35.492 0.055 7.23 5.01 13.44
3/7/2023 3:15:00 AM 1.95 35.51 0.055 7.24 5.12 13.43
3/7/2023 3:30:00 AM 1.95 35.51 0.055 7.24 4.92 13.42
3/7/2023 3:45:00 AM 1.96 35.528 0.055 7.23 4.81 13.43
3/7/2023 4:00:00 AM 1.96 35.528 0.055 7.24 4.89 13.42
3/7/2023 4:15:00 AM 1.97 35.546 0.055 7.23 4.85 13.43
3/7/2023 4:30:00 AM 1.96 35.528 0.055 7.25 5.07 13.42
3/7/2023 4:45:00 AM 1.94 35.492 0.055 7.24 4.95 13.43
3/7/2023 5:00:00 AM 1.93 35.474 0.055 7.24 4.78 13.45
3/7/2023 5:15:00 AM 1.94 35.492 0.055 7.24 5.1 13.44
3/7/2023 5:30:00 AM 1.93 35.474 0.056 7.24 4.83 13.45
3/7/2023 5:45:00 AM 1.91 35.438 0.055 7.24 4.75 13.46
3/7/2023 6:00:00 AM 1.9 35.42 0.056 7.24 4.93 13.46
3/7/2023 6:15:00 AM 1.88 35.384 0.055 7.24 4.97 13.46
3/7/2023 6:30:00 AM 1.84 35.312 0.056 7.24 4.84 13.48
3/7/2023 6:45:00 AM 1.81 35.258 0.056 7.24 4.92 13.5
3/7/2023 7:00:00 AM 1.82 35.276 0.056 7.25 5.06 13.52
3/7/2023 7:15:00 AM 1.82 35.276 0.056 7.26 6.62 13.56
3/7/2023 7:30:00 AM 1.8 35.24 0.056 7.28 5.53 13.6
3/7/2023 7:45:00 AM 1.72 35.096 0.056 7.28 5.34 13.65
3/7/2023 8:00:00 AM 1.7 35.06 0.056 7.3 5.36 13.71
3/7/2023 8:15:00 AM 1.69 35.042 0.056 7.3 5.3 13.71
3/7/2023 8:30:00 AM 1.57 34.826 0.055 7.31 5.5 13.79
3/7/2023 8:45:00 AM 1.56 34.808 0.055 7.31 5.08 13.79
3/7/2023 9:00:00 AM 1.58 34.844 0.055 7.31 5.05 13.8
3/7/2023 9:15:00 AM 1.64 34.952 0.055 7.32 5.18 13.8
3/7/2023 9:30:00 AM 1.7 35.06 0.055 7.32 5.14 13.79
3/7/2023 9:45:00 AM 1.72 35.096 0.055 7.32 5.16 13.78
3/7/2023 10:00:00 AM 1.68 35.024 0.055 7.33 5.02 13.8
3/7/2023 10:15:00 AM 1.77 35.186 0.055 7.32 5.05 13.77
3/7/2023 10:30:00 AM 1.87 35.366 0.055 7.33 4.97 13.74
3/7/2023 10:45:00 AM 2 35.6 0.055 7.32 5.1 13.69
3/7/2023 11:00:00 AM 2.07 35.726 0.055 7.34 5.44 13.63
3/7/2023 11:15:00 AM 2.11 35.798 0.055 7.34 5.38 13.62
3/7/2023 11:30:00 AM 2.26 36.068 0.056 7.34 5.87 13.58
3/7/2023 11:45:00 AM 2.37 36.266 0.056 7.35 6.33 13.53
3/7/2023 12:00:00 PM 2.44 36.392 0.056 7.35 6.89 13.5
3/7/2023 12:15:00 PM 2.53 36.554 0.056 7.37 6.25 13.47
3/7/2023 12:30:00 PM 2.63 36.734 0.056 7.36 6 13.43
3/7/2023 12:45:00 PM 2.74 36.932 0.058 7.37 8.84 13.38
3/7/2023 1:00:00 PM 2.8 37.04 0.059 7.39 8.41 13.33
3/7/2023 1:15:00 PM 2.86 37.148 0.058 7.4 7.56 13.31
3/7/2023 1:30:00 PM 2.9 37.22 0.057 7.39 7.17 13.29
3/7/2023 1:45:00 PM 2.94 37.292 0.057 7.4 6.44 13.27
3/7/2023 2:00:00 PM 2.94 37.292 0.057 7.38 5.74 13.27
3/7/2023 2:15:00 PM 2.95 37.31 0.057 7.38 5.95 13.26
3/7/2023 2:30:00 PM 2.94 37.292 0.057 7.38 5.67 13.26
3/7/2023 2:45:00 PM 2.91 37.238 0.057 7.37 5.64 13.26
3/7/2023 3:00:00 PM 2.89 37.202 0.057 7.37 5.67 13.26
3/7/2023 3:15:00 PM 2.84 37.112 0.057 7.36 5.71 13.28
3/7/2023 3:30:00 PM 2.79 37.022 0.057 7.36 5.55 13.29
3/7/2023 3:45:00 PM 2.75 36.95 0.057 7.35 5.54 13.3
3/7/2023 4:00:00 PM 2.7 36.86 0.057 7.35 5.49 13.32
3/7/2023 4:15:00 PM 2.64 36.752 0.056 7.34 5.67 13.34
3/7/2023 4:30:00 PM 2.64 36.752 0.056 7.34 5.73 13.37
3/7/2023 4:45:00 PM 2.65 36.77 0.056 7.33 5.51 13.38
3/7/2023 5:00:00 PM 2.64 36.752 0.056 7.34 5.63 13.38
3/7/2023 5:15:00 PM 2.6 36.68 0.056 7.34 5.56 13.36
3/7/2023 5:30:00 PM 2.58 36.644 0.056 7.33 5.68 13.36
3/7/2023 5:45:00 PM 2.55 36.59 0.057 7.32 5.71 13.33
3/7/2023 6:00:00 PM 2.52 36.536 0.057 7.31 5.45 13.33
3/7/2023 6:15:00 PM 2.48 36.464 0.057 7.29 5.71 13.33
3/7/2023 6:30:00 PM 2.44 36.392 0.057 7.29 5.65 13.33
3/7/2023 6:45:00 PM 2.39 36.302 0.057 7.28 5.76 13.36
3/7/2023 7:00:00 PM 2.34 36.212 0.057 7.28 5.66 13.37
3/7/2023 7:15:00 PM 2.32 36.176 0.056 7.27 5.5 13.38
3/7/2023 7:30:00 PM 2.28 36.104 0.056 7.28 5.45 13.39
3/7/2023 7:45:00 PM 2.24 36.032 0.056 7.27 5.3 13.42
3/7/2023 8:00:00 PM 2.19 35.942 0.056 7.27 5.2 13.43
3/7/2023 8:15:00 PM 2.15 35.87 0.056 7.27 5.5 13.45
3/7/2023 8:30:00 PM 2.13 35.834 0.056 7.27 5.39 13.46
3/7/2023 8:45:00 PM 2.08 35.744 0.056 7.27 5.32 13.49
3/7/2023 9:00:00 PM 2.05 35.69 0.056 7.26 5.15 13.51
3/7/2023 9:15:00 PM 2.02 35.636 0.056 7.26 5.16 13.52
3/7/2023 9:30:00 PM 2 35.6 0.056 7.26 5.23 13.54
3/7/2023 9:45:00 PM 1.98 35.564 0.056 7.25 5.31 13.54
3/7/2023 10:00:00 PM 1.97 35.546 0.056 7.26 5.15 13.55
3/7/2023 10:15:00 PM 1.94 35.492 0.056 7.26 4.99 13.56
3/7/2023 10:30:00 PM 1.92 35.456 0.056 7.26 4.96 13.57
3/7/2023 10:45:00 PM 1.9 35.42 0.056 7.25 4.9 13.58
3/7/2023 11:00:00 PM 1.88 35.384 0.056 7.26 4.83 13.58
3/7/2023 11:15:00 PM 1.87 35.366 0.056 7.25 4.74 13.59
3/7/2023 11:30:00 PM 1.86 35.348 0.056 7.25 4.65 13.59
3/7/2023 11:45:00 PM 1.83 35.294 0.056 7.25 4.77 13.61
3/8/2023 12:00:00 AM 1.83 35.294 0.056 7.25 4.68 13.6
3/8/2023 12:15:00 AM 1.81 35.258 0.056 7.24 4.77 13.61
3/8/2023 12:30:00 AM 1.8 35.24 0.056 7.25 4.62 13.62
3/8/2023 12:45:00 AM 1.78 35.204 0.056 7.25 4.79 13.63
3/8/2023 1:00:00 AM 1.77 35.186 0.056 7.25 4.69 13.63
3/8/2023 1:15:00 AM 1.76 35.168 0.056 7.25 4.7 13.65
3/8/2023 1:30:00 AM 1.74 35.132 0.056 7.25 4.66 13.65
3/8/2023 1:45:00 AM 1.73 35.114 0.056 7.24 4.58 13.66
3/8/2023 2:00:00 AM 1.71 35.078 0.056 7.24 4.56 13.66
3/8/2023 2:15:00 AM 1.7 35.06 0.056 7.24 4.65 13.67
3/8/2023 2:30:00 AM 1.69 35.042 0.056 7.24 4.54 13.67
3/8/2023 2:45:00 AM 1.67 35.006 0.056 7.24 4.51 13.67
3/8/2023 3:00:00 AM 1.65 34.97 0.056 7.24 4.63 13.69
3/8/2023 3:15:00 AM 1.64 34.952 0.056 7.24 4.52 13.7
3/8/2023 3:30:00 AM 1.61 34.898 0.056 7.24 4.46 13.7
3/8/2023 3:45:00 AM 1.61 34.898 0.056 7.24 4.47 13.71
3/8/2023 4:00:00 AM 1.59 34.862 0.056 7.24 4.38 13.72
3/8/2023 4:15:00 AM 1.58 34.844 0.056 7.24 4.66 13.72
3/8/2023 4:30:00 AM 1.56 34.808 0.056 7.24 4.59 13.73
3/8/2023 4:45:00 AM 1.55 34.79 0.056 7.23 4.44 13.73
3/8/2023 5:00:00 AM 1.54 34.772 0.056 7.24 4.43 13.74
3/8/2023 5:15:00 AM 1.52 34.736 0.056 7.24 4.44 13.75
3/8/2023 5:30:00 AM 1.5 34.7 0.056 7.24 4.37 13.76
3/8/2023 5:45:00 AM 1.48 34.664 0.056 7.23 4.41 13.77
3/8/2023 6:00:00 AM 1.48 34.664 0.056 7.24 4.51 13.77
3/8/2023 6:15:00 AM 1.46 34.628 0.056 7.23 4.26 13.77
3/8/2023 6:30:00 AM 1.45 34.61 0.056 7.24 4.43 13.78
3/8/2023 6:45:00 AM 1.44 34.592 0.056 7.24 4.36 13.8
3/8/2023 7:00:00 AM 1.42 34.556 0.056 7.23 4.42 13.83
3/8/2023 7:15:00 AM 1.41 34.538 0.056 7.25 4.3 13.87
3/8/2023 7:30:00 AM 1.42 34.556 0.056 7.25 4.3 13.89
3/8/2023 7:45:00 AM 1.42 34.556 0.056 7.27 4.37 13.92
3/8/2023 8:00:00 AM 1.43 34.574 0.056 7.28 4.39 13.94
3/8/2023 8:15:00 AM 1.44 34.592 0.056 7.29 4.38 13.96
3/8/2023 8:30:00 AM 1.48 34.664 0.056 7.3 4.31 13.97
3/8/2023 8:45:00 AM 1.52 34.736 0.056 7.3 4.31 13.97
3/8/2023 9:00:00 AM 1.55 34.79 0.056 7.31 4.33 13.96
3/8/2023 9:15:00 AM 1.57 34.826 0.056 7.32 4.31 13.96
3/8/2023 9:30:00 AM 1.61 34.898 0.055 7.31 4.45 13.95
3/8/2023 9:45:00 AM 1.65 34.97 0.055 7.32 4.32 13.95
3/8/2023 10:00:00 AM 1.71 35.078 0.055 7.33 4.22 13.94
3/8/2023 10:15:00 AM 1.78 35.204 0.055 7.33 4.23 13.92
3/8/2023 10:30:00 AM 1.87 35.366 0.055 7.34 4.28 13.89
3/8/2023 10:45:00 AM 2.03 35.654 0.055 7.34 4.25 13.85
3/8/2023 11:00:00 AM 2.21 35.978 0.055 7.35 4.23 13.77
3/8/2023 11:15:00 AM 2.26 36.068 0.055 7.34 4.49 13.74
3/8/2023 11:30:00 AM 2.42 36.356 0.055 7.33 4.24 13.68
3/8/2023 11:45:00 AM 2.5 36.5 0.055 7.35 4.38 13.62
3/8/2023 12:00:00 PM 2.6 36.68 0.055 7.33 4.3 13.6
3/8/2023 12:15:00 PM 2.7 36.86 0.055 7.35 4.47 13.54
3/8/2023 12:30:00 PM 2.82 37.076 0.055 7.35 4.55 13.47
3/8/2023 12:45:00 PM 2.94 37.292 0.055 7.33 4.74 13.42
3/8/2023 1:00:00 PM 3.04 37.472 0.055 7.35 5.34 13.38
3/8/2023 1:15:00 PM 3.11 37.598 0.055 7.35 5 13.35
3/8/2023 1:30:00 PM 3.18 37.724 0.055 7.35 4.62 13.32
3/8/2023 1:45:00 PM 3.21 37.778 0.055 7.36 4.66 13.3
3/8/2023 2:00:00 PM 3.22 37.796 0.056 7.35 4.88 13.29
3/8/2023 2:15:00 PM 3.24 37.832 0.056 7.36 5.11 13.27
3/8/2023 2:30:00 PM 3.23 37.814 0.056 7.35 5.33 13.26
3/8/2023 2:45:00 PM 3.23 37.814 0.056 7.36 5.12 13.26
3/8/2023 3:00:00 PM 3.2 37.76 0.056 7.34 5 13.26
3/8/2023 3:15:00 PM 3.17 37.706 0.055 7.35 5.06 13.27
3/8/2023 3:30:00 PM 3.12 37.616 0.056 7.34 5.46 13.27
3/8/2023 3:45:00 PM 3.08 37.544 0.056 7.34 5 13.27
3/8/2023 4:00:00 PM 3.04 37.472 0.056 7.34 5.03 13.27
3/8/2023 4:15:00 PM 2.99 37.382 0.056 7.33 5.08 13.29
3/8/2023 4:30:00 PM 2.96 37.328 0.056 7.32 4.98 13.3
3/8/2023 4:45:00 PM 2.93 37.274 0.056 7.32 5.04 13.3
3/8/2023 5:00:00 PM 2.91 37.238 0.056 7.32 5.19 13.3
3/8/2023 5:15:00 PM 2.89 37.202 0.056 7.31 5.08 13.3
3/8/2023 5:30:00 PM 2.86 37.148 0.056 7.31 5.16 13.29
3/8/2023 5:45:00 PM 2.83 37.094 0.056 7.3 5.02 13.29
3/8/2023 6:00:00 PM 2.8 37.04 0.056 7.3 5.13 13.28
3/8/2023 6:15:00 PM 2.77 36.986 0.056 7.28 5.31 13.28
3/8/2023 6:30:00 PM 2.74 36.932 0.056 7.28 5.23 13.29
3/8/2023 6:45:00 PM 2.71 36.878 0.056 7.28 5.21 13.3
3/8/2023 7:00:00 PM 2.68 36.824 0.056 7.27 5.12 13.3
3/8/2023 7:15:00 PM 2.64 36.752 0.056 7.27 5.06 13.33
3/8/2023 7:30:00 PM 2.6 36.68 0.056 7.27 5.08 13.35

These are provisional data and have not been subject to a quality assurance process, but rather are the raw data reported by the instrument.
H: value is above sensor operating range
L: value is below sensor operating range
Offline: station is not reporting data
NC: parameter is not collected at site

Data Availability & Limitations

Uncertainty and potential for error can be associated with environmental monitoring data. Provisional data have not been subject to a quality assurance process, but rather are the raw data reported by the instrument. Data users are cautioned to consider carefully the provisional nature of the information before using it for decisions that concern personal or public safety or the conduct of business that involves substantial monetary or operational consequences.

Approved data are currently available by request by emailing: [email protected]. Approved data have been subject to a quality assurance process to correct for equipment or fouling drift. Data recorded during equipment malfunctions have been removed.

View Historical Stations that have been discontinued.